Aviation Digital Data Service (ADDS)

Output produced by METARs form (1541 UTC 25 September 2016)
found at http://aviationweather.gov/adds/metars/
 
K04W 251533Z AUTO 19010KT 10SM BKN008 BKN012 OVC022 18/17 A2983 RMK AO2
K06D 251535Z AUTO 32024G37KT 10SM -RA FEW019 10/09 A2984 RMK AO2
K08D 251535Z AUTO 30018G26KT 10SM CLR 10/07 A3010 RMK AO2
K0A9 251535Z AUTO 00000KT 10SM CLR 28/16 A3014 RMK AO2
K0CO 251544Z AUTO 32014G24KT OVC001 M05/M13 A3063 RMK AO2 PWINO
K0E0 251535Z AUTO 06016G21KT 10SM CLR 16/00 A3040 RMK AO2 T01551005
K0F2 251515Z AUTO 01006KT 3SM BR OVC003 21/21 A3008 RMK AO2 LTG DSNT SE T02100205
K0R0 251535Z AUTO 31005KT 10SM CLR 29/23 A3009 RMK AO2
K0S9 251535Z AUTO 00000KT 10SM OVC055 14/12 A3041 RMK AO2
K0V4 251535Z AUTO 08003KT 4SM OVC038 21/15 A3019 RMK AO1 T02140146
K0VG 251510Z AUTO 00000KT 10SM CLR 27/18 A3017 RMK AO2
K11R 251535Z AUTO 16005KT 10SM CLR 30/24 A3001 RMK AO2 LTG DSNT SE T03000236
K12N 251454Z AUTO 35006G15KT 16/04 A3021 RMK AO1 SLP232 T01610039 58001
K14Y 251533Z AUTO 18007KT 10SM OVC016 12/10 A2985 RMK AO2
K18A 251535Z AUTO 00000KT 10SM CLR 30/19 A3013 RMK AO2 T03040187
K1A5 251525Z AUTO 00000KT 10SM CLR 25/17 A3019 RMK AO2 T02470166
K1A6 251535Z AUTO 00000KT 10SM CLR 22/19 A3015 RMK AO2 T02210189
K1A9 251535Z AUTO 00000KT 10SM CLR 32/22 A3001 RMK AO2 T03210217
K1B7 251458Z VRB03KT 10SM CLR BLW120 31/25 A3006
K1F0 251535Z AUTO 00000KT 10SM OVC005 21/20 A3008 RMK AO2
K1H2 251535Z AUTO 16004KT 10SM SCT070 27/22 A3009 RMK AO2 T02730218
K1J0 251458Z AUTO 06003KT 10SM CLR 29/23 A3006 RMK AO2 SLP136 T02890228 50002 $
K1K1 251535Z AUTO 35010G15KT 10SM -RA SCT043 SCT050 OVC100 15/12 A3019 RMK AO2 T01480119
K1L0 251535Z AUTO 00000KT 10SM SCT023 31/24 A3006 RMK AO2 T03100239
K1M4 251456Z AUTO 00000KT 10SM CLR 29/20 A3011 RMK AO2 SLP201 T02940200 51003
K1M5 251535Z AUTO 05004KT 10SM CLR 29/20 A3010 RMK A01
K1P1 251535Z AUTO 29013G18KT 10SM CLR 13/02 A3013 RMK AO2 T01270021
K1R7 251535Z AUTO 33003KT 10SM CLR A3009 RMK AO2
K1S5 251535Z AUTO 00000KT 10SM CLR 11/07 A3039 RMK AO2 T01070066
K1V4 250954Z AUTO 02/01 A3014 RMK AO1 SLP211 T00170011
K1V6 251530Z AUTO 15003KT 10SM CLR 15/01 A3048 RMK AO2
K1YT 251458Z AUTO 29002KT 10SM CLR 10/02 A3037 RMK AO2 SLPNO T01040024 53006 $
K20U 251515Z AUTO 30018G24KT 10SM CLR 09/04 A3027 RMK AO2
K20V 251536Z AUTO 00000KT 10SM CLR 07/00 A3056 RMK AO2
K21D 251533Z AUTO 22009KT 10SM CLR 17/15 A2990 RMK AO2
K22N 251535Z AUTO 00000KT 10SM CLR 17/05 A3024 RMK AO2
K24J 251535Z AUTO 00000KT CLR 31/24 A3007 RMK AO1
K28J 251515Z AUTO 00000KT 10SM FEW025 29/24 A3007 RMK AO2 TSNO
K2C8 251535Z AUTO 33013G19KT 10SM FEW012 SCT025 OVC032 12/11 A2969 RMK AO2
K2DP 251456Z AUTO 05008KT 10SM BKN049 22/16 A3015 RMK AO2 SLPNO 60011 T02160155 52007 $
K2G4 251530Z AUTO 13004KT 10SM CLR 15/09 A3023 RMK AO1
K2G9 251535Z AUTO 10004KT 10SM CLR 15/07 A3022 RMK AO2
K2I0 251535Z AUTO 00000KT 10SM CLR 29/22 A3010 RMK AO2 T02930215
K2J9 251515Z AUTO FEW060 29/23 A3007 RMK AO1
K2V5 251535Z AUTO 34019G25KT 10SM CLR 16/02 A3040 RMK AO2
K2V6 251534Z AUTO 34019G26KT 10SM CLR 13/02 A3041 RMK AO2
K2W6 251531Z AUTO 34005KT 10SM CLR 19/08 A3023 RMK AO1
K2WX 251456Z AUTO 30018KT 09/03 A3021 RMK AO1 PK WND 28027/1426 SLP238 T00940033 53023
K33V 251535Z AUTO 21003KT 10SM 04/00 A3057 RMK AO2
K36U 251535Z AUTO 00000KT 10SM CLR 04/01 A3053 RMK AO2
K3AU 251535Z AUTO 36011G14KT 10SM -DZ OVC090 14/12 A3020 RMK AO2
K3D2 251540Z AUTO 17013G18KT 10SM BKN013 OVC042 17/15 A3005 RMK AO2 T01730153
K3J7 251535Z AUTO 00000KT 10SM CLR 31/18 A3008 RMK AO2
K3K3 251535Z AUTO 01018G27KT 10SM CLR 18/05 A3035 RMK AO2
K3LF 251535Z AUTO 21008KT 10SM CLR 30/18 A3006 RMK AO2 T02960181
K3N8 251535Z AUTO 22013G18KT 10SM OVC011 12/11 A2975 RMK AO2 T01240105
K3R7 251535Z AUTO 11010KT 10SM VCTS SCT019 SCT026 29/24 A3005 RMK AO2 LTG DSNT SW T02860237
K3T5 251535Z AUTO 17006KT 10SM SCT021 SCT026 BKN049 29/24 A2998 RMK AO2 LTG DSNT SE T02900236
K40B 251516Z AUTO VRB04G12KT 09/01 A3003 RMK AO1 SLP184 T00930013 52006
K40J 251535Z AUTO 00000KT 10SM OVC120 28/25 A3005 RMK AO2 T02780250
K42J 251535Z AUTO 00000KT 10SM BKN023 29/23 A3007 RMK AO1 TSNO
K46D 251535Z AUTO 31026G35KT 10SM BKN019 BKN034 OVC060 13/09 A2991 RMK AO2
K46U 251520Z AUTO 00000KT 1/4SM FG OVC003 03/03 A3058 RMK A01
K49A 251535Z AUTO 00000KT 10SM CLR A3017 RMK AO2
K4A6 251515Z AUTO 00000KT 10SM CLR 29/19 A3010 RMK AO2
K4A7 251535Z AUTO 10004KT 10SM CLR 30/22 A3012 RMK AO2 T03040220
K4A9 251510Z AUTO 00000KT 10SM CLR 30/16 A3010 RMK AO2
K4BM 251536Z AUTO 00000KT 10SM CLR 01/M03 A3064 RMK AO2
K4I3 251538Z AUTO 09004KT 10SM CLR 21/12 A3020 RMK AO2
K4I7 251535Z AUTO 14004KT 10SM CLR 25/21 A3012 RMK AO2
K4M9 251535Z AUTO 28004KT 8SM 28/22 A3008 RMK AO2 PWINO PNO
K4MR 251513Z AUTO M 10SM SCT024 BKN120 M M RMK AO2 $
K4O4 251535Z AUTO 00000KT 10SM CLR 27/21 A3007 RMK AO2
K4V0 251535Z AUTO 11003KT 10SM CLR 08/04 A3052 RMK AO2 T00750044
K54J 251535Z AUTO 05004KT 10SM CLR 30/21 A3005 RMK AO2 LTG DSNT S T03030212
K5A6 251535Z AUTO 00000KT 10SM CLR 31/20 A3006 RMK AO2 T03070199
K5C1 251535Z AUTO 14012G15KT 10SM BKN014 SCT019 SCT030 26/21 A3002 RMK AO1
K5H4 251535Z AUTO 31025G34KT 10SM BKN018 BKN024 11/10 A2995 RMK AO2 PWINO PNO
K5M9 251535Z AUTO 14004KT 10SM CLR 31/20 A3010 RMK AO2 T03050195
K5R8 251535Z AUTO 13008KT 10SM VCTS SCT016 28/24 A3004 RMK AO2 LTG DSNT S T02810236
K5SM 251534Z AUTO 7SM SCT002 A3064 RMK AO2 TSNO
K65S 251535Z AUTO 00000KT 10SM FEW070 OVC090 09/04 A3042 RMK AO2
K66R 251535Z AUTO 13006KT 10SM CLR 29/25 A3000 RMK AO2 LTG DSNT SE AND SW T02940251
K6A1 251535Z AUTO 10004KT 10SM 32/20 A3010 RMK AO2 T03220199
K6A2 251535Z AUTO 11003KT 10SM CLR 30/22 A3012 RMK AO2
K6B0 251535Z AUTO 35008KT 10SM SCT039 SCT046 13/03 A3019 RMK AO2 T01340030
K6I2 251525Z AUTO 00000KT 9SM CLR 28/20 A3013 RMK AO2
K6L4 251535Z AUTO 00000KT 10SM CLR 25/19 A3016 RMK AO2
K6R3 251535Z AUTO 00000KT 7SM SCT004 SCT012 BKN080 28/25 A3003 RMK AO2 LTG DSNT SE T02760250
K6R6 251453Z AUTO 04007KT 20/19 A3002 RMK AO1 SLP138 T02000194 51016
K79J 251456Z AUTO VRB03KT 10SM CLR 33/22 A3005 RMK AO2 SLP171 T03280217 51001 $
K7BM 251534Z AUTO 00000KT 10SM CLR 06/M02 A3058 RMK AO2
K7L2 251515Z AUTO 31023G33KT 10SM BKN024 12/08 A3005 RMK AO2
K7N0 251456Z AUTO 05006KT 10SM 29/24 A3006 RMK AO2 SLP180 6//// T02890239 53003 PNO $
K7R3 251128Z 07004KT 10SM SKC 24/23 A3003
K7W4 251535Z AUTO 00000KT 10SM OVC037 18/15 A3021 RMK AO1 T01800147
K7W6 251525Z AUTO 02005KT 10SM OVC050 21/17 A3015 RMK AO2 T02120165
K82C 251535Z AUTO 21005KT 10SM SCT041 OVC047 22/19 A2995 RMK AO2 T02220193
K82V 251535Z AUTO 33011G18KT 10SM CLR 12/00 A3047 RMK AO2
K8A0 251535Z AUTO 17006KT 10SM CLR 32/21 A3009 RMK AO2
K8D3 251456Z AUTO 31019G25KT 16/11 A2984 RMK AO1 SLP092 T01560111 51016
K8W2 251535Z AUTO 05003KT 10SM OVC020 A3022 RMK AO1
K96D 251535Z AUTO 32015G19KT 6SM -RA CLR 11/10 A2973 RMK AO2 P0008
K9A5 251535Z AUTO 00000KT 10SM SCT095 SCT120 31/14 A3011 RMK AO2 T03070139
K9D7 251535Z AUTO 31018G28KT 10SM FEW022 BKN027 OVC055 11/11 A2985 RMK AO2
K9F2 251026Z 00000KT 7SM SKC 26/23 A2998
K9L2 251456Z AUTO 32003KT 10SM CLR 18/M04 A3020 RMK AO2 SLP214 T01831044 53016 $
K9MN 251534Z AUTO 26010G16KT 140V300 10SM 18/18 A2994 RMK AO1 T01790178
K9V9 251535Z AUTO 30022G31KT 10SM BKN038 BKN044 17/07 A3013 RMK AO2 T01720074
KA08 251535Z AUTO 11003KT 10SM CLR 31/20 A3004 RMK AO2 T03120204
KAAA 251515Z AUTO 18008KT 10SM CLR 28/21 A3005 RMK AO2
KAAF 251453Z AUTO VRB03KT 10SM CLR 30/26 A3003 RMK AO2 SLP170 T03000261 51001 $
KAAO 251454Z AUTO 35013KT 10SM -RA BKN044 OVC090 14/13 A3019 RMK AO2 SLP217 6//// T01440128 53035 PNO $
KAAT 251455Z AUTO 00000KT 10SM CLR 05/M02 A3047 RMK AO2 SLP306 T00501022 53006
KABE 251451Z 32006KT 10SM CLR 17/06 A3023 RMK AO2 SLP235 T01670056 58002
KABI 251452Z 04006KT 8SM -RA OVC100 19/19 A3007 RMK AO2 SLP164 P0003 60009 T01940189 51009
KABQ 251452Z 33005KT 10SM FEW060 BKN230 12/01 A3033 RMK AO2 SLP220 T01220011 51015
KABR 251453Z AUTO 31022G27KT 10SM OVC024 14/08 A2994 RMK AO2 PK WND 30029/1428 SLP139 T01440083 51033
KABY 251453Z 05005KT 10SM CLR 30/22 A3009 RMK AO2 SLP186 T03000217 51002
KACB 251534Z AUTO 17010G16KT 10SM SCT060 SCT085 BKN110 19/10 A3015 RMK AO2 T01900097
KACJ 251535Z AUTO 07004KT 10SM SCT044 30/18 A3009 RMK AO2
KACK 251453Z 34012G20KT 10SM SCT039 15/05 A3011 RMK AO2 SLP195 T01500050 53002
KACP 251535Z AUTO 10004KT 10SM SCT017 28/23 A3005 RMK AO2 LTG DSNT SW T02830232
KACQ 251534Z AUTO 27010G14KT 10SM CLR 16/11 A2996 RMK AO2
KACT 251451Z 15005KT 7SM OVC008 26/23 A3001 RMK AO2 LTG DSNT SW-N SLP156 T02560233 53007 $
KACV 251511Z AUTO 00000KT 10SM FEW001 10/10 A3013 RMK AO2 T01000100
KACY 251454Z 04008KT 10SM CLR 20/07 A3021 RMK AO2 SLP228 T02000067 52003
KADC 251455Z AUTO 22010KT 10SM OVC017 13/10 A2980 RMK AO2
KADF 251456Z AUTO 00000KT 10SM CLR 26/23 A3007 RMK AO2 SLP183 T02610228 51004 $
KADG 251453Z AUTO 16010G15KT 10SM CLR 18/08 A3020 RMK AO2 SLP227 T01830083 58004
KADM 251455Z 00000KT 10SM OVC007 22/22 A3006
KADS 251447Z AUTO 31005KT 1SM OVC004 23/23 A3004
KADU 251535Z AUTO 30006KT 10SM CLR 15/11 A3011 RMK AO2
KADW 251458Z AUTO 03006KT 10SM CLR 19/09 A3021 RMK AO2 SLP236 T01860092 55000
KAEG 251447Z 36010G15KT 10SM SCT100 12/01 A3035
KAEJ 251535Z AUTO 00000KT 10SM CLR 08/M02 A3052 RMK AO2 T00811021
KAEL 251533Z AUTO 26007KT 10SM CLR 14/14 A2997 RMK AO2
KAEX 251453Z 12005KT 6SM HZ CLR 28/23 A3004 RMK AO2 SLP174 T02780228 51008
KAFF 251458Z AUTO 35011KT 10SM CLR 10/M01 A3050 RMK AO2 SLP288 T00991014 52017
KAFJ 251535Z AUTO 05003KT 10SM CLR 19/12 A3020 RMK AO1
KAFK 251535Z AUTO 32009KT 10SM CLR 16/06 A3017 RMK AO2 T01600058
KAFN 251452Z AUTO 33007KT 10SM CLR 12/01 A3017 RMK AO2 SLP224 T01220006 58000
KAFO 251535Z AUTO 00000KT 10SM CLR 03/01 A3056 RMK AO2
KAFP 251525Z AUTO 09006KT 5SM HZ OVC010 24/21 A3014 RMK AO2 T02410205
KAFW 251530Z 01006KT 2SM TSRA BR SCT006 BKN021CB OVC055 22/21 A3006 RMK AO2 SFC VIS 3 LTG DSNT NE OCNL LTGICCC NE-SE TS NE-SE MOV NE CB DSNT NE AND S MOV NE P0009 T02170206 $
KAGC 251453Z AUTO 00000KT 10SM CLR 18/08 A3020 RMK AO2 SLP228 T01780083 51004 TSNO
KAGS 251453Z VRB04KT 10SM CLR 28/21 A3010 RMK AO2 SLP189 T02830211 50001 $
KAHN 251451Z 00000KT 10SM CLR 28/20 A3013 RMK AO2 SLP194 T02830200 51006
KAHQ 251535Z AUTO 30013KT 10SM CLR 17/09 A3015 RMK AO2 T01740090
KAIA 251453Z AUTO 32018G25KT 10SM CLR 11/04 A3037 RMK AO2 SLP275 T01110044 51020
KAIB 251535Z AUTO 00000KT 10SM CLR 10/02 A3048 RMK AO2
KAIG 251535Z AUTO 19006G14KT 1 3/4SM RA OVC002 16/16 A3001 RMK AO2 P0001 T01550155
KAIK 251535Z AUTO 05006KT 10SM CLR 27/19 A3015 RMK AO2 LTG DSNT SE
KAIO 251535Z AUTO 28006G11KT 10SM CLR 16/11 A3012 RMK AO2
KAIT 251533Z AUTO 22014G18KT 10SM CLR 18/12 A2979 RMK AO2
KAIZ 251456Z AUTO 17004KT 10SM CLR 25/21 A3009 RMK AO2 SLP201 T02500211 51007
KAJG 251535Z AUTO 19003KT 10SM CLR 29/19 A3009 RMK AO2 T02860192
KAJO 251456Z AUTO 12007KT 10SM CLR 23/05 A3004 RMK AO2 SLP175 T02280050 51012 $
KAJR 251535Z AUTO 00000KT 7SM CLR 29/16 A3016 RMK AO2 T02880161
KAJZ 251415Z AUTO 07006KT 10SM CLR 08/04 A3048 RMK AO2 T00780042
KAKH 251454Z AUTO 01004KT 10SM CLR 28/19 A3014 RMK AO2 SLP200 T02780194 51004
KAKO 251453Z AUTO 34012G19KT 10SM CLR 12/02 A3044 RMK AO2 SLP287 T01170022 51019
KAKQ 251454Z AUTO 06003KT 10SM BKN060 BKN070 21/16 A3019 RMK AO2 SLP221 T02110156 51006 TSNO
KAKR 251454Z AUTO 00000KT 10SM CLR 18/09 A3020 RMK AO2 SLP226 T01830094 58000
KALB 251451Z 33005KT 10SM FEW030 FEW250 14/02 A3023 RMK AO2 SLP237 T01390022 50001
KALI 251453Z AUTO 14008KT 10SM CLR 28/24 A2992 RMK AO2 SLP130 T02830244 51002 TSNO
KALK 251456Z AUTO 06009KT 10SM CLR 18/M03 A3017 RMK AO2 SLP140 T01831028 51009
KALM 251535Z AUTO 13006KT 10SM CLR 17/00 A3017 RMK AO2
KALN 251455Z 20007KT 10SM SCT200 27/21 A3006
KALO 251524Z 22008KT 10SM BKN012 OVC019 21/19 A2997 RMK AO2 T02110194
KALS 251452Z AUTO 33004KT 10SM CLR 07/M01 A3049 RMK AO2 SLP287 T00721011 51015
KALW 251453Z 00000KT 10SM CLR 14/02 A3039 RMK AO2 SLP292 T01390022 53005
KALX 251535Z AUTO 00000KT 10SM CLR 31/25 A3009 RMK AO2 T03080247
KAMA 251453Z 01021G33KT 10SM OVC038 15/06 A3028 RMK AO2 PK WND 02033/1424 SLP221 T01500061 53030
KAMG 251453Z AUTO VRB03KT 10SM CLR 29/22 A3008 RMK AO2 SLP183 T02890217 52004
KAMN 251534Z AUTO 18005KT 10SM CLR 19/14 A3019 RMK AO2 T01880138
KAMW 251453Z AUTO 30011KT 10SM BKN110 16/13 A3004 RMK AO2 SLP167 60000 T01560128 53021
KANB 251453Z AUTO 05004KT 10SM CLR 30/18 A3009 RMK AO2 SLP179 T03000178 50001
KAND 251456Z AUTO 00000KT 10SM CLR 30/17 A3012 RMK AO2 SLP190 T03000172 53002
KANE 251450Z 23008KT 10SM FEW025 SCT080 BKN150 17/14 A2989
KANJ 251455Z AUTO 15011G17KT 10SM CLR 17/10 A3017 RMK AO2 SLP217 T01720100 56010
KANK 251535Z AUTO 00000KT 10SM CLR 08/M01 A3060 RMK AO1 T00811009
KANQ 251535Z AUTO 14005KT 10SM OVC070 20/16 A3017 RMK
KANW 251535Z AUTO 30021G30KT 10SM CLR 15/05 A3024 RMK AO2 T01470049
KAOH 251453Z AUTO 00000KT 10SM CLR 21/13 A3017 RMK AO2 SLP213 T02110128 58002
KAOO 251453Z AUTO 09006KT 10SM CLR 16/05 A3025 RMK AO2 SLP242 T01560050 50002
KAPA 251453Z 15005KT 10SM FEW060 SCT080 SCT150 10/M01 A3049 RMK AO2 SLP301 T01001006 51018
KAPC 251454Z 00000KT 10SM CLR 13/11 A3005 RMK AO2 SLP165 T01280106 53007
KAPF 251453Z VRB06KT 10SM FEW023 30/24 A3003 RMK AO2 SLP169 T03000244 51011
KAPN 251454Z AUTO 17011KT 10SM CLR 18/09 A3020 RMK AO2 SLP230 T01780094 58008
KAPY 251535Z AUTO 16009G16KT 10SM SCT030 30/21 A2990 RMK AO2 LTG DSNT E T03060210
KAQO 251510Z AUTO 00000KT 10SM FEW013 SCT047 BKN050 22/22 A3007 RMK AO2 LTG DSNT NE AND SW P0001
KAQP 251455Z AUTO 27013G22KT 10SM SCT025 BKN034 16/11 A2986 RMK AO2
KAQR 251535Z AUTO 09003KT 10SM BKN021 BKN120 26/19 A3007 RMK AO2
KAQV 251456Z AUTO VRB04KT 10SM CLR 28/23 A3004 RMK AO2 SLP167 T02780228 50004
KAQW 251452Z AUTO 29006KT 10SM CLR 12/02 A3021 RMK AO2 SLP233 T01170022 58002
KAQX 251535Z AUTO 09005KT 10SM FEW026 FEW032 29/22 A3010 RMK AO2
KARA 251501Z 17007KT 10SM FEW019 SCT025 29/23 A3005 RMK AO2 T02940233
KARB 251453Z 08009KT 10SM CLR 18/13 A3019 RMK AO2 SLP224 T01830128 58004
KARG 251535Z AUTO 25007KT 10SM CLR 29/19 A3007 RMK AO1
KARM 251535Z AUTO 10004KT 10SM VCTS CLR A2999 RMK AO2 LTG DSNT E THRU S
KARR 251452Z 17008KT 7SM CLR 23/18 A3007 RMK AO2 SLP179 T02280178 58003
KART 251456Z AUTO 35004KT 10SM CLR 13/04 A3028 RMK AO2 SLP254 T01280039 50004
KARV 251510Z AUTO 15008KT 3SM -RA BKN006 BKN013 OVC037 17/16 A2995 RMK AO2 P0001 T01660160
KARW 251535Z AUTO 04009KT 7SM SCT012 27/22 A3010 RMK AO2
KASD 251453Z AUTO 02005KT 10SM CLR 29/23 A3005 RMK AO2 SLP176 T02890233 51003
KASE 251453Z 36003KT 10SM CLR 06/03 A3052 RMK AO2 SLP278 T00560028 52009
KASG 251448Z 17005KT 10SM SKC 25/21 A3013
KASH 251456Z 33016G21KT 10SM CLR 15/02 A3014 RMK AO2 SLP217 T01500017 58007
KASJ 251505Z AUTO 09003KT 10SM SCT019 SCT033 BKN043 21/17 A3018 RMK AO2 T02050173
KASL 251535Z AUTO 00000KT 10SM SCT011 26/21 A3007 RMK AO1 T02580212
KASN 251535Z AUTO 00000KT 10SM CLR 32/19 A3009 RMK AO2 T03180188
KAST 251455Z AUTO 00000KT 10SM OVC044 16/13 A3036 RMK AO2 SLP280 T01560128 53003
KASW 251535Z AUTO 13006KT 10SM CLR 21/10 A3014 RMK AO2
KASX 251453Z AUTO 17007KT 10SM OVC014 18/16 A2986 RMK AO2 RAE07 SLP111 P0000 60002 T01830161 56024 $
KATL 251452Z 08005KT 10SM FEW150 SCT250 28/20 A3012 RMK AO2 SLP189 T02780200 51006 $
KATP 251535Z AUTO 10006KT 10SM CLR 29/24 A3006 RMK A01
KATS 251535Z AUTO 01016G23KT 10SM FEW085 SCT120 18/07 A3021 RMK AO2
KATT 251451Z AUTO 00000KT 10SM BKN017 BKN022 26/23 A3001 RMK AO2 RAB17E31 SLP148 P0000 60001 T02560233 52009
KATW 251445Z 15011KT 10SM BKN010 BKN060 20/19 A3001
KATY 251530Z AUTO 29013G25KT 10SM OVC016 13/10 A2995 RMK AO2 T01330100
KAUG 251453Z AUTO 32015G22KT 10SM SCT050 14/01 A3006 RMK AO2 SLP181 T01390011 50000
KAUH 251535Z AUTO 33019G25KT 10SM CLR 18/07 A3022 RMK AO2 T01750070
KAUM 251536Z AUTO 27008KT 10SM OVC017 17/13 A2996 RMK AO2
KAUN 251535Z AUTO 00000KT 10SM CLR 23/00 A3012 RMK AO1
KAUO 251456Z AUTO 00000KT 10SM CLR 29/21 A3010 RMK AO2 SLP201 T02940206 53004
KAUS 251510Z 14004KT 10SM BKN012 BKN043 OVC100 26/23 A3000 RMK AO2 T02610233 $
KAUW 251537Z AUTO 13004KT 4SM BR BKN006 OVC034 17/16 A2995 RMK AO2 RAE34 P0023 T01670161
KAVC 251536Z AUTO 00000KT 10SM BKN018 BKN030 OVC037 21/18 A3024 RMK AO2 T02110175
KAVK 251535Z AUTO 01018G23KT 10SM OVC110 17/10 A3022 RMK AO2
KAVL 251454Z 18004KT 10SM CLR 24/14 A3020 RMK AO2 SLP203 T02390144 58001
KAVP 251454Z AUTO 23003KT 10SM CLR 13/06 A3024 RMK AO2 SLP240 T01330061 51004
KAVQ 251535Z AUTO 13007KT 10SM CLR 20/M01 A3004 RMK AO2 T02031014
KAVX 251451Z AUTO 07007KT 10SM CLR 28/M02 A3007 RMK AO2 SLP150 T02781022 53013 TSNO
KAWM 251453Z AUTO 15010KT 10SM CLR 29/18 A3005 RMK AO2 SLP170 T02940178 51004
KAWO 251535Z AUTO 00000KT 10SM OVC050 14/07 A3042 RMK AO1
KAXA 251535Z AUTO 28012G22KT 10SM CLR 16/11 A3002 RMK AO2
KAXH 251535Z AUTO 11004KT 10SM CLR 25/23 A3001 RMK AO2 LTG DSNT E THRU SW T02540233
KAXN 251453Z AUTO 23012KT 10SM OVC016 13/11 A2985 RMK AO2 SLP106 T01330111 58002
KAXO 251035Z 00000KT 7SM SKC 27/23 A3000
KAXS 251535Z AUTO 28004KT 10SM SCT008 SCT065 23/20 A3012 RMK AO2 T02270199
KAXV 251531Z AUTO 16003KT 10SM CLR 23/13 A3016 RMK AO2
KAXX 251535Z AUTO 02011KT 10SM CLR 09/M01 A3051 RMK AO2 T00851006
KAYS 251535Z AUTO 12005KT 10SM SCT031 SCT039 BKN070 32/24 A3007 RMK AO2 T03160240
KAZC 251535Z AUTO 04009KT 10SM CLR 16/01 A3041 RMK AO2
KAZE 251535Z AUTO 19004KT 10SM SCT029 SCT034 SCT044 30/24 A3007 RMK AO2 T03040235
KAZO 251453Z 16007KT 10SM OVC075 17/11 A3017 RMK AO2 SLP217 T01720106 58002
KBAB 251458Z AUTO 00000KT 10SM CLR 14/04 A3005 RMK AO2 SLP178 T01440044 52009 $
KBAC 251535Z AUTO 31027G35KT 10SM -RA BKN017 12/12 A2986 RMK AO2
KBAD 251458Z AUTO 13003KT 10SM CLR 27/23 A3005 RMK AO2 SLP177 T02730230 50003
KBAF 251453Z 33009KT 10SM CLR 16/01 A3017 RMK AO2 SLP220 T01560011 58004
KBAK 251455Z 00000KT 10SM SKC 22/19 A3014
KBAN 251452Z AUTO 00000KT 10SM M01/M09 A3053 RMK AO2 SLP315 T10061094 52008 FZRANO $
KBAX 251533Z AUTO 16009KT 10SM CLR 18/10 A3022 RMK AO2 T01790104
KBAZ 251509Z 13005KT 10SM BKN008 OVC012 26/24 A2998 RMK AO2 T02610239
KBBB 251534Z AUTO 29015G22KT 10SM BKN025 OVC032 16/11 A2987 RMK AO2
KBBF 251535Z AUTO 17015KT 10SM CLR 30/24 A2995 RMK A01
KBBG 251450Z 00000KT 10SM BKN200 26/20 A3012
KBBP 251535Z AUTO 08005KT 10SM OVC009 26/23 A3013 RMK AO2
KBBW 251453Z AUTO 32019G25KT 10SM CLR 15/07 A3024 RMK AO2 PK WND 31027/1439 SLP234 T01500067 51016
KBCB 251535Z AUTO 11004KT 7SM OVC009 21/18 A3024 RMK AO2 T02050184 TSNO
KBCE 251453Z AUTO 05007KT 10SM CLR 05/00 A3050 RMK AO2 SLP267 T00500000 53011
KBCK 251535Z AUTO 00000KT 3SM BR OVC011 19/19 A2994 RMK AO2 T01930193
KBCT 251450Z 14004KT 10SM FEW019 SCT024 26/24 A3005
KBDE 251517Z AUTO 20012G19KT 10SM FEW008 FEW011 SCT029 18/16 A2966 RMK AO2 T01780156 TSNO
KBDG 251535Z AUTO 04017G23KT 10SM CLR 15/M01 A3047 RMK AO1 T01451011
KBDH 251536Z AUTO 25015G18KT 10SM BKN022 16/12 A2990 RMK AO2
KBDL 251451Z 36008KT 330V050 10SM CLR 16/03 A3018 RMK AO2 SLP221 T01560033 58002
KBDN 251535Z AUTO 00000KT 10SM CLR 12/M01 A3046 RMK AO2
KBDR 251452Z 01012G17KT 10SM CLR 18/00 A3019 RMK AO2 SLP223 T01780000 50000
KBDU 251536Z AUTO 00000KT 10SM CLR 13/01 A3047 RMK AO2
KBEA 251535Z AUTO 14007KT 10SM CLR 29/25 A2995 RMK AO2 LTG DSNT SE T02910249
KBED 251456Z 33011G23KT 10SM CLR 15/01 A3012 RMK AO2 SLP213 T01500011 58008
KBEH 251453Z AUTO 13011KT 10SM FEW040 SCT055 SCT075 19/12 A3011 RMK AO2 SLP196 T01940117 58008 $
KBFD 251453Z AUTO 07005KT 10SM CLR 13/07 A3025 RMK AO2 SLP245 T01330067 50005
KBFF 251453Z AUTO 29009KT 10SM CLR 11/04 A3043 RMK AO2 SLP294 T01110044 51019
KBFI 251453Z 00000KT 10SM OVC047 16/11 A3039 RMK AO2 SLP289 T01560111 51006
KBFL 251454Z 00000KT 10SM CLR 19/03 A3008 RMK AO2 SLP182 T01890033 53012 $
KBFM 251453Z 30005KT 10SM CLR 30/22 A3006 RMK AO2 SLP178 T03000222 50005
KBFW 251534Z AUTO 00000KT 3SM RA OVC003 16/16 A2982 RMK AO2 P0012
KBGD 251451Z AUTO 03021G28KT 10SM FEW110 16/06 A3029 RMK AO2 PK WND 02028/1428 SLP228 60000 T01610061 51036
KBGE 251535Z AUTO 00000KT 10SM CLR 31/22 A3005 RMK AO2
KBGF 251535Z AUTO 00000KT 10SM CLR 31/19 A3010 RMK
KBGM 251453Z 33007KT 10SM CLR 12/00 A3025 RMK AO2 SLP247 T01170000 53010 $
KBGR 251453Z 32012KT 10SM BKN044 11/03 A3004 RMK AO2 SLP171 T01110028 51002
KBHB 251456Z AUTO 33009G17KT 10SM OVC038 A3002 RMK AO2 SLPNO 50000 FZRANO $
KBHC 251535Z AUTO 03003KT 10SM SCT027 BKN039 BKN045 29/25 A3008 RMK AO2 PNO
KBHK 251451Z AUTO 29015KT 10SM CLR 08/03 A3028 RMK AO2 SLP260 T00830033 51020 $
KBHM 251453Z VRB03KT 10SM SCT250 31/18 A3010 RMK AO2 SLP185 T03060178 51002
KBID 251456Z AUTO 34008G15KT 10SM CLR 14/04 A3016 RMK AO2 SLP217 T01440039 58000
KBIE 251535Z AUTO 31009G14KT 10SM CLR 16/10 A3020 RMK AO2 T01570098
KBIF 251458Z AUTO 32009KT 10SM FEW085 BKN230 19/00 A3014 RMK AO2 CIG 200 RWY21 SLP154 T01931000 52016 $
KBIH 251456Z AUTO 26008KT 10SM CLR 16/M05 A3038 RMK AO2 SLP249 T01611050 51013
KBIJ 251535Z AUTO 00000KT 10SM CLR 32/21 A3005 RMK AO2
KBIL 251453Z 22010KT 10SM FEW075 09/03 A3039 RMK AO2 SLP291 T00890028 51011
KBIS 251452Z AUTO 31014G29KT 10SM FEW022 BKN050 12/07 A3003 RMK AO2 PK WND 31032/1420 SLP172 60000 T01170072 51034
KBIV 251453Z AUTO 13011KT 10SM BKN065 OVC080 17/13 A3014 RMK AO2 SLP207 T01720128 58005
KBIX 251458Z AUTO VRB03KT 10SM FEW065 30/24 A3005 RMK AO2 SLP179 T02980238 50004
KBJC 251445Z 15010KT 50SM FEW120 12/01 A3048
KBJI 251532Z AUTO 23011G20KT 10SM BKN019 OVC024 14/11 A2975 RMK AO2 T01370105
KBJJ 251456Z AUTO VRB03KT 10SM CLR 17/10 A3021 RMK AO2 SLP228 T01720100 58001
KBKB 251454Z AUTO 00000KT 10SM CLR 28/23 A3002 RMK AO2 SLP192 T02780233 50005
KBKD 251510Z AUTO 07007KT 10SM -RA BKN006 BKN017 OVC060 22/22 A3005 RMK AO2 LTG DSNT E T02190215
KBKE 251453Z AUTO 00000KT 10SM CLR 03/00 A3049 RMK AO2 SLP336 T00330000 53013
KBKF 251458Z 05008KT 10SM FEW050 FEW090 SCT220 11/00 A3048 RMK AO2A SLP284 T01101005 52016
KBKL 251453Z 16008KT 10SM CLR 19/08 A3020 RMK AO2 SLP225 T01890078 50001
KBKS 251535Z AUTO 14010KT 110V170 10SM CLR 31/24 A2992 RMK AO1 T03100238
KBKT 251535Z AUTO 08006KT 10SM SCT016 OVC037 21/17 A3019 RMK AO1 T02070172
KBKV 251453Z VRB03KT 10SM CLR 30/23 A3006 RMK AO2 SLP177 T03000228 53006 $
KBKW 251451Z AUTO 26005KT 10SM CLR 23/17 A3020 RMK AO2 SLP198 T02330167 58001
KBKX 251501Z AUTO 29022G25KT 10SM OVC020 13/10 A2997 RMK AO2 PK WND 28026/1451 SLP158 T01330100 53003
KBLF 251452Z AUTO VRB03KT 10SM CLR 21/17 A3023 RMK AO2 SLP202 T02110167 53000
KBLH 251452Z AUTO 35017KT 10SM CLR 27/03 A3002 RMK AO2 SLP160 T02720028 $
KBLI 251453Z 01003KT 10SM OVC048 13/11 A3040 RMK AO2 RAB1359E10B35E45 SLP301 P0000 60000 T01280111 53007
KBLM 251456Z AUTO 35005KT 10SM CLR 18/06 A3021 RMK AO2 SLP236 T01780061 53001
KBLU 251452Z AUTO 08007G19KT 030V150 10SM CLR 18/M10 A3033 RMK AO2 PK WND 09031/1354 SLP188 T01781100 53009 TSNO
KBLV 251458Z AUTO 21009KT 10SM CLR 28/21 A3006 RMK AO2 SLP179 T02810208 50001 $
KBMC 251510Z AUTO 31003KT 10SM 08/05 A3049 RMK AO1 T00800048
KBMG 251453Z 14005KT 10SM CLR 24/19 A3013 RMK AO2 SLP193 T02440189 50001
KBMI 251456Z 18010KT 10SM CLR 25/21 A3008 RMK AO2 SLP195 T02500206 58003
KBML 251452Z AUTO 35010G17KT 310V020 10SM BKN041 10/01 A3010 RMK AO2 SLP203 T01000011 50000
KBMQ 251538Z AUTO 02007KT 4SM BR SCT007 BKN046 OVC075 22/20 A3005 RMK AO2 T02170200
KBMT 251535Z AUTO 11007KT 10SM VCTS SCT017 SCT043 29/23 A3003 RMK AO2 LTG DSNT E AND SE T02940233
KBNA 251453Z 00000KT 10SM CLR 27/19 A3010 RMK AO2 SLP185 T02720194 50001
KBNO 251453Z AUTO 00000KT 10SM CLR 05/M04 A3050 RMK AO2 SLP329 T00501044 53010
KBNW 251535Z AUTO 30014G20KT 10SM SCT110 16/12 A3005 RMK AO2
KBOI 251453Z 18005KT 10SM CLR 10/03 A3045 RMK AO2 SLP304 T01000028 51013
KBOK 251456Z AUTO VRB04KT 10SM CLR 23/06 A3017 RMK AO2 SLP225 T02330056 56003
KBOS 251454Z 32015G23KT 10SM CLR 14/02 A3013 RMK AO2 SLP202 T01440017 58005
KBOW 251451Z 36004KT 15SM SKC 29/20 A3006
KBPC 251535Z AUTO 04019G28KT 10SM BKN120 18/05 A3030 RMK AO2
KBPG 251535Z AUTO 05007KT 10SM SCT012 SCT018 BKN029 21/19 A3013 RMK AO2 T02120187
KBPI 251453Z AUTO 00000KT 10SM CLR 04/01 A3052 RMK AO2 SLP319 T00390011 53012 $
KBPK 251453Z AUTO 00000KT 10SM FEW110 26/22 A3010 RMK AO2 SLP181 T02610217 51008 $
KBPT 251453Z 11006KT 10SM SCT035 27/24 A3002 RMK AO2 LTG DSNT E AND SE SLP164 60000 T02720239 53013
KBQK 251535Z AUTO 02004KT 10SM SCT022 SCT033 BKN041 28/25 A3009 RMK AO2
KBQP 251535Z AUTO 30005KT 10SM CLR 31/22 A3007 RMK AO2 T03060221
KBQX 251535Z AUTO 13008KT 10SM CLR 30/24 A2999 RMK A01
KBRD 251526Z AUTO 24016KT 10SM BKN020 15/11 A2982 RMK AO2 T01500106
KBRL 251453Z AUTO 23009KT 9SM CLR 22/21 A3001 RMK AO2 SLP158 T02220211 53003
KBRO 251453Z 17012KT 10SM CLR 31/24 A2992 RMK AO2 SLP131 T03110244 52004
KBTA 251535Z AUTO 29007KT 10SM CLR 16/10 A3014 RMK AO2 T01580104
KBTL 251453Z 13009KT 10SM OVC075 18/11 A3018 RMK AO2 SLP216 T01780111 58006
KBTM 251453Z AUTO 12003KT 10SM CLR 01/M02 A3049 RMK AO2 SLP334 T00061017 53002
KBTP 251535Z AUTO 00000KT 10SM CLR 17/09 A3023 RMK AO1
KBTR 251453Z 00000KT 10SM CLR 28/23 A3006 RMK AO2 SLP177 T02830228 50005
KBTV 251454Z 34011KT 10SM FEW039 FEW050 14/01 A3020 RMK AO2 SLP228 T01390011 53001
KBUF 251454Z VRB03KT 10SM FEW030 FEW050 FEW120 SCT200 SCT250 15/07 A3025 RMK AO2 SLP246 T01500067 50002
KBUR 251453Z 00000KT 10SM CLR 20/03 A3003 RMK AO2 SLP157 T02000033 53013
KBUU 251535Z AUTO 14006KT 10SM CLR 23/17 A3004 RMK AO2 T02250167
KBUY 251527Z AUTO 10005KT 9SM BKN008 OVC013 22/21 A3016 RMK AO2 T02220211
KBVE 251451Z AUTO VRB04KT 10SM CLR 29/23 A3006 RMK AO2 SLP177 T02940233 50004
KBVN 251535Z AUTO 32018G32KT 10SM CLR 17/07 A3018 RMK AO2 T01660070
KBVO 251502Z 02010KT 10SM BKN007 OVC049 22/21 A3010 RMK AO2 T02220206
KBVS 251535Z AUTO 04005KT 10SM OVC047 15/11 A3040 RMK A01
KBVU 251535Z AUTO 02010KT 10SM 23/02 A3027 RMK AO2
KBVX 251535Z AUTO 27003KT 10SM CLR 29/22 A3008 RMK AO1
KBVY 251453Z 31017G23KT 10SM CLR 14/03 A3011 RMK AO2 PK WND 33026/1427 SLP191 T01440028 58007
KBWD 251535Z AUTO 08011KT 10SM BKN070 OVC090 21/19 A3006 RMK AO2
KBWG 251453Z AUTO 00000KT 10SM CLR 27/21 A3010 RMK AO2 SLP188 T02720206 52001
KBWI 251454Z 08005KT 10SM FEW150 FEW250 19/04 A3022 RMK AO2 SLP234 T01890044 53000 $
KBWP 251515Z AUTO 27018G22KT 10SM OVC019 13/10 A2982 RMK AO1
KBWW 251335Z AUTO 31018G23KT 10SM CLR 07/04 A3010 RMK AO2
KBXA 251535Z AUTO 00000KT 10SM CLR 30/22 A3008 RMK AO2 T03030222 PWINO
KBXK 251535Z AUTO 05010KT 10SM CLR 28/01 A3002 RMK AO1
KBYG 251453Z AUTO 00000KT 10SM FEW070 10/03 A3044 RMK AO2 SLP294 T01000033 51017
KBYI 251453Z AUTO 23004KT 10SM CLR 08/03 A3048 RMK AO2 SLP315 T00780033 51015
KBYL 251535Z AUTO 12003KT 10SM CLR 27/19 A3014 RMK AO1
KBYS 251455Z AUTO 03008KT 10SM CLR 22/M05 A3022 RMK AO2 SLP198 WND DATA ESTMD T02241051 52019 PWINO $
KBYY 251535Z AUTO 00000KT 10SM SCT045 28/26 A2999 RMK AO2 T02850258
KBZN 251456Z 12003KT 10SM CLR 06/01 A3048 RMK AO2 SLP329 T00560011 53006
KC09 251535Z AUTO 17007KT 10SM SCT080 26/18 A3005 RMK AO2 T02560183
KC29 251515Z AUTO 17010KT 10SM BKN034 BKN041 BKN050 23/21 A3000 RMK AO1 T02320205
KC35 251535Z AUTO 17006KT 10SM CLR A2995 RMK AO2
KC75 251535Z AUTO 19008KT 1SM HZ VV007 27/20 A3002 RMK AO2 T02700198
KCAD 251534Z AUTO 14009KT 10SM BKN070 OVC090 17/11 A3014 RMK AO2 T01730110
KCAE 251456Z 34003KT 10SM FEW031 FEW150 29/21 A3011 RMK AO2 SLP192 T02890206 50003
KCAG 251453Z AUTO 00000KT M1/4SM FG VV002 02/02 A3053 RMK AO2 SLP339 T00220017 53014
KCAK 251451Z 05004KT 10SM FEW250 17/10 A3021 RMK AO2 SLP228 T01720100 50002
KCAO 251455Z AUTO 36022G30KT 10SM CLR 14/03 A3037 RMK AO2 PK WND 35032/1419 SLP248 T01390033 51015
KCAR 251454Z AUTO 32012G20KT 10SM SCT031 11/04 A2997 RMK AO2 SLP155 T01060039 53006
KCAV 251535Z AUTO 28012G17KT 10SM CLR 16/12 A3003 RMK AO2 PWINO
KCBE 251532Z AUTO 13003KT 10SM OVC033 18/07 A3026 RMK AO1
KCBF 251535Z AUTO 29011G18KT 260V320 10SM 15/10 A3014 RMK AO2
KCBG 251535Z AUTO 22010KT 10SM CLR 17/11 A2985 RMK AO2
KCBK 251515Z AUTO 34016G25KT 10SM CLR 16/06 A3037 RMK AO2
KCBM 251458Z AUTO 09004KT 10SM CLR 29/19 A3004 RMK AO2 SLP173 T02920185 53001 $
KCCA 251535Z AUTO 00000KT 10SM CLR 28/22 A3008 RMK AO2
KCCO 251535Z AUTO 05004KT 10SM CLR 30/23 A3011 RMK AO2 T02990225
KCCR 251453Z 00000KT 10SM CLR 17/08 A3006 RMK AO2 SLP164 T01670078 53010
KCCU 251535Z AUTO 00000KT 10SM BKN009 00/M02 A3064 RMK AO2 P0001
KCCY 251535Z AUTO 27012KT 10SM BKN012 BKN070 BKN110 19/18 A2998 RMK AO2
KCDA 251535Z AUTO 30008G17KT 10SM CLR 10/01 A3015 RMK AO2 T01030012
KCDC 251453Z AUTO 02005KT 10SM CLR 08/01 A3043 RMK AO2 SLP274 T00780011 52012
KCDD 251255Z AUTO 15004KT 2SM -RA BKN010 OVC014 16/15 A2981 RMK AO2
KCDJ 251452Z AUTO VRB05KT 23/19 A3010 RMK AO1 SLP179 T02280194 53019
KCDR 251453Z AUTO 30019G29KT 10SM CLR 12/04 A3037 RMK AO2 PK WND 30029/1453 SLP289 T01220044 51022
KCDS 251453Z AUTO 35003KT 10SM SCT033 BKN070 OVC110 21/19 A3014 RMK AO2 SLP187 T02110189 51020
KCDW 251453Z 00000KT 10SM CLR 16/05 A3022 RMK AO2 SLP237 T01610050 55001
KCEC 251503Z AUTO 03004KT 5SM BR CLR 14/13 A3015 RMK AO2 T01390128
KCEF 251458Z AUTO 35010KT 320V070 10SM CLR 15/02 A3016 RMK AO2 SLP220 T01450016 58004
KCEU 251454Z AUTO VRB03KT 10SM CLR 29/19 A3014 RMK AO2 SLP195 T02940189 52002
KCEW 251453Z AUTO 06003KT 10SM CLR 31/19 A3005 RMK AO2 SLP173 T03060194 50000
KCEY 251515Z AUTO 18003KT 10SM CLR 29/19 A3009 RMK AO1
KCEZ 251453Z AUTO 00000KT 10SM CLR 08/02 A3039 RMK AO2 SLP257 T00780022 51016 $
KCFD 251535Z AUTO 10SM SCT017 SCT044 BKN060 28/25 A3003 RMK AO2 LTG DSNT S T02780253
KCFE 251534Z AUTO 22007G14KT 200V270 10SM SCT022 16/11 A2990 RMK AO2 T01600110
KCFJ 251535Z AUTO 18005KT 10SM CLR 25/19 A3011 RMK AO2 T02500189
KCFS 251534Z AUTO 13007KT 10SM CLR 19/11 A3020 RMK AO2 T01850114
KCFV 251513Z AUTO 02008KT 10SM FEW009 OVC050 22/20 A3011 RMK AO2 RAE12 P0000 T02170200
KCGC 251535Z AUTO 03003KT 10SM CLR 31/22 A3005 RMK AO2
KCGE 251527Z AUTO 35005KT 10SM CLR 18/09 A3020 RMK AO1
KCGF 251445Z 14006KT 10SM SCT150 18/10 A3022
KCGI 251453Z 00000KT 9SM CLR 27/21 A3008 RMK AO2 SLP184 T02670211 51006
KCGS 251528Z AUTO 36003KT 10SM CLR 18/06 A3022 RMK AO1
KCGZ 251535Z AUTO 00000KT 10SM CLR 22/01 A3004 RMK AO1
KCHA 251453Z 01004KT 10SM CLR 27/18 A3011 RMK AO2 SLP189 T02720183 58001
KCHD 251447Z 36005KT 10SM SKC 22/04 A3000
KCHK 251535Z AUTO 01004KT 10SM CLR 22/20 A3010 RMK AO2
KCHO 251453Z 04010KT 7SM OVC026 15/12 A3022 RMK AO2 RAE00B08E25 SLP228 P0000 60000 T01500122 51008
KCHS 251538Z 03007KT 10SM SCT018 BKN026 28/22 A3010 RMK AO2 T02830222
KCIC 251455Z 00000KT 40SM SKC 17/M03 A3012
KCID 251452Z 23013KT 9SM FEW020 24/21 A2998 RMK AO2 SLP148 T02390206 51005
KCIN 251535Z AUTO 28010KT 250V310 10SM CLR 16/11 A3008 RMK AO2
KCIR 251515Z AUTO 00000KT 10SM CLR 28/20 A3009 RMK AO2 T02750204
KCIU 251456Z AUTO 16012KT 10SM FEW100 17/10 A3018 RMK AO2 SLP247 T01670100 56007
KCJR 251515Z AUTO 00000KT 10SM OVC026 17/10 A3024 RMK AO2 T01650099
KCKB 251453Z 08003KT 10SM CLR 19/13 A3017 RMK AO2 SLP207 T01940133 52000
KCKC 251534Z AUTO 11006KT 1 1/2SM RA OVC001 13/12 A2989 RMK AO2 P0006
KCKF 251535Z AUTO 08004KT 10SM SCT031 SCT050 31/22 A3008 RMK AO2 T03080217
KCKI 251535Z AUTO 06005KT 10SM SCT025 28/20 A3012 RMK AO2
KCKM 251535Z AUTO 00000KT 10SM CLR 32/20 A3005 RMK A01
KCKN 251534Z AUTO 21011KT 10SM OVC009 12/12 A2970 RMK AO2
KCKP 251535Z AUTO 28015G26KT 10SM SCT036 17/11 A3005 RMK AO2 T01650105
KCKV 251452Z AUTO 00000KT 10SM CLR 27/19 A3010 RMK AO2 SLP185 T02670194 51003
KCKZ 251535Z AUTO 31007KT 10SM CLR 18/05 A3023 RMK AO2
KCLE 251451Z VRB05KT 10SM SCT250 19/08 A3022 RMK AO2 SLP231 T01890078 58002 $
KCLL 251523Z 15009KT 10SM FEW017 BKN022 OVC070 28/24 A3001 RMK AO2 T02780244
KCLM 251453Z AUTO 00000KT 10SM OVC039 13/11 A3040 RMK AO2 SLP296 60000 T01330111 53007
KCLS 251535Z AUTO 00000KT 10SM OVC044 15/13 A3039 RMK AO2
KCLT 251452Z 00000KT 10SM FEW020 27/19 A3014 RMK AO2 SLP198 T02670194 51004
KCLW 251535Z AUTO 36003KT 10SM BKN031 BKN042 BKN065 30/23 A3004 RMK AO2
KCMA 251455Z 24003KT 10SM CLR 20/06 A3000 RMK AO2 SLP166 T02000061 51012
KCMD 251535Z AUTO 19004KT 10SM CLR 31/17 A3012 RMK AO2 T03080173 PWINO
KCMH 251451Z 12004KT 10SM CLR 20/13 A3017 RMK AO2 SLP212 T02000133 50000 $
KCMI 251453Z 13007KT 8SM CLR 26/20 A3009 RMK AO2 SLP184 T02610200 58001
KCMX 251519Z AUTO 13013KT 10SM BKN014 18/14 A2994 RMK AO2 T01780139
KCMY 251535Z AUTO 18007KT 7SM BKN013 OVC026 20/19 A2995 RMK AO2 T01990188
KCNB 251535Z AUTO 31017G28KT 10SM OVC024 15/11 A2995 RMK AO2 T01540111
KCNC 251535Z AUTO 31011G19KT 10SM 18/14 A3007 RMK AO2
KCNI 251535Z AUTO 00000KT 10SM CLR 28/14 A3015 RMK AO2
KCNK 251455Z AUTO 33009KT 10SM CLR 16/10 A3023 RMK AO2 SLP229 T01560100 51027
KCNM 251453Z AUTO 33015KT 10SM BKN046 18/04 A3016 RMK AO2 SLP171 T01830044 51027
KCNO 251528Z 09014G19KT 10SM CLR 30/M02 A3003 RMK AO2 T03001017
KCNU 251527Z AUTO 31004KT 1SM +RA BR FEW005 BKN036 OVC048 21/19 A3013 RMK AO2 P0010 T02060194
KCNW 251453Z 00000KT 4SM BR OVC005 25/24 A3002
KCNY 251453Z AUTO 04012KT 10SM CLR 14/02 A3041 RMK AO2 SLP269 T01390022 51012
KCOD 251535Z 21006KT 10SM CLR 09/03 A3046 RMK AO2 SLP305 PWINO FZRANO RVRNO
KCOF 251528Z AUTO 06006KT 10SM SCT016 SCT022 BKN065 30/25 A3005 RMK AO2
KCOM 251535Z AUTO 08006KT 10SM -DZ SCT032 BKN039 OVC046 20/19 A3007 RMK AO2 P0005 T02030190
KCON 251451Z AUTO 31012G19KT 10SM FEW044 14/02 A3014 RMK AO2 SLP208 T01440017 55003
KCOQ 251535Z AUTO 19007KT 10SM SCT009 BKN013 OVC065 18/17 A2981 RMK AO2
KCOS 251454Z 34008KT 10SM FEW070 FEW150 11/M01 A3051 RMK AO2 SLP291 T01111011 53021
KCOT 251512Z AUTO 16010KT 10SM SCT019 29/23 A2992 RMK AO2 T02940228
KCOU 251454Z 27009KT 10SM CLR 26/20 A3008 RMK AO2 SLP177 T02610200 53013
KCPK 251535Z AUTO 04006KT 10SM SCT037 BKN060 BKN070 22/13 A3018 RMK AO2 T02220133
KCPR 251453Z 24010KT 10SM CLR 08/04 A3046 RMK AO2 SLP304 T00780039 53014
KCPS 251453Z 20005KT 10SM CLR 28/19 A3005 RMK AO2 SLP172 T02780194 50001
KCPT 251535Z AUTO 01008G14KT 3SM RA FEW027 BKN041 OVC049 22/22 A3007 RMK AO2 LTG DSNT E AND S AND NW
KCPW 251544Z AUTO 10SM CLR 01/M03 A3066 RMK AO2
KCQB 251535Z AUTO 36005KT 10SM BKN007 22/21 A3011 RMK AO2
KCQC 251453Z AUTO 06023G37KT 10SM CLR 11/00 A3039 RMK AO2 PK WND 06037/1452 SLP237 T01110000 51018
KCQF 251535Z AUTO 31003KT 10SM CLR 28/24 A3004 RMK AO2
KCQM 251535Z AUTO 00000KT 10SM SCT013 SCT031 SCT075 16/16 A2977 RMK AO2
KCQT 251447Z AUTO 00000KT 7SM CLR 19/07 A3000 RMK AO2 SLP158 T01940072 53013
KCQW 251535Z AUTO 11004KT 9SM CLR 27/22 A3013 RMK AO2
KCQX 251452Z AUTO VRB06KT 10SM FEW045 15/03 A3012 RMK AO2 SLP199 T01500028 53002
KCRE 251453Z 05007KT 10SM FEW014 27/23 A3012 RMK AO1 SLP199 T02720228 52008
KCRG 251453Z 33003KT 10SM SCT021 29/21 A3007 RMK AO2 SLP180 T02890211 51005
KCRP 251451Z 12007KT 10SM FEW025 FEW110 SCT200 BKN250 28/24 A2994 RMK AO2 LTG DSNT SE SLP138 CB DSNT E SE MOV N TCU DSNT NE E S T02780244 53006 $
KCRQ 251453Z AUTO 00000KT 10SM CLR 21/06 A2998 RMK AO2 SLP151 T02110061 53007
KCRS 251504Z AUTO 18004KT 10SM OVC010 26/23 A3003 RMK AO2 CIG 007V013 T02610228 $
KCRW 251454Z 00000KT 10SM FEW005 23/17 A3014 RMK AO2 SLP199 T02330172 58001 $
KCRX 251535Z AUTO 00000KT 10SM CLR 31/18 A3007 RMK AO2
KCSG 251451Z 00000KT 10SM CLR 29/20 A3008 RMK AO2 SLP178 T02940200 53002
KCSM 251528Z AUTO 36022G29KT 2 1/2SM -RA BR BKN010 OVC030 14/13 A3018 RMK AO2 PK WND 35033/1503 P0020 T01440128
KCSQ 251535Z AUTO 31012KT 10SM BKN110 16/11 A3012 RMK AO2
KCSV 251453Z AUTO 00000KT 10SM CLR 28/17 A3017 RMK AO2 SLP192 T02780172 55001
KCTB 251456Z AUTO 28005KT 10SM CLR 09/03 A3033 RMK AO2 SLP273 T00940033 52003
KCTJ 251535Z AUTO 00000KT 10SM CLR 31/18 A3015 RMK AO2 T03110182
KCTY 251515Z AUTO 04004KT 10SM SCT024 30/24 A3005 RMK AO2
KCTZ 251525Z AUTO 03005KT 10SM BKN012 25/22 A3015 RMK AO2 T02450218
KCUB 251453Z AUTO 00000KT 10SM CLR 29/21 A3012 RMK AO2 SLP197 T02890206 50004
KCUH 251535Z AUTO 34005KT 10SM OVC008 22/21 A3010 RMK AO2 T02180206
KCUL 251535Z AUTO 20005KT 10SM CLR 30/20 A3008 RMK AO2 T02950203
KCUT 251453Z AUTO 30010G16KT 10SM CLR 07/M03 A3036 RMK AO2 SLP272 T00671033 51023
KCVB 251515Z AUTO 14008KT 100V160 10SM SCT014 BKN021 OVC026 28/22 A2998 RMK AO2 LTG DSNT W AND NW T02750222
KCVC 251535Z AUTO 00000KT 10SM CLR 30/20 A3011 RMK AO2
KCVG 251452Z 13003KT 10SM CLR 23/17 A3016 RMK AO2 SLP202 T02280167 53003
KCVH 251530Z AUTO 00000KT 10SM CLR 17/09 A3007 RMK AO1
KCVN 251535Z 03028G36KT 10SM BKN024 BKN120 16/04 A3029 RMK AO1
KCVO 251535Z 00000KT 10SM 11/07 A3038 RMK AO1
KCVS 251523Z 04025G35KT 10SM SCT022 BKN110 15/05 A3027 RMK AO2A WND DATA ESTMD
KCVW 251535Z AUTO VRB03KT 10SM BKN017 BKN022 26/25 A3002 RMK A01
KCVX 251534Z AUTO 14008G14KT 10SM SCT060 OVC070 17/10 A3016 RMK AO2 T01700097
KCWA 251525Z 13006KT 3SM BR BKN003 BKN016 OVC034 17/17 A2997 RMK TS E22
KCWC 251535Z AUTO 07007G18KT 10SM BKN008 23/20 A3010 RMK AO2 T02270198
KCWF 251450Z 11011KT 10SM BKN031 SKC 28/24 A3004
KCWI 251456Z AUTO 17009KT 10SM CLR 24/21 A2999 RMK AO2 SLP170 T02440206 58008
KCWN 251458Z AUTO 36013G19KT 10SM CLR 09/M03 A3046 RMK AO2 SLP187 T00861029 52019 $
KCWV 251535Z AUTO 35003KT 10SM SCT024 SCT034 BKN055 29/24 A3009 RMK AO2 T02920237
KCXE 251535Z AUTO 08003KT 10SM OVC037 22/16 A3019 RMK AO1 T02180158
KCXO 251453Z 09005KT 10SM FEW055 OVC100 26/24 A3001 RMK AO2 LTG DSNT S SLP159 T02610244 51009
KCXP 251535Z AUTO 00000KT 10SM CLR 09/M02 A3049 RMK AO2
KCXY 251456Z 10003KT 10SM CLR 18/04 A3025 RMK AO2 SLP243 T01830039 51003
KCYS 251453Z 30012KT 10SM CLR 09/01 A3048 RMK AO2 SLP290 T00940006 53015
KCZL 251535Z AUTO 00000KT 10SM CLR 31/16 A3010 RMK AO2 T03140156
KCZT 251535Z AUTO 14008KT 10SM OVC023 28/22 A2992 RMK AO2 LTG DSNT NW
KCZZ 251452Z AUTO 05014G24KT 24/M01 A3004 RMK AO1 SLP140 T02441006 50011 $
KD07 251456Z AUTO 31029G38KT 12/04 A3019 RMK AO1 PK WND 30038/1455 SLP231 T01170039 51023 $
KD25 251535Z AUTO 15007KT 10SM OVC005 16/16 A2994 RMK AO2 P0001 T01600160
KD39 251532Z AUTO 23010G14KT 10SM OVC019 14/11 A2986 RMK AO2 T01350110
KD50 251535Z AUTO 31019G29KT 10SM CLR 11/05 A3014 RMK AO2
KD55 251535Z AUTO 31025G31KT 10SM -RA SCT008 BKN012 OVC025 11/11 A2975 RMK AO2
KD57 251535Z AUTO 30024G32KT 10SM CLR 12/05 A3012 RMK AO2
KD60 251515Z AUTO 30023G29KT 10SM CLR 09/07 A3017 RMK AO2
KD95 251532Z AUTO 19009G16KT 10SM SCT028 19/11 A3021 RMK AO2 T01930110
KDAA 251458Z AUTO VRB04KT 10SM CLR 20/07 A3022 RMK AO2 SLP236 T01950073 55000
KDAB 251453Z 01005KT 10SM FEW020 FEW150 BKN250 29/24 A3007 RMK AO2 SLP180 T02940244 53011
KDAG 251450Z AUTO VRB03KT 10SM CLR 19/M03 A3020 RMK AO2 SLP208 T01941033 53019
KDAL 251524Z 23005KT 10SM FEW008 BKN016 OVC030 27/23 A3003 RMK AO2 T02670228 $
KDAN 251503Z AUTO VRB03KT 10SM OVC014 21/18 A3018 RMK AO2 T02110183
KDAW 251451Z AUTO 31018G23KT 10SM CLR 14/01 A3009 RMK AO2 SLP188 T01390011 56006
KDAY 251456Z 17004KT 10SM CLR 21/14 A3017 RMK AO2 SLP213 T02060139 55001
KDBN 251535Z AUTO 04005KT 10SM SCT035 SCT048 28/22 A3011 RMK AO2
KDBQ 251453Z 20010KT 6SM BR FEW012 BKN045 BKN060 22/19 A2999 RMK AO2 SLP151 T02170194 55003
KDCA 251452Z 06006KT 10SM SCT085 SCT250 20/07 A3023 RMK AO2 SLP235 T02000072 55000
KDCM 251535Z AUTO 00000KT 10SM CLR 29/15 A3014 RMK AO2 LTG DSNT SE
KDCU 251453Z AUTO 12005KT 10SM CLR 29/19 A3009 RMK AO2 SLP181 T02890189 51000
KDCY 251535Z AUTO 10SM SCT080 27/21 A3010 RMK AO2 T02680212
KDDC 251452Z AUTO 36016G24KT 10SM CLR 16/08 A3028 RMK AO2 PK WND 36026/1432 SLP238 T01560078 51021 $
KDDH 251454Z AUTO 29004KT 10SM CLR 12/02 A3021 RMK AO2 SLP233 T01170022 50003
KDEC 251454Z 17007KT 10SM FEW055 26/21 A3007 RMK AO2 SLP178 T02610211 58004
KDED 251535Z AUTO 03006KT 10SM SCT022 SCT027 30/23 A3005 RMK AO2
KDEH 251535Z AUTO 21007KT 170V260 5SM BR OVC013 20/20 A2995 RMK AO2
KDEN 251453Z 03007KT 10SM SCT220 12/00 A3047 RMK AO2 SLP285 T01170000 51016
KDEQ 251453Z AUTO 00000KT 8SM CLR 25/23 A3006 RMK AO2 SLP173 T02500233 53009
KDET 251453Z 15011KT 10SM CLR 19/10 A3021 RMK AO2 SLP229 T01890100 57002
KDEW 251453Z AUTO 00000KT 10SM OVC065 11/04 A3042 RMK AO2 SLP307 T01060039 53007
KDFI 251453Z AUTO 08004KT 10SM CLR 19/12 A3018 RMK AO2 SLP218 T01890117 58003
KDFW 251533Z 32010KT 9SM -RA FEW007 BKN011 OVC014 24/22 A3003 RMK AO2 LTG DSNT NE P0001 T02390217
KDGW 251453Z AUTO 29007KT 10SM FEW039 BKN050 OVC060 10/04 A3046 RMK AO2 SLP302 T01000044 53019 $
KDHN 251453Z 15005KT 10SM CLR 29/23 A3010 RMK AO2 SLP185 T02940228 51004
KDHT 251453Z AUTO 01024G32KT 10SM CLR 15/03 A3035 RMK AO2 PK WND 02032/1450 SLP243 T01500028 51024
KDIJ 251456Z AUTO 13003KT 10SM CLR 04/03 A3054 RMK AO2 SLP342 T00440028 50012
KDIK 251456Z AUTO 30018G27KT 10SM CLR 09/04 A3015 RMK AO2 PK WND 29028/1444 SLP215 T00890039 51026
KDKB 251515Z AUTO 15009KT 10SM CLR 22/19 A3005 RMK AO2 T02200186
KDKK 251453Z AUTO 07007KT 10SM CLR 17/04 A3025 RMK AO2 SLP244 T01670044 50002
KDKX 251535Z AUTO 00000KT 10SM CLR 28/19 A3012 RMK A01
KDLF 251530Z AUTO 01009KT 6SM RA BR BKN015 21/20 A2998 RMK AO2 VIS 2 1/2 RWY31 LTG DSNT E AND W TSB07E25 $
KDLH 251507Z 18007KT 3SM -RA BR OVC004 18/17 A2981 RMK AO2 CIG 002V007 P0002 T01780172
KDLL 251510Z AUTO 18011KT 10SM SCT095 22/18 A2997 RMK AO2 T02200179
KDLN 251453Z AUTO 25006KT 10SM BKN110 04/01 A3047 RMK AO2 SLP314 T00390006 $
KDLP 251535Z AUTO 00000KT 10SM CLR 32/24 A3005 RMK A01
KDLS 251453Z AUTO 12003KT 10SM CLR 11/04 A3040 RMK AO2 SLP295 T01110044 53008
KDLZ 251537Z AUTO 19003KT 10SM CLR 19/10 A3017 RMK AO2
KDMA 251458Z AUTO 16006KT 10SM CLR 19/00 A3005 RMK AO2 SLP141 T01920002 52007 $
KDMH 251454Z AUTO 18/05 A3023 RMK AO1 SLP238 T01780050 53002
KDMN 251453Z AUTO 03025G34KT 10SM FEW120 20/00 A3015 RMK AO2 PK WND 04034/1453 SLP148 T02000000 51010
KDMO 251534Z AUTO 28010KT 10SM BKN019 BKN045 OVC120 24/19 A3012 RMK AO2 T02440189
KDMW 251530Z AUTO 00000KT 10SM CL 17/02 A3023 RMK AO2
KDNL 251453Z AUTO VRB03KT 10SM CLR 29/19 A3012 RMK AO2 SLP192 T02940194 50003
KDNN 251515Z AUTO 00000KT 10SM CLR 27/19 A3011 RMK AO2
KDNS 251535Z AUTO 27008KT 10SM CLR 15/11 A3008 RMK AO2
KDNV 251535Z AUTO 16004KT 7SM CLR 26/20 A3007 RMK AO2 T02610196
KDOV 251458Z AUTO 04007KT 10SM CLR 18/15 A3021 RMK AO2 SLP233 T01840149 53005 $
KDPA 251452Z 18009KT 10SM CLR 22/17 A3007 RMK AO2 SLP178 T02170167 58004
KDPL 251525Z AUTO 08004KT 10SM BKN018 OVC022 24/20 A3015 RMK AO2
KDQH 251535Z AUTO 07003KT 10SM BKN031 BKN060 BKN070 29/20 A3009 RMK AO2
KDRA 251453Z AUTO 05010KT 10SM CLR 19/M04 A3030 RMK AO2 SLP223 T01941039 51016
KDRI 251535Z AUTO 12006KT 10SM SCT017 SCT021 28/24 A3006 RMK AO2 LTG DSNT S T02820239
KDRM 251535Z AUTO 18009G14KT 10SM BKN032 18/10 A3019 RMK AO2 T01790104
KDRO 251453Z AUTO 00000KT 10SM CLR 09/00 A3041 RMK AO2 SLP264 T00890000 51019 $
KDRT 251515Z AUTO 36008KT 3SM RA BR SCT050 BKN090 OVC110 21/21 A2997 RMK AO2 P0007 T02110206
KDSM 251454Z 31011KT 10SM SCT024 BKN034 BKN110 17/12 A3005 RMK AO2 RAE06 SLP172 P0000 60000 T01720117 53026
KDSV 251454Z AUTO 00000KT 10SM CLR 14/06 A3027 RMK AO2 SLP262 T01390056 50001
KDTA 251535Z AUTO 00000KT 10SM CLR 10/05 A3048 RMK AO1
KDTL 251534Z AUTO 25010G17KT 10SM BKN015 OVC021 12/11 A2980 RMK AO2
KDTN 251453Z 16006KT 10SM CLR 27/23 A3005 RMK AO2 SLP172 T02720228 50003
KDTO 251538Z 36006KT 1 1/2SM +RA BR FEW008 BKN014 OVC027 21/21 A3006 RMK AO2 LTG DSNT E P0014 T02110206
KDTS 251453Z AUTO 08006KT 10SM CLR 30/21 A3004 RMK AO2 SLP171 T03000211 52004
KDTW 251453Z 14007KT 10SM SCT220 19/11 A3021 RMK AO2 SLP229 T01940111 55001
KDUA 251535Z AUTO 12004KT 10SM SCT015 SCT060 BKN080 27/21 A3006 RMK AO2
KDUB 251535Z AUTO 35010KT 10SM CLR 07/M01 A3048 RMK AO2
KDUC 251535Z AUTO 03003KT 21/21 A3010 RMK AO2 PWINO TSNO
KDUG 251456Z AUTO 30003KT 10SM BKN100 16/03 A3014 RMK AO2 SLP156 T01560028 51013
KDUH 251535Z AUTO 09006KT 060V130 10SM CLR 21/07 A3020 RMK AO2 T02050066
KDUJ 251453Z AUTO 11009KT 10SM CLR 14/04 A3023 RMK AO2 SLP236 T01440044 50003
KDUX 251535Z AUTO 02021G30KT 10SM CLR 16/04 A3032 RMK AO2 T01570035
KDVK 251535Z AUTO 00000KT 10SM CLR 27/20 A3014 RMK AO2
KDVL 251538Z AUTO 30020G25KT 5SM -RA BR BKN008 OVC014 11/10 A2983 RMK AO2 PK WND 31030/1458 RAB06 CIG 005V012 P0000
KDVN 251452Z AUTO 20008KT 10SM CLR 24/19 A3000 RMK AO2 SLP155 T02440194 51002
KDVO 251535Z AUTO 00000KT 10SM CLR 17/13 A3005 RMK AO2
KDVP 251459Z AUTO 26016G28KT 10SM SCT021 14/10 A2997 RMK AO2
KDVT 251453Z AUTO 02011KT 10SM CLR 26/02 A3002 RMK AO2 SLP144 T02560017 51017
KDWH 251533Z 11007KT 10SM FEW014 SCT020 BKN028 28/25 A3001 RMK AO2 T02830250
KDWU 251535Z AUTO 00000KT 10SM CLR 24/17 A3012 RMK AO1
KDWX 251535Z AUTO 00000KT 10SM CLR 06/04 A3057 RMK AO2 T00630038
KDXR 251453Z 33009G16KT 10SM CLR 15/01 A3021 RMK AO2 SLP229 T01500006 50000
KDXX 251534Z 27017G25KT 10SM 17/12 A2991 RMK AO2
KDYA 251555Z AUTO 00000KT 10SM 29/22 A3005 RMK AO2 T02880220
KDYB 251535Z AUTO 02003KT 10SM SCT012 SCT017 BKN023 27/23 A3012 RMK AO1 LTG DSNT SE
KDYL 251454Z AUTO 01008KT 10SM CLR 19/07 A3021 RMK AO2 SLP229 T01890067 58001
KDYR 251535Z AUTO 10SM CLR RMK AO1
KDYS 251528Z AUTO 04004KT 9SM OVC007 20/19 A3007 RMK AO2 OVC V BKN $
KDYT 251534Z AUTO 00000KT 2 1/2SM -RA BKN011 OVC021 17/16 A2980 RMK AO2
KDZB 251535Z AUTO 35005KT 10SM SCT010 BKN043 OVC049 22/21 A3004 RMK AO2 LTG DSNT NE T02200205
KDZJ 251535Z AUTO 10SM A3018 RMK AO2
KE11 251535Z AUTO 36007KT 10SM SCT010 20/18 A3013 RMK AO2 T02010175
KE38 251535Z AUTO 14003KT 10SM OVC110 16/15 A3020 RMK AO2 T01550149
KEAN 251535Z AUTO 02005KT 10SM SCT055 OVC070 11/03 A3047 RMK AO2 T01080032
KEAR 251535Z AUTO 33019G24KT 10SM CLR 17/05 A3025 RMK AO1
KEAT 251455Z AUTO 33006KT 10SM CLR 16/03 A3037 RMK AO2 SLP283 T01610033 53009
KEAU 251456Z 16009KT 5SM -RA BR OVC006 18/18 A2989 RMK AO2 RAE15B56 SLP120 P0001 60006 T01830178 58011
KEBA 251535Z AUTO 00000KT 5SM HZ CLR 33/21 A3013 RMK AO2 T03310209
KEBG 251535Z AUTO 15012G17KT 10SM SCT025 SCT033 32/23 A2991 RMK AO2 LTG DSNT NE AND E T03240234
KEBS 251535Z AUTO 29013KT 10SM CLR 17/12 A3003 RMK AO2
KECG 251454Z 04010KT 10SM FEW034 BKN050 BKN070 22/14 A3017 RMK AO2 SLP216 T02220139 53006
KECP 251453Z 06004KT 10SM FEW014 30/24 A3003
KECS 251535Z AUTO 33015G22KT 10SM CLR 09/01 A3040 RMK AO2
KECU 251535Z AUTO 32014G19KT 1/2SM +RA OVC002 19/18 A3005 RMK AO2 P0114
KEDC 251535Z AUTO 00000KT 10SM OVC013 28/26 A3001 RMK AO2
KEDE 251525Z AUTO 06005KT 10SM BKN047 OVC055 23/16 A3018 RMK AO2 T02290160
KEDJ 251525Z AUTO 00000KT 10SM CLR 22/12 A3018 RMK AO1
KEDU 251535Z AUTO 03006KT 10SM CLR 19/04 A3007 RMK AO1
KEDW 251458Z AUTO 36007KT 10SM CLR 15/M05 A3019 RMK AO2 SLP207 T01541051 52017
KEED 251456Z AUTO 01014KT 10SM CLR 26/05 A3013 RMK AO2 SLP173 T02610050 51020
KEEN 251456Z AUTO 32007KT 10SM CLR 12/03 A3017 RMK AO2 SLP238 T01220028 58006
KEEO 251453Z AUTO 17003KT 10SM CLR 04/03 A3052 RMK AO2 SLP314 T00440033 53010
KEET 251453Z AUTO 00000KT 10SM CLR 30/18 A3008 RMK AO2 SLP178 T03000178 56000
KEFD 251350Z 14004KT 10SM SCT020CB BKN100 BKN250 25/23 A3002 RMK OCNL LTGICCG AND TS ALL QUADS MOV N
KEFK 251535Z AUTO 30008KT 260V320 10SM BKN033 BKN041 10/03 A3016 RMK AO2 T00990028
KEFT 251535Z AUTO 16011KT 10SM CLR 23/20 A3000 RMK AO2
KEGE 251450Z 00000KT 10SM FEW010 05/02 A3056
KEGI 251458Z AUTO VRB04KT 10SM CLR 29/20 A3003 RMK AO2 SLP170 T02940203 53000 $
KEGV 251515Z AUTO 17007KT 4SM BR OVC006 16/16 A2997 RMK AO2 T01620160
KEHA 251528Z AUTO 35018KT 16/02 RMK AO1 PK WND 28 000 T01610017
KEHC 251535Z AUTO 12007G14KT 10SM CLR 26/22 A3004 RMK A01
KEHO 251525Z AUTO 03005KT 10SM CLR 25/20 A3015 RMK AO2 T02460197
KEHR 251535Z AUTO 18004KT 10SM CLR 30/19 A3007 RMK AO1
KEIK 251534Z AUTO 00000KT 10SM CLR 14/00 A3047 RMK AO2 T01370002
KEKM 251450Z 11006KT 10SM CLR MM/MM A3014
KEKN 251528Z AUTO 00000KT 10SM FEW005 21/15 A3019 RMK AO2 T02060150 TSNO
KEKO 251456Z AUTO 00000KT 10SM CLR 05/01 A3050 RMK AO2 SLP319 T00500006 53010
KEKQ 251456Z AUTO VRB06KT 10SM SCT060 26/20 A3014 RMK AO2 SLP219 T02610200 53001
KEKS 251535Z AUTO 19007KT 10SM CLR 09/00 A3054 RMK A01
KELA 251535Z AUTO 17009KT 10SM SCT020 30/25 A2999 RMK AO2 LTG DSNT S T03010246
KELD 251534Z AUTO 00000KT 4SM HZ CLR 30/21 A3007 RMK AO2 T03000211 $
KELK 251535Z AUTO 01023G28KT 10SM BKN014 BKN019 OVC038 14/12 A3016 RMK AO2 T01430115
KELM 251453Z 00000KT 10SM CLR 14/04 A3025 RMK AO2 SLP248 T01390044 50001
KELN 251453Z AUTO 09003KT 10SM CLR 13/05 A3038 RMK AO2 SLP286 T01330050 53006 $
KELO 251533Z AUTO 17008KT 7SM RA SCT008 OVC017 16/15 A2980 RMK AO2 P0007
KELP 251451Z 36008KT 10SM FEW080 SCT110 OVC230 19/00 A3013 RMK AO2 SLP142 T01940000 53015
KELY 251453Z AUTO 29004KT 10SM CLR 04/M01 A3051 RMK AO2 SLP299 T00391006 51011
KELZ 251456Z AUTO 08004KT 10SM CLR 13/06 A3027 RMK AO2 SLP256 T01280061 50007 $
KEMK 251535Z AUTO 14016KT 10SM FEW018 29/24 A3001 RMK A01
KEMM 251259Z AUTO 32005KT 10SM 00/M01 A3050 RMK AO2
KEMP 251453Z AUTO 33010KT 9SM -RA OVC037 15/13 A3017 RMK AO2 SLP214 P0003 60030 T01500128 53019
KEMT 251455Z 00000KT 10SM CLR 19/05 A3003
KEMV 251535Z AUTO 05005KT 10SM OVC043 21/16 A3020 RMK AO2
KEND 251523Z AUTO 35017G31KT 10SM BKN011 18/17 A3014 RMK AO2 RAE11 CIG 009V026 BKN V SCT $
KENL 251535Z AUTO 20009KT 10SM SCT065 30/22 A3007 RMK AO2 T02950217
KENV 251535Z AUTO 00000KT 10SM CLR 12/05 A3050 RMK AO1
KENW 251453Z 16008KT 10SM CLR 21/16 A3007 RMK AO2 SLP181 T02110161 58005
KEOE 251535Z AUTO 00000KT 10SM CLR 28/20 A3015 RMK AO2 LTG DSNT E
KEOK 251535Z AUTO 25011KT 10SM CLR 28/20 A3003 RMK AO2
KEPH 251453Z AUTO 35006KT 10SM CLR 12/06 A3038 RMK AO2 SLP288 T01170056 53008
KEQA 251535Z AUTO 36015G21KT 10SM -RA OVC080 A3018 RMK AO2
KEQY 251453Z AUTO 09004KT 10SM CLR 27/20 A3013 RMK AO2 SLP202 T02670200 53003
KERI 251451Z 15008KT 10SM CLR 17/07 A3023 RMK AO2 SLP238 T01720072 58000
KERV 251535Z AUTO 04012G18KT 10SM BKN021 OVC025 22/21 A3002 RMK AO2 LTG DSNT W T02200207
KERY 251535Z AUTO 16011G15KT 10SM BKN065 OVC080 17/12 A3012 RMK AO2 T01690120
KESC 251456Z AUTO 15014G18KT 10SM FEW015 OVC029 18/14 A3006 RMK AO2 SLP204 T01830144 58017
KESF 251453Z AUTO 11004KT 10SM CLR 28/24 A3006 RMK AO2 SLP177 T02780239 53005
KESN 251450Z 05005KT 10SM SKC 20/07 A3025
KEST 251452Z AUTO 26015G20KT 10SM CLR 16/11 A2999 RMK AO2 SLP152 T01560106 50007
KETB 251535Z AUTO 14009KT 10SM SCT014 SCT080 21/17 A3004 RMK AO2
KETC 251525Z AUTO 07005KT 10SM SCT014 BKN021 OVC042 23/19 A3017 RMK AO2 T02330192
KETH 251455Z AUTO 27011G18KT 10SM SCT024 SCT030 17/12 A2985 RMK AO2
KEUF 251458Z AUTO 09004KT 10SM CLR 32/22 A3006 RMK AO2 SLP174 T03170217 51002
KEUG 251454Z 00000KT 10SM CLR 09/06 A3037 RMK AO2 SLP283 T00940061 53005
KEUL 251456Z AUTO 00000KT 10SM CLR 09/04 A3046 RMK AO2 SLP314 T00890039 52012
KEVB 251447Z 05004KT 10SM SCT025 28/24 A3008
KEVM 251533Z AUTO 18006KT 10SM SCT007 SCT011 BKN047 17/15 A2980 RMK AO2 P0002 T01650153
KEVV 251454Z 00000KT 8SM CLR 27/21 A3010 RMK AO2 SLP189 T02720206 56001
KEVW 251453Z AUTO 00000KT 10SM CLR 04/01 A3053 RMK AO2 SLP318 T00390006 53012
KEWB 251453Z 34009KT 10SM CLR 16/01 A3012 RMK AO2 SLP199 T01560011 58005
KEWK 251456Z AUTO 35013KT 10SM FEW050 OVC120 A3020 RMK AO2 RAE35 SLPNO P0000 60001 51033 FZRANO $
KEWN 251535Z 05009KT 10SM FEW015 SCT028 BKN060 23/19 A3016 RMK AO2 T02330189
KEWR 251451Z 34009KT 10SM FEW250 18/04 A3020 RMK AO2 SLP227 T01780039 51000 $
KEXX 251525Z AUTO 07003KT 10SM BKN023 OVC029 25/21 A3016 RMK AO2 T02510207
KEYE 251453Z AUTO 15005KT 10SM CLR 23/17 A3013 RMK AO2 SLP197 T02280172 51002
KEYF 251525Z AUTO 15004KT 10SM BKN017 BKN023 BKN031 27/21 A3013 RMK AO2 T02710214
KEYW 251538Z 00000KT 10SM SCT025 BKN055 31/26 A3003 RMK AO2 T03060256 $
KEZF 251535Z AUTO 04004KT 10SM OVC041 19/13 A3022 RMK AO2 T01870130
KEZM 251535Z AUTO 09005KT 10SM SCT034 SCT050 32/15 A3011 RMK AO2 T03160151
KEZS 251535Z AUTO 16008KT 10SM OVC011 22/18 A2999 RMK AO2 T02150180
KF05 251535Z AUTO 33005KT 10SM SCT010 SCT065 SCT090 23/18 A3011 RMK AO1 T02320184
KF17 251535Z AUTO 14004KT 10SM SCT009 27/26 A3005 RMK AO2 T02700258
KF44 251535Z AUTO 11004KT 10SM OVC011 26/24 A3003 RMK AO2
KF46 251535Z AUTO 15004KT 10SM BKN013 BKN018 OVC070 28/24 A3003 RMK AO2 LTG DSNT NW T02780236
KF70 251535Z AUTO 00000KT 10SM CLR 20/05 A3007 RMK AO1
KFAF 251458Z AUTO 09006KT 10SM BKN035 OVC050 23/14 A3016 RMK AO2 SLP216 T02300137 51005 $
KFAM 251456Z AUTO 18004KT 10SM BKN065 BKN100 26/21 A3011 RMK AO2 SLP219 T02560211 53006
KFAR 251453Z 25016KT 10SM OVC014 14/11 A2977 RMK AO2 SLP080 T01390106 53003
KFAT 251453Z 11004KT 10SM CLR 17/06 A3010 RMK AO2 SLP189 T01720061 53020 $
KFAY 251453Z 07007KT 7SM BKN009 BKN015 OVC021 25/21 A3013 RMK AO2 SLP197 T02500211 51003
KFBG 251530Z AUTO 06006KT 10SM BKN009 24/21 A3014 RMK AO2
KFBL 251534Z AUTO 23009G14KT 10SM CLR 16/12 A2994 RMK AO2
KFBR 251535Z AUTO 27004KT 10SM CLR 08/02 A3058 RMK AO2 T00750018
KFCH 251535Z AUTO 7SM CLR 19/08 A3010 RMK A01
KFCI 251455Z AUTO 05003KT 10SM OVC043 21/09 A3021 RMK AO1 52003
KFCM 251453Z 24010KT 10SM FEW038 16/12 A2990 RMK AO2 SLP123 60010 T01560117 51009
KFCS 251458Z AUTO 35013G18KT 10SM CLR 13/M02 A3048 RMK AO2 SLP304 T01251018 52023 $
KFDK 251447Z 36004KT 10SM SKC 19/08 A3026
KFDR 251453Z AUTO 32006KT 10SM SCT006 22/21 A3006 RMK AO2 RAE00 SLP164 P0000 60004 T02220211 53002
KFDW 251535Z AUTO 10003KT 10SM CLR 28/19 A3013 RMK AO1
KFDY 251453Z AUTO 00000KT 10SM CLR 19/11 A3018 RMK AO2 SLP214 T01890106 51000
KFEP 251535Z AUTO 18010KT 7SM SCT085 25/20 A3002 RMK AO2 T02470198
KFET 251535Z AUTO 30016G21KT 10SM CLR 17/10 A3015 RMK AO2 T01740097
KFEW 251458Z AUTO 29012G18KT 10SM CLR 09/00 A3050 RMK AO2 SLP306 T00910004 52015 $
KFFC 251453Z AUTO 00000KT 10SM CLR 28/20 A3011 RMK AO2 SLP191 T02780200 50003
KFFL 251535Z AUTO 26010G16KT 10SM SCT120 25/18 A3002 RMK AO2 PWINO
KFFM 251534Z AUTO 29019G25KT 5SM BR BKN016 OVC021 13/12 A2983 RMK AO2
KFFO 251458Z VRB01KT 10SM FEW250 21/15 A3016 RMK AO2A SLP213 T02110149 55002
KFFT 251453Z AUTO 11003KT 10SM CLR 26/18 A3012 RMK AO2 SLP192 T02560183 50003
KFFX 251532Z AUTO 13007KT 10SM SCT050 SCT085 17/12 A3014 RMK AO2 T01730115
KFFZ 251447Z VRB05KT 40SM SKC A2999
KFGN 251534Z AUTO 16008KT 10SM BKN009 OVC017 17/16 A2963 RMK AO2
KFGX 251535Z AUTO 00000KT 10SM CLR 26/17 A3016 RMK AO2 T02590173
KFHB 251535Z AUTO 07005KT 10SM SCT031 SCT040 BKN095 31/23 A3006 RMK AO1
KFHR 251453Z AUTO 00000KT 10SM OVC046 14/11 A3041 RMK AO2 RAB07E17 SLP297 P0000 60000 T01390111 53006
KFHU 251458Z AUTO 05002KT 10SM CLR 18/M03 A3017 RMK AO2 SLP160 T01821032 52012 $
KFIG 251454Z AUTO 10004KT 10SM CLR 15/07 A3026 RMK AO2 SLP247 T01500067 $
KFIT 251452Z AUTO 34011G18KT 10SM CLR 15/01 A3015 RMK AO2 SLP211 6//// T01500011 58007 PNO
KFKA 251534Z AUTO 29010G13KT 10SM BKN011 BKN018 OVC120 19/17 A2994 RMK AO2 T01880166
KFKL 251535Z 00000KT 10SM 16/06 A3023 RMK AO1
KFKN 251535Z AUTO 05007KT 10SM OVC047 22/14 A3019 RMK AO2 T02200136
KFKS 251532Z AUTO 14009G16KT 10SM CLR 19/11 A3010 RMK AO2 T01880112
KFLD 251453Z AUTO 15011G18KT 100V190 10SM CLR 22/18 A3002 RMK AO2 SLP163 T02170178 58011
KFLG 251457Z 03018G24KT 10SM CLR 09/01 A3036 RMK AO2 SLP214 T00940011 53010
KFLL 251524Z 07012KT 10SM TS SCT026CB BKN050 BKN080 BKN250 29/24 A3004 RMK AO2 LTG DSNT N AND NE TSB18 OCNL LTGIC NW TS NW MOV SW CB N-NE AND W-NW MOV SW T02940239
KFLO 251453Z 00000KT 10SM CLR 28/21 A3013 RMK AO2 SLP199 T02780211 52008
KFLP 251535Z AUTO 00000KT 10SM CLR 27/21 A3008 RMK AO1
KFLY 251535Z AUTO 03010KT 10SM CLR 11/M02 A3052 RMK AO2 T01061020
KFME 251530Z AUTO 05003KT 10SM CLR 18/05 A3025 RMK AO1
KFMH 251535Z AUTO 34010G22KT CLR 15/00 RMK AO2 PWINO FZRANO TSNO
KFMM 251535Z AUTO 35012G17KT 10SM OVC090 14/00 A3047 RMK AO2 T01400000
KFMN 251453Z 00000KT 10SM CLR 08/01 A3037 RMK AO2 SLP265 T00830011 51019
KFMY 251453Z VRB03KT 10SM CLR 30/23 A3003 RMK AO2 SLP172 T03000228 53008 $
KFNB 251453Z AUTO 32009KT 10SM OVC110 16/12 A3015 RMK AO2 SLP206 60002 T01610117 51035
KFNL 251535Z AUTO 23005KT 10SM CLR 12/02 A3048 RMK AO1
KFNT 251453Z 17012KT 10SM CLR 18/12 A3020 RMK AO2 SLP227 T01830122 58006
KFOA 251535Z AUTO 16004KT 10SM SCT065 SCT075 29/22 A3009 RMK AO2 T02850215
KFOD 251535Z AUTO 26008G15KT 10SM CLR 16/12 A3005 RMK AO1
KFOE 251501Z 35013KT 10SM -RA BKN017 OVC110 16/13 A3015 RMK AO2 P0000 T01560128 $
KFOK 251453Z 33013KT 10SM CLR 17/01 A3019 RMK AO2 SLP223 T01670011 56001
KFOT 251530Z AUTO 14009KT 10SM CLR 12/10 A3013 RMK AO1
KFOZ 251532Z AUTO 17008KT 10SM SCT009 BKN012 OVC017 19/18 A2972 RMK AO2
KFPK 251534Z AUTO 15006KT 10SM OVC070 18/11 A3017 RMK AO2 T01830109
KFPR 251453Z 10008KT 10SM CLR 29/23 A3006 RMK AO2 SLP179 T02890233 53016
KFQD 251525Z AUTO 08004KT 10SM SCT024 26/19 A3017 RMK AO2 T02630190
KFRG 251453Z 34012KT 10SM CLR 17/01 A3020 RMK AO2 SLP225 T01720011 53001
KFRI 251458Z AUTO 01007KT 350V050 10SM BKN130 BKN170 17/10 A3020 RMK AO2 SLP220 T01680104 52035
KFRM 251456Z AUTO 26013KT 10SM CLR 16/11 A2997 RMK AO2 SLP151 T01560106 50009
KFRR 251535Z AUTO 07004KT 10SM OVC027 16/08 A3023 RMK AO1
KFSD 251506Z 28018G26KT 10SM OVC028 15/09 A3002 RMK AO2 PK WND 27026/1506 T01500094
KFSE 251535Z AUTO 20016G22KT 10SM BKN011 OVC017 12/11 A2975 RMK AO2
KFSI 251535Z AUTO 05004KT 10SM BKN007 BKN130 21/19 A3009 RMK AO2 $
KFSM 251453Z 04003KT 10SM CLR 26/21 A3006 RMK AO2 SLP174 T02560206 50008
KFSO 251535Z AUTO 32005KT 10SM BKN031 BKN037 12/05 A3020 RMK AO2 T01150046
KFST 251505Z AUTO 15006KT 10SM FEW008 BKN070 20/18 A3007 RMK AO2 T02000183
KFSW 251535Z AUTO 27007KT 10SM 27/20 A3003 RMK AO2
KFTG 251450Z 03010G16KT 10SM SCT090 13/00 A3048
KFTK 251458Z AUTO VRB02KT 10SM CLR 25/20 A3011 RMK AO2 SLP193 T02530198 52004
KFTW 251533Z 35008KT 3SM R16/5000VP6000FT -RA BR FEW027 FEW035 OVC043 23/21 A3005 RMK AO2 P0009 T02280206
KFTY 251453Z 07004KT 10SM CLR 28/19 A3011 RMK AO2 SLP188 T02780194 51002
KFUL 251453Z 00000KT 10SM CLR 19/07 A3000 RMK AO2 SLP158 T01890067 53012
KFVE 251453Z AUTO 31008G17KT 10SM -RA BKN021 OVC027 08/02 A2998 RMK AO2 SLP158 P0000 60000 T00780022 51010
KFVX 251535Z AUTO 07005KT 10SM SCT021 OVC039 22/17 A3019 RMK AO2 T02200165
KFWA 251454Z 11004KT 10SM FEW060 20/13 A3017 RMK AO2 SLP213 T02000128 58002
KFWB 251515Z AUTO 20006KT 10SM CLR 27/21 A3013 RMK AO2
KFWC 251535Z AUTO 00000KT CLR 29/21 A3008 RMK AO1 T02860207 PWINO
KFWN 251453Z AUTO 03010KT 10SM CLR 17/02 A3021 RMK AO2 SLP230 T01670017 55002
KFWS 251452Z 35007KT 6SM -RA OVC005 23/22 A3005
KFXE 251533Z 07013KT 10SM +TSRA SCT015 BKN039 OVC050 24/23 A3006 RMK AO2 LTG DSNT E RAB1458 TSB08 P0110 T02440228
KFXY 251535Z AUTO 28010G17KT 10SM CLR 16/12 A3000 RMK AO2
KFYG 251515Z AUTO 21003KT 10SM CLR 27/21 A3006 RMK AO2
KFYJ 251535Z AUTO 05003KT 10SM OVC050 21/14 A3021 RMK AO2 T02120136
KFYM 251535Z AUTO 19004KT 10SM FEW002 29/19 A3010 RMK A01
KFYV 251453Z 18003KT 10SM CLR 25/22 A3011 RMK AO2 SLP184 T02500217 51008
KFZG 251535Z AUTO 00000KT 10SM SCT032 SCT041 32/24 A3010 RMK AO2 T03150240
KFZY 251454Z AUTO VRB03KT 10SM CLR 13/02 A3027 RMK AO2 SLP253 T01330017 50006
KGAD 251456Z AUTO VRB03KT 10SM CLR 29/20 A3009 RMK AO2 SLP200 T02890200 58000
KGAF 251535Z AUTO 34019KT 6SM -DZ FEW011 SCT020 BKN028 12/12 A2969 RMK AO2
KGAG 251453Z AUTO 02019G27KT 10SM OVC100 16/08 A3023 RMK AO2 PK WND 02028/1427 SLP222 60000 T01560078 51036
KGAI 251535Z AUTO 00000KT 10SM CLR 18/06 A3026 RMK AO1
KGAO 251544Z AUTO 08003KT 10SM SCT022 SCT028 SCT034 31/26 A3006 RMK AO2
KGBD 251535Z AUTO 36016G21KT 10SM CLR 16/07 A3028 RMK AO1
KGBG 251535Z AUTO 20011G17KT 10SM CLR 26/21 A3003 RMK AO2 T02620207
KGBK 251535Z AUTO 23017KT 6SM HZ FEW007 SCT055 BKN070 26/22 A3010 RMK A01
KGCC 251453Z AUTO 31014KT 10SM CLR 09/06 A3039 RMK AO2 SLP289 T00940056 51013
KGCD 251535Z AUTO 13007KT 10SM CLR 10/M01 A3048 RMK AO2 T01001010
KGCK 251454Z 36024G32KT 10SM CLR 17/04 A3031 RMK AO2 PK WND 36032/1454 SLP244 T01670044 51023
KGCM 251535Z AUTO 02004KT 10SM CLR 24/20 A3009 RMK AO2
KGCN 251454Z 06015KT 10SM CLR 12/01 A3040 RMK AO2 SLP243 T01170006 51008
KGDB 251533Z AUTO 27017G22KT 10SM OVC024 17/12 A2994 RMK AO2 T01660118
KGDJ 251515Z AUTO 00000KT 10SM -DZ BKN005 BKN018 OVC050 23/21 A3006 RMK AO2 LTG DSNT NE THRU SE P0001 T02250210
KGDP 251451Z AUTO 07027KT 10SM CLR 16/02 A3019 RMK AO2 PK WND 07032/1450 SLP158 T01610022 53010
KGDV 251456Z AUTO 31008KT 10SM CLR 10/04 A3028 RMK AO2 SLP261 T01000039 53016
KGED 251454Z AUTO 01007KT 10SM CLR 19/10 A3021 RMK AO2 SLP228 T01940100 53002
KGEG 251453Z 15009KT 10SM FEW060 BKN070 BKN100 12/03 A3040 RMK AO2 SLP295 60000 T01170033 53004 $
KGEU 251447Z 33009G15KT 20SM SKC 26/02 A3003
KGEV 251525Z AUTO 00000KT 5SM BR BKN003 OVC008 18/17 A3026 RMK AO2 T01830168
KGEY 251457Z AUTO 13003KT 3SM BR OVC001 07/06 A3044 RMK AO2 T00720056 $
KGEZ 251453Z AUTO VRB05KT 10SM CLR 24/16 A3013 RMK AO2 SLP197 T02440161 58002
KGFA 251458Z AUTO 22010KT 10SM CLR 09/04 A3037 RMK AO2 SLP303 T00890035 52004 TSNO $
KGFK 251453Z 27011KT 7SM -RA BKN010 BKN019 BKN050 13/12 A2967 RMK AO2 SLP047 P0000 60000 T01330122 56007
KGFL 251453Z AUTO 33008KT 9SM CLR 14/01 A3021 RMK AO2 SLP234 T01390011 50001
KGGE 251535Z AUTO 04007KT 10SM SCT012 SCT022 SCT027 26/22 A3012 RMK AO2 LTG DSNT SE
KGGG 251453Z 14006KT 10SM CLR 27/23 A3004 RMK AO2 SLP164 T02720233 51007
KGGI 251535Z AUTO 25009KT 1 1/2SM BR BKN006 OVC011 21/19 A3003 RMK AO2 T02060194
KGGP 251535Z AUTO 14006KT 10SM CLR 23/16 A3012 RMK AO2
KGGW 251453Z AUTO 27009KT 10SM CLR 06/02 A3029 RMK AO2 SLP268 T00610022 51008
KGHB 251535Z AUTO VRB05G13KT 10SM CLR 27/24 A3005 RMK A01
KGHG 251535Z AUTO VRB06G21KT 10SM CLR 15/01 A3012 RMK AO2
KGHW 251534Z AUTO 23014G20KT 10SM SCT020 14/12 A2986 RMK AO2
KGIC 251535Z AUTO 00000KT 10SM SCT085 10/04 A3046 RMK AO1
KGIF 251453Z AUTO VRB03KT 10SM CLR 30/21 A3007 RMK AO2 SLP178 T03000206 53008
KGJT 251453Z AUTO 00000KT 10SM CLR 09/04 A3045 RMK AO2 SLP285 T00890044 51014
KGKJ 251453Z AUTO 08008KT 10SM CLR 14/03 A3024 RMK AO2 SLP240 T01440028 50003 TSNO
KGKT 251535Z AUTO VRB04KT 10SM CLR 29/17 A3011 RMK
KGKY 251517Z 31007KT 10SM -RA OVC011 23/22 A3004 RMK AO2 LTG DSNT NE AND SW AND W RAB04 P0000 T02330217
KGLD 251453Z AUTO 35018G25KT 10SM CLR 14/04 A3036 RMK AO2 PK WND 33030/1432 SLP263 T01440039 51023
KGLE 251535Z AUTO 35003KT 10SM 22/21 A3009 RMK AO2 T02160206
KGLH 251453Z AUTO 31007KT 8SM CLR 29/22 A3005 RMK AO2 SLP179 T02940222 53006
KGLR 251453Z AUTO 16009KT 10SM BKN060 BKN100 15/09 A3018 RMK AO2 SLP224 T01500089 56008
KGLS 251505Z 36004KT 10SM FEW090 SCT110 28/24 A3001 RMK AO2 T02780244
KGLW 251535Z AUTO 00000KT 10SM CLR 30/19 A3011 RMK AO2 T02970193
KGLY 251535Z AUTO 31006KT 10SM BKN016 OVC044 23/20 A3013 RMK AO2
KGMJ 251535Z AUTO 24004KT 10SM SCT045 SCT060 26/21 A3011 RMK AO2
KGMU 251453Z 05007KT 10SM CLR 28/17 A3016 RMK AO2 SLP200 T02830172 53007
KGNA 251456Z AUTO 05007KT 16/16 A2988 RMK AO1 SLP114 P0007 60009 T01560156 56025
KGNC 251520Z AUTO 03005KT 10SM SCT070 20/17 A3015 RMK AO2 T01960167
KGNR 251456Z AUTO 33012G19KT 07/03 A3000 RMK AO1 SLP170 T00720028 51007
KGNV 251453Z VRB03KT 10SM FEW024 29/23 A3006 RMK AO2 SLP177 T02940228 51005
KGOK 251453Z AUTO 01003KT 10SM OVC070 22/21 A3010 RMK AO2 SLP186 T02170206 53005
KGON 251456Z 36010KT 10SM CLR 17/03 A3016 RMK AO2 SLP213 T01670033 58004
KGOO 251535Z AUTO 08012G18KT 10SM CLR 25/M09 A3021 RMK AO1
KGOP 251510Z AUTO 02006KT 8SM VCTS CLR 22/22 A3005 RMK AO2 LTG DSNT N-E
KGOV 251534Z AUTO 12007KT 10SM SCT055 18/09 A3017 RMK AO2 T01820093
KGPH 251535Z AUTO 28005KT 10SM OVC014 21/20 A3011 RMK AO2
KGPI 251455Z 00000KT 10SM SCT080 07/05 A3042 RMK AO2 SLP311 T00670050 50007
KGPM 251450Z 30005KT 10SM OVC007 23/23 A3004
KGPT 251453Z 35004KT 10SM CLR 30/23 A3005 RMK AO2 SLP174 T03000228 51004
KGPZ 251533Z AUTO 18010KT 10SM FEW009 BKN021 OVC040 18/14 A2977 RMK AO2
KGRB 251453Z 15010KT 10SM OVC010 20/19 A3003 RMK AO2 SLP167 T02000189 58014
KGRD 251456Z AUTO 10003KT 10SM CLR 28/19 A3014 RMK AO2 SLP200 T02830194 53005
KGRF 251458Z AUTO 14002KT 10SM SCT041 OVC070 14/12 A3038 RMK AO2 SLP291 T01430119 50006 $
KGRI 251453Z 32021G26KT 10SM CLR 16/07 A3022 RMK AO2 PK WND 32026/1452 SLP230 T01610067 51014 $
KGRK 251537Z AUTO 36010KT 10SM FEW006 SCT090 SCT200 21/21 A3002 RMK AO2 LTG DSNT N RAE30
KGRR 251453Z 13005KT 10SM BKN070 OVC200 17/11 A3016 RMK AO2 SLP214 T01670111 58005
KGRY 251535Z AUTO 31006KT 10SM FEW022 SCT028 BKN090 29/23 A3008 RMK A01
KGSB 251510Z AUTO 06008KT 10SM BKN017 BKN025 23/22 A3014 RMK AO2 CIG 016V025 $
KGSH 251453Z AUTO 13007KT 10SM CLR 20/10 A3015 RMK AO2 SLP206 T02000100 58004 $
KGSO 251515Z 06007KT 1 1/2SM BR OVC003 21/21 A3017 RMK AO2 SFC VIS 2 T02110206
KGSP 251453Z 05007KT 10SM CLR 27/18 A3014 RMK AO2 SLP195 T02720178 53007
KGTB 251458Z AUTO 04003KT 10SM CLR 12/04 A3027 RMK AO2 SLP254 T01170043 50007
KGTF 251453Z 20011KT 10SM CLR 09/02 A3037 RMK AO2 SLP294 T00940017 53004
KGTR 251450Z 00000KT 10SM SKC 27/18 A3006
KGTU 251453Z 34007KT 10SM BKN013 OVC020 22/19 A3002
KGUC 251515Z 07004KT 10SM CLR 05/00 A3055 RMK AO2 SLP305 PWINO FZRANO RVRNO
KGUL 251535Z AUTO 14015KT 10SM CLR 26/23 A3003 RMK A01
KGUP 251453Z AUTO 08007KT 10SM CLR 10/02 A3038 RMK AO2 SLP207 T01000017 53014
KGUR 251535Z AUTO 29005KT 10SM OVC080 15/07 A3046 RMK AO2 T01460072
KGUS 251458Z 17006KT 10SM CLR 21/15 A3012 RMK AO2A SLP199 T02120152 58001
KGUY 251453Z AUTO 01022G32KT 10SM CLR 16/03 A3031 RMK AO2 PK WND 01032/1450 SLP233 T01610033 51017
KGVE 251537Z AUTO 02003KT 5SM BR OVC021 14/13 A3023 RMK AO1
KGVL 251453Z AUTO 00000KT 10SM CLR 28/19 A3016 RMK AO2 SLP197 T02780194 51005
KGVT 251535Z AUTO 12005KT 10SM BKN013 BKN020 27/22 A3005 RMK AO2
KGWB 251535Z AUTO 10003KT 10SM CLR 20/11 A3017 RMK AO2
KGWO 251453Z AUTO 00000KT 10SM CLR 29/21 A3005 RMK AO2 SLP174 T02890211 53005
KGWR 251535Z AUTO 30020G26KT 10SM BKN022 OVC026 14/11 A2988 RMK AO1
KGWW 251530Z AUTO 06006KT 10SM SCT014 OVC023 23/20 A3016 RMK AO2 T02250203
KGXA 251455Z AUTO 11007KT 10SM CLR 23/M06 A3023 RMK AO2 SLP208 WND DATA ESTMD T02251064 52017 TSNO $
KGXF 251458Z AUTO 03005KT 10SM CLR 23/02 A2999 RMK AO2 SLP145 T02270017 52017
KGXY 251535Z 34005KT 10SM FEW065 14/01 A3048 RMK AO1
KGYB 251515Z AUTO 18005KT 10SM SCT013 SCT019 27/23 A3004 RMK AO2 T02740231
KGYH 251447Z 07005KT 10SM CLR 28/18 A3014
KGYI 251510Z AUTO 02004KT 10SM VCTS BKN008 OVC012 23/23 A3007 RMK AO2 LTG DSNT S T02310231
KGYL 251535Z AUTO 25008G17KT 220V280 10SM SCT022 17/13 A2991 RMK AO2 T01670127
KGYR 251447Z 01010KT 10SM SKC 26/04 A3003
KGYY 251445Z 14006KT 12SM SCT075 21/15 A3009
KGZH 251453Z AUTO VRB03KT 10SM CLR 28/23 A3005 RMK AO2 SLP173 T02830228 50000
KGZL 251515Z AUTO 18004KT 10SM CLR 27/19 A3008 RMK AO2
KGZN 251520Z AUTO 08009KT 10SM CLR 21/20 A3008 RMK AO2
KHAE 251515Z AUTO 25006KT 10SM BKN090 27/19 A3006 RMK AO2
KHAF 251535Z AUTO 30005KT 1 1/2SM BR CLR 15/15 A3004 RMK AO2
KHAI 251535Z AUTO 14005KT 10SM BKN029 BKN075 21/10 A3015 RMK AO2 T02080104
KHAO 251453Z AUTO 00000KT 10SM CLR 22/16 A3017 RMK AO2 SLP211 T02220156 53000
KHBG 251453Z AUTO 34005KT 10SM CLR 29/22 A3006 RMK AO2 SLP176 T02940222 50002
KHBI 251520Z AUTO 15004KT 7SM SCT013 SCT022 BKN110 24/21 A3018 RMK AO2 T02350209
KHBR 251516Z AUTO 00000KT 10SM BKN006 OVC065 22/20 A3011 RMK AO2 CIG 004V008 T02170200
KHBV 251535Z AUTO 17013G18KT 10SM SCT024 29/22 A2994 RMK AO2 LTG DSNT E T02920221
KHCD 251533Z AUTO 24012G16KT 10SM OVC021 16/12 A2992 RMK AO2 T01570117
KHCO 251534Z AUTO 21006KT 1 1/2SM BR OVC006 13/12 A2967 RMK AO2
KHDC 251535Z AUTO 00000KT 10SM CLR 31/20 A3006 RMK AO2
KHDE 251535Z AUTO 33013G19KT 10SM CLR 17/06 A3028 RMK AO2 T01650059
KHDN 251535Z AUTO 10009KT 10SM FEW005 06/03 A3053 RMK AO1
KHDO 251451Z AUTO 15015G20KT 10SM SCT014 BKN020 OVC031 27/23 A2995 RMK AO2 SLP125 T02720228 55002
KHEF 251445Z 00000KT 10SM OVC037 17/08 A3023
KHEI 251453Z AUTO 29018G28KT 10SM CLR 10/04 A3021 RMK AO2 PK WND 30031/1432 SLP233 T01000039 51027
KHEQ 251535Z AUTO 34018G25KT 10SM CLR 16/03 A3041 RMK AO2
KHEY 251453Z AUTO 10003KT 10SM CLR 29/22 A3005 RMK AO2 SLP064 T02890222 51002
KHEZ 251535Z AUTO 00000KT 10SM CLR 28/22 A3007 RMK AO1
KHFD 251453Z 03010KT 10SM CLR 15/03 A3018 RMK AO2 SLP220 T01500033 58002 $
KHFF 251456Z AUTO 11005KT 10SM BKN011 24/21 A3014 RMK AO2 SLP219 T02410211 52006 $
KHFJ 251510Z AUTO 19007KT 10SM CLR 26/20 A3010 RMK AO2
KHGR 251453Z 00000KT 10SM CLR 19/04 A3023 RMK AO2 SLP246 T01940044 55000
KHHF 251535Z AUTO 02011G20KT 10SM OVC110 16/09 A3027 RMK AO2 T01600085
KHHG 251535Z AUTO 12004KT 10SM CLR 21/15 A3015 RMK AO2 T02110148
KHHR 251453Z 25003KT 10SM CLR 19/09 A3001 RMK AO2 SLP162 T01940089 53015
KHHV 251535Z AUTO 12012KT 9SM FEW020 FEW028 FEW037 30/25 A3000 RMK A01
KHHW 251535Z AUTO 16005KT 10SM BKN012 28/23 A3006 RMK AO2 T02750230
KHIB 251528Z AUTO 16006KT 10SM SCT007 BKN011 OVC080 17/17 A2977 RMK AO2 RAE11 P0000 T01670167
KHIE 251452Z AUTO 30010KT 10SM BKN034 BKN041 11/02 A3013 RMK AO2 SLP209 T01110022 58005 $
KHIF 251458Z AUTO 12011KT 10SM CLR 08/03 A3047 RMK AO2 SLP299 T00800029 52012
KHII 251510Z AUTO 33008KT 10SM CLR 25/02 A3011 RMK AO2
KHIO 251453Z 29003KT 10SM CLR 11/09 A3038 RMK AO2 SLP285 T01060094 51003
KHJH 251535Z AUTO 34016G21KT 10SM CLR 16/08 A3022 RMK AO2 T01630082
KHJO 251453Z AUTO 00000KT 4SM HZ CLR 14/09 A3010 RMK AO2 SLP192 T01440094 53018
KHKA 251453Z AUTO 17006KT 10SM CLR 29/19 A3007 RMK AO2 SLP179 T02940194 50003 $
KHKS 251453Z 30006KT 10SM CLR 30/21 A3007 RMK AO2 SLP173 T03000211 51006 $
KHKY 251518Z 06006KT 7SM FEW014 OVC025 24/19 A3017 RMK AO2 T02390194
KHLC 251453Z AUTO 35013G19KT 6SM HZ CLR 17/07 A3030 RMK AO2 SLP254 T01670072 51027 TSNO
KHLG 251453Z 11004KT 10SM CLR 18/11 A3020 RMK AO2 SLP225 T01780106 53001
KHLN 251453Z 00000KT 10SM CLR 10/01 A3043 RMK AO2 SLP317 T01000006 53005
KHLR 251533Z AUTO 01006KT 2 1/4SM -RA BR VCTS FEW070 OVC085 21/20 A3000 RMK AO2 VIS 1 3/4V2 1/4 LTG DSNT N AND E
KHLX 251535Z AUTO 00000KT 7SM OVC006 19/18 A3023 RMK AO2 T01910184
KHMN 251458Z AUTO 23004KT 10SM CLR 18/00 A3013 RMK AO2 SLP146 T01760003 52012 VISNO RWY07 $
KHMZ 251535Z AUTO 16003KT 10SM CLR 18/06 A3022 RMK AO2 T01790060
KHNB 251535Z AUTO 08003KT 6SM 28/21 A3011 RMK AO1
KHND 251456Z 00000KT 10SM CLR 21/03 A3030 RMK AO2 SLP243 T02060028 51019
KHNR 251535Z AUTO 28012KT 10SM CLR 15/11 A3015 RMK AO2
KHNZ 251525Z AUTO 08004KT 10SM BKN011 BKN019 OVC029 20/17 A3018 RMK AO2 T01990171
KHOB 251450Z 05005KT 10SM BKN110 19/19 A3016
KHOE 251535Z AUTO 04004KT 10SM CLR 31/22 A3007 RMK AO2
KHON 251455Z AUTO 30021G28KT 10SM OVC029 14/08 A3001 RMK AO2 PK WND 31034/1436 SLP160 T01440083 53023
KHOP 251458Z COR VRB02KT 10SM CLR 27/20 A3009 RMK AO2 SLP186 T02660198 50004 COR 1504
KHOT 251453Z AUTO 00000KT 10SM CLR 27/22 A3007 RMK AO2 SLP177 T02720217 51003
KHOU 251511Z 13004KT 10SM SCT030 BKN060 BKN110 BKN200 25/23 A3001 RMK AO2 LTG DSNT N AND NE VCSH N-E S OCNL LTGICCG DSNT N-NE TSE05 CB ALQDS T02500228
KHPN 251456Z 35010G19KT 320V040 10SM CLR 16/03 A3020 RMK AO2 SLP225 T01610028 53001 $
KHQG 251535Z AUTO 02018G28KT 10SM CLR 19/03 A3035 RMK AO2 T01850026
KHQI 251535Z AUTO 13012G19KT 10SM CLR 27/24 A3002 RMK A01
KHQM 251516Z AUTO 07005KT 7SM BKN027 OVC035 15/13 A3038 RMK AO2 T01500133
KHQU 251535Z AUTO 09003KT 10SM CLR 30/22 A3015 RMK AO1 T03010218
KHQZ 251450Z 17003KT 10SM OVC009 BKN028 OVC033 26/24 A3003
KHRI 251453Z AUTO 00000KT 10SM CLR 11/04 A3039 RMK AO2 SLP292 T01060044 53008 $
KHRJ 251525Z AUTO 08007KT 10SM BKN015 OVC026 24/20 A3015 RMK AO2 T02380198
KHRL 251452Z 16014KT 10SM -RA FEW028 32/25 A2990 RMK AO2 LTG DSNT NE RAB37 SLP126 P0000 60000 T03170250 53003
KHRO 251453Z AUTO 10003KT 10SM CLR 26/21 A3012 RMK AO2 SLP185 T02560206 51008
KHRT 251458Z AUTO 00000KT 10SM CLR 30/20 A3003 RMK AO2 RAB23E25DZB25E31RAB31E33DZB33E50RAB50E55DZB55E57RAB57 SLP171 P0000 60000 T02960204 51004 $
KHRX 251535Z AUTO 03023G33KT 10SM SCT033 16/06 A3030 RMK AO2 T01580058
KHSA 251446Z VRB04KT 10SM SCT070 28/21 A3006
KHSB 251535Z AUTO 19003KT 10SM CLR 29/21 A3009 RMK AO2 T02850209
KHSD 251535Z AUTO 02004KT 10SM BKN070 23/20 A3012 RMK A01
KHSE 251451Z AUTO VRB06G18KT 10SM FEW055 SCT075 OVC100 23/17 A3014 RMK AO2 SLP206 60000 T02330167 51009 TSNO
KHSG 251515Z AUTO 29006KT 10SM CLR 10/03 A3046 RMK AO2 T01000027
KHSI 251453Z AUTO 33017G21KT 10SM CLR 16/07 A3023 RMK AO2 SLP231 T01610067 51018
KHSP 251535Z AUTO 16006KT M1/4SM RA OVC001 16/16 A3024 RMK AO2 T01600160
KHST 251458Z AUTO 04006KT 10SM CLR 30/24 A3003 RMK AO2 SLP172 T02980241 51010
KHSV 251453Z 11003KT 10SM FEW200 28/19 A3008 RMK AO2 SLP179 T02830189 51001
KHTL 251453Z AUTO 16005KT 10SM OVC100 16/08 A3020 RMK AO2 SLP230 T01610083 55006
KHTO 251535Z AUTO 35009G14KT 10SM CLR 16/02 A3017 RMK AO2 T01580019
KHTS 251451Z 00000KT 10SM CLR 24/17 A3014 RMK AO2 SLP199 T02440172 50001
KHUA 251458Z AUTO VRB03KT 10SM CLR 29/19 A3008 RMK AO2 RAB1358E1359 SLP180 P0000 60000 T02890186 50000
KHUF 251453Z 17007KT 10SM CLR 24/19 A3011 RMK AO2 SLP191 T02440194 58001
KHUL 251453Z AUTO 34009KT 10SM FEW026 BKN031 OVC039 09/03 A2997 RMK AO2 SLP153 T00890033 50004
KHUM 251447Z 09004KT 7SM SCT035 29/25 A3006
KHUT 251452Z 35016G22KT 10SM CLR 16/09 A3021 RMK AO2 SLP216 T01560094 51031
KHVN 251453Z 01010G19KT 10SM CLR 17/01 A3019 RMK AO2 SLP222 T01670006 58002
KHVR 251453Z AUTO 23013KT 10SM CLR 09/05 A3032 RMK AO2 SLP279 T00890050 53006
KHVS 251535Z AUTO 09004KT 10SM CLR 28/20 A3012 RMK AO2
KHWD 251454Z 00000KT 10SM 16/09 A3004 RMK AO2 SLP180 T01610094 53006 $
KHWO 251453Z 12006KT 10SM FEW020 SCT026 BKN075 29/23 A3005 RMK AO2 WSHFT 1431 LTG DSNT NE SLP175 T02940233 51010
KHWV 251456Z AUTO 35011G15KT 10SM CLR 17/03 A3019 RMK AO2 SLP223 T01670033 53001 TSNO $
KHWY 251535Z AUTO 34004KT 10SM OVC031 17/07 A3024 RMK AO2 T01710071
KHXD 251450Z 01010KT 9SM SCT011 BKN030 BKN250 27/24 A3010
KHYA 251456Z 34013G23KT 10SM FEW040 14/03 A3009 RMK AO2 SLP190 T01440033 58002
KHYI 251450Z 00000KT 7SM BKN008 25/24 A3000
KHYR 251453Z AUTO 16011KT 3SM BR OVC006 17/16 A2987 RMK AO2 RAB30E41 SLP113 P0000 60000 T01720161 56016
KHYS 251535Z 36018G22KT 10SM CLR 18/06 A3028 RMK AO1
KHYW 251535Z AUTO 03005KT 7SM BKN015 25/23 A3012 RMK AO2 LTG DSNT SE
KHYX 251533Z AUTO 17007KT 10SM CLR 19/11 A3019 RMK AO2
KHZD 251535Z AUTO 15003KT 10SM 29/20 A3008 RMK A01
KHZE 251535Z AUTO 32022G32KT 10SM CLR 13/05 A3009 RMK AO2
KHZL 251535Z AUTO 34004KT 10SM CLR 14/06 A3026 RMK AO2 PNO
KHZR 251535Z AUTO 10SM CLR 29/22 A3006 RMK AO2 LTG DSNT SW T02870223
KHZX 251533Z AUTO 19009G14KT 10SM SCT026 BKN032 BKN044 18/16 A2979 RMK AO2
KHZY 251453Z AUTO 14006KT 10SM CLR 16/06 A3024 RMK AO2 SLP239 T01610056 50000
KI16 251535Z AUTO 10SM CLR 27/17 A3021 RMK AO2 T02720165
KI19 251530Z AUTO 00000KT 10SM CLR 23/16 A3017 RMK AO2
KI35 251535Z AUTO 00000KT 10SM CLR 26/17 A3016 RMK AO1
KI63 251535Z AUTO 24008KT 10SM SCT075 25/21 A3005 RMK AO2 T02460206
KI67 251535Z AUTO 00000KT 10SM CLR A3014 RMK AO1
KI69 251535Z AUTO 00000KT 10SM CLR 24/17 A3015 RMK AO2 T02400167
KI75 251535Z AUTO 29007KT 7SM OVC021 17/13 A3009 RMK AO2 T01700125
KIAB 251458Z AUTO 36012G18KT 10SM CLR 15/12 A3019 RMK AO2 RAB1358 CIG 041 RWY19 SLP220 P0005 60011 T01470122 52036 $
KIAD 251452Z VRB03KT 10SM SCT050 BKN150 18/06 A3023 RMK AO2 SLP235 T01830056 53001
KIAG 251453Z 07007KT 050V110 10SM FEW035 FEW250 17/06 A3025 RMK AO2 SLP247 T01720061 50001
KIAH 251535Z 17003KT 10SM -TSRA FEW028CB SCT040 BKN110 BKN140 BKN250 25/22 A3001 RMK AO2 RAB10 OCNL LTGICCCCG NW TS NW MOV N P0002 T02500222
KIBM 251535Z AUTO 35016G22KT 10SM CLR 12/04 A3046 RMK AO2 T01240040
KICL 251535Z AUTO 10SM 17/11 A3015 RMK AO2 PWINO
KICR 251453Z AUTO 30028G39KT 10SM FEW047 16/06 A3016 RMK AO2 PK WND 30039/1450 SLP209 60000 T01560061 51025
KICT 251453Z 35012KT 10SM -DZ SCT049 OVC110 16/12 A3019 RMK AO2 RAE53DZB53 SLP217 P0000 60006 T01560117 53038 $
KIDA 251453Z 00000KT 10SM CLR 06/03 A3051 RMK AO2 SLP328 T00610028 51014
KIDI 251535Z AUTO 00000KT 10SM CLR 18/09 A3024 RMK A01
KIDP 251535Z AUTO 01007KT 10SM OVC050 20/18 A3011 RMK AO2
KIEN 251452Z AUTO 29016G20KT 10SM CLR 12/04 A3033 RMK AO2 SLP267 T01220039 51022
KIER 251535Z AUTO 14004KT 10SM CLR 30/23 A3004 RMK AO2 LTG DSNT S T03030229
KIFA 251535Z AUTO 28008KT 10SM BKN120 17/13 A3004 RMK AO2 T01670127
KIFP 251535Z AUTO 34021G27KT 10SM CLR 25/04 A3013 RMK AO2
KIGM 251451Z AUTO 03006KT 10SM CLR 17/ A3025 RMK AO2 SLP190 T0167 51013 $
KIGQ 251535Z AUTO 15008KT 10SM CLR 23/18 A3009 RMK AO2 T02270176
KIGX 251532Z AUTO 14004KT 9SM OVC010 22/20 A3017 RMK AO2 T02170200
KIIB 251535Z AUTO 23005KT 10SM SCT012 BKN018 OVC090 21/19 A2999 RMK AO2
KIIY 251535Z AUTO 36003KT 10SM CLR 30/21 A3011 RMK AO2
KIJD 251452Z AUTO 36009KT 10SM CLR 15/02 A3018 RMK AO2 SLP219 T01500022 58003
KIJX 251535Z AUTO 20009KT 10SM CLR 30/20 A3004 RMK AO2 T03000202
KIKK 251535Z AUTO 17007KT 10SM CLR 26/19 A3008 RMK AO2 T02560186
KIKT 251535Z AUTO VRB04KT 10SM CLR 31/23 A3005 RMK A01
KIKW 251533Z AUTO 15007KT 10SM CLR 18/11 A3019 RMK AO2 T01820111
KILE 251534Z AUTO 34004KT 10SM -RA FEW003 BKN025 OVC041 22/22 A3002 RMK AO2 LTG DSNT N-E TSB19E34 P0018
KILG 251451Z 04009KT 10SM CLR 19/04 A3023 RMK AO2 SLP238 T01890039 51003
KILM 251525Z 06005KT 10SM SCT023 BKN028 27/22 A3012 RMK AO2 T02670217
KILN 251454Z AUTO 18004KT 10SM CLR 22/16 A3016 RMK AO2 SLP207 T02170156 56001
KIML 251453Z AUTO 33023G31KT 7SM CLR 14/03 A3036 RMK AO2 PK WND 34032/1431 SLP270 T01440028 51020 $
KIMS 251531Z AUTO 00000KT 10SM CLR 26/17 A3015 RMK AO1
KIMT 251501Z AUTO 14007KT 10SM OVC009 16/13 A3002 RMK AO2 T01610133
KIND 251454Z 13005KT 10SM CLR 22/17 A3013 RMK AO2 SLP197 T02220172 51003
KINF 251535Z AUTO 04004KT 7SM CLR 30/25 A3005 RMK AO2
KINJ 251535Z AUTO 11006KT 10SM OVC008 25/23 A3003 RMK AO2 LTG DSNT S THRU W T02480230
KINK 251453Z AUTO 05008KT 10SM FEW022 21/16 A3008 RMK AO2 SLP147 T02060161 51019 PWINO TSNO
KINL 251455Z AUTO 17006KT 10SM -RA OVC006 17/17 A2971 RMK AO2 RAB1356 CIG 005V010 SLP061 P0001 60017 T01720167 56019
KINS 251458Z AUTO 00000KT 10SM CLR 18/M04 A3031 RMK AO2 SLP228 T01761036 52018
KINT 251454Z AUTO 05004KT 5SM HZ OVC006 21/18 A3019 RMK AO2 SLP213 T02110183 53007
KINW 251456Z AUTO 30009KT 10SM CLR 13/01 A3034 RMK AO2 SLP230 T01280011 53014
KIOB 251535Z AUTO 13003KT 10SM CLR 25/18 A3016 RMK AO2
KIOW 251452Z AUTO 24010KT 10SM FEW027 24/21 A3000 RMK AO2 SLP155 T02440206 51004 $
KIPJ 251530Z AUTO 02005KT 10SM OVC015 24/19 A3016 RMK AO2 T02380192
KIPL 251453Z AUTO 33004KT 10SM CLR 23/12 A2999 RMK AO2 SLP158 T02280117 53017
KIPT 251454Z VRB04KT 10SM CLR 16/07 A3025 RMK AO2 SLP243 T01560067 58001
KIRK 251513Z AUTO 27007KT 10SM SCT019 BKN080 23/19 A3007 RMK AO2 T02330194 $
KIRS 251535Z AUTO 16005KT 10SM SCT029 SCT055 21/07 A3015 RMK AO2 T02090069
KISM 251456Z 00000KT 10SM CLR 30/22 A3007 RMK AO2 SLP182 T03000222 51011
KISN 251452Z AUTO 30018G24KT 10SM CLR 11/04 A3016 RMK AO2 SLP221 T01060039 51016
KISO 251456Z 05006KT 7SM BKN014 22/20 A3016 RMK AO2
KISP 251456Z 34008KT 10SM CLR 17/02 A3019 RMK AO2 SLP221 T01720022 53002
KISQ 251534Z AUTO 16011G17KT 10SM OVC043 18/13 A3010 RMK AO2 T01790133
KISW 251454Z AUTO VRB04KT 3SM -RA BR FEW009 BKN044 OVC095 19/18 A2997 RMK AO2 LTG DSNT N RAB44 SLP148 P0003 60003 T01890178 58016 $
KITH 251456Z VRB05KT 10SM FEW030 13/04 A3027 RMK AO2 SLP253 T01280044 51005
KITR 251453Z AUTO 34019G24KT 10SM FEW095 13/03 A3040 RMK AO2 PK WND 36026/1437 SLP270 T01330028 51023
KIWA 251449Z 18004KT 45SM SKC 21/04 A3001
KIWD 251511Z AUTO 17010G15KT 10SM BKN009 OVC013 17/16 A2990 RMK AO2
KIWI 251453Z AUTO 33007G18KT 250V040 10SM CLR 14/01 A3008 RMK AO2 SLP185 T01390011 50000
KIXA 251525Z AUTO 08003KT 10SM SCT017 BKN034 OVC039 21/18 A3018 RMK AO2
KIXD 251504Z 24005KT 10SM -RA BKN008 OVC015 20/19 A3013 RMK AO2 CIG 006V012 P0000 T02000194
KIYA 251535Z AUTO 14005KT 10SM SCT023 SCT028 29/24 A3006 RMK AO2 LTG DSNT W T02870243
KIZA 251507Z AUTO 00000KT 10SM CLR 18/ A3005 RMK AO2
KIZG 251454Z AUTO 36012G20KT 10SM CLR 14/00 A3009 RMK AO2 SLP191 T01390000 $
KJAC 251446Z 00000KT 10SM FEW015 02/01 A3054
KJAN 251454Z VRB03KT 10SM FEW080 30/21 A3006 RMK AO2 SLP174 T03000211 51005
KJAQ 251535Z AUTO 00000KT 10SM CLR 22/06 A3012 RMK AO1 T02220057
KJAS 251535Z AUTO 11005KT 10SM SCT014 28/24 A3006 RMK AO2 T02800244
KJAU 251535Z AUTO 17005KT 10SM CLR 28/18 A3016 RMK A01
KJAX 251456Z 02003KT 10SM FEW025 SCT250 28/22 A3006 RMK AO2 SLP180 T02830222 51004
KJBR 251453Z AUTO 17006KT 10SM CLR 28/19 A3006 RMK AO2 SLP177 T02830189 53003
KJCA 251535Z AUTO 00000KT 10SM CLR 28/18 A3013 RMK AO2
KJCT 251451Z AUTO 07011KT RA OVC008 19/ A3003 RMK AO2 LTG DSNT S AND SW SLP135 P0002 60109 T0194 50005 $
KJDD 251535Z AUTO 16005KT 10SM BKN012 OVC037 26/23 A3004 RMK AO2
KJDN 251448Z AUTO 27005KT 08/06 A3032 RMK AO1 SLP278 T00780061 52006
KJEF 251453Z 00000KT 10SM CLR 26/21 A3007 RMK AO2 SLP166 T02610206 51010 $
KJER 251453Z AUTO 14005KT 10SM CLR 09/02 A3048 RMK AO2 SLP317 T00890022 51016
KJES 251535Z AUTO 09004KT 10SM SCT041 SCT047 31/25 A3009 RMK AO2
KJFK 251451Z 01008KT 10SM FEW050 17/04 A3021 RMK AO2 SLP228 T01720039 53000
KJFX 251535Z AUTO 00000KT CLR 32/20 A3007 RMK AO2 PWINO
KJFZ 251535Z AUTO 00000KT 10SM CLR 25/17 A3021 RMK AO2 T02500174
KJGG 251535Z AUTO 00000KT 10SM CLR 23/16 A3020 RMK AO1
KJHN 251535Z AUTO 35016G25KT 10SM CLR 18/03 A3036 RMK AO2 T01760033
KJHW 251535Z AUTO 13006KT 10SM CLR 14/06 A3024 RMK AO1
KJKA 251535Z AUTO 32005KT 10SM CLR 30/23 A3003 RMK AO2 T03010231
KJKJ 251534Z AUTO 26015G22KT 10SM OVC014 14/11 A2979 RMK AO2
KJKL 251453Z AUTO 00000KT 10SM CLR 25/19 A3016 RMK AO2 SLP197 T02500194 51005
KJLN 251453Z 32010KT 10SM SCT033 23/19 A3012 RMK AO2 SLP188 T02330194 $
KJMR 251536Z AUTO 23009G16KT 10SM SCT028 SCT043 16/11 A2986 RMK AO2
KJMS 251456Z AUTO 31024G31KT 10SM OVC017 12/09 A2986 RMK AO2 PK WND 31037/1402 SLP114 60000 T01170094 53022
KJNX 251530Z AUTO 06004KT 10SM OVC016 23/20 A3016 RMK AO2 LTG DSNT S
KJOT 251535Z AUTO 17006KT 130V200 10SM CLR 25/19 A3007 RMK AO2 T02450193
KJQF 251450Z 00000KT 10SM OVC011 23/19 A3019
KJRB 251535Z 07004G16KT 10SM CLR 19/08 A3021 RMK AO1
KJSO 251535Z AUTO 12006KT 10SM SCT008 BKN012 BKN019 27/23 A3007 RMK AO2 T02690240
KJST 251454Z AUTO VRB04KT 10SM CLR 14/09 A3023 RMK AO2 SLP234 T01440089 50003
KJSV 251535Z AUTO 09003KT 10SM CLR 26/22 A3008 RMK AO2
KJTC 251535Z AUTO 14005KT 10SM CLR 12/M01 A3037 RMK AO2
KJVL 251445Z 11011KT 10SM SCT095 23/19 A3001
KJVW 251535Z AUTO 30006KT 9SM CLR A3006 RMK AO2
KJWG 251535Z AUTO 34012G18KT 10SM -RA SCT006 OVC009 18/18 A3016 RMK AO2 P0002 T01830183
KJWN 251535Z AUTO 08003KT 10SM CLR 28/18 A3008 RMK
KJWY 251535Z AUTO 17005KT 7SM SCT007 BKN045 OVC060 25/24 A3004 RMK AO2 T02540243
KJXI 251535Z AUTO 12004KT 10SM BKN019 28/23 A3005 RMK AO2 T02750225
KJXN 251456Z 15012KT 10SM CLR 18/11 A3018 RMK AO2 SLP221 T01830111 58004
KJYG 251535Z AUTO 23016G22KT 10SM CLR 17/11 A2996 RMK AO2
KJYM 251535Z AUTO 13007KT 10SM CLR 20/03 A3018 RMK AO2
KJYO 251535Z AUTO 06003KT 10SM BKN038 OVC049 20/09 A3024 RMK AO2
KJYR 251535Z AUTO 32015G26KT 10SM CLR 17/08 A3020 RMK AO2
KJZI 251535Z AUTO 03007KT 10SM SCT020 BKN026 BKN035 27/23 A3010 RMK AO2
KJZP 251535Z AUTO 00000KT 10SM CLR 30/07 A3018 RMK AO2 T03010072
KK88 251535Z AUTO 33005KT 10SM SCT005 SCT033 OVC060 20/20 A3014 RMK AO1 P0002 T01990199
KKLS 251456Z AUTO 00000KT 10SM CLR 10/09 A3040 RMK AO2 SLP299 T01000094 53006
KL18 251535Z AUTO 02005KT 10SM CLR 26/04 A3002 RMK AO2
KL35 251535Z AUTO 08009KT 10SM CLR 13/M05 A3040 RMK AO2
KL38 251535Z AUTO 10004KT 10SM CLR 29/22 A3005 RMK AO2 T02900221
KLAA 251453Z AUTO 33009G17KT 10SM CLR 16/03 A3039 RMK AO2 SLP263 T01560033 51021 TSNO
KLAF 251454Z 11004KT 10SM CLR 22/18 A3011 RMK AO2 SLP190 T02170178 58003
KLAL 251455Z 00000KT 10SM SKC 29/23 A3006
KLAM 251535Z AUTO 35016G23KT 10SM CLR A3043 RMK AO2
KLAN 251453Z 17009KT 10SM CLR 18/11 A3019 RMK AO2 SLP224 T01830111 56005
KLAR 251453Z AUTO 14005KT 10SM CLR 03/01 A3050 RMK AO2 SLP301 T00330006 53015
KLAS 251456Z 02005KT 10SM CLR 22/00 A3028 RMK AO2 SLP236 T02220000 53023
KLAW 251453Z AUTO 07004KT 10SM OVC008 22/20 A3008 RMK AO2 CIG 005V010 SLP178 T02170200 50008
KLAX 251453Z 00000KT 10SM CLR 21/06 A3001 RMK AO2 SLP159 T02060056 53014
KLBB 251514Z 36006KT 7SM BKN009 BKN042 BKN060 21/18 A3015 RMK AO2 CIG 006V013 T02060183
KLBE 251445Z 11005KT 10SM SKC 17/09 A3022
KLBF 251453Z AUTO 31022G30KT 10SM CLR 16/06 A3031 RMK AO2 PK WND 31030/1448 SLP253 T01610061 51015
KLBL 251535Z 01020G30KT 10SM CLR 17/06 A3033 RMK AO1
KLBT 251530Z AUTO 10005KT 10SM BKN015 27/22 A3012 RMK AO2 T02670217 $
KLBX 251453Z AUTO 10003KT 10SM CLR 27/24 A2999 RMK AO2 LTG DSNT NE SLP157 T02670239 53010
KLCG 251535Z AUTO 31018G28KT 10SM BKN039 17/09 A3012 RMK AO2 T01730092
KLCH 251504Z 12008KT 10SM BKN012 BKN032 BKN055 28/25 A3003 RMK AO2 LTG DSNT S AND SW T02780250
KLCI 251456Z AUTO VRB04G15KT 10SM CLR 12/03 A3012 RMK AO2 SLP220 T01220028 56004
KLCK 251535Z AUTO 05003KT 10SM CLR 20/14 A3016 RMK AO2 T02020135 PWINO
KLCQ 251535Z AUTO 00000KT 10SM SCT028 29/23 A3006 RMK AO2
KLDM 251534Z AUTO 16009G14KT 10SM CLR 19/13 A3010 RMK AO2 T01880129
KLEB 251453Z 34008G20KT 10SM FEW037 13/03 A3016 RMK AO2 SLP212 T01330033 58004
KLEE 251453Z 00000KT 10SM CLR 30/24 A3007 RMK AO2 SLP180 T03000239 53008
KLEW 251456Z AUTO 32017G21KT 10SM CLR 13/02 A3007 RMK AO2 SLP201 6//// T01280017 58005
KLEX 251454Z 16005KT 10SM CLR 27/18 A3014 RMK AO2 SLP195 T02670178 50003
KLFI 251458Z AUTO 04009KT 10SM OVC049 22/13 A3018 RMK AO2 SLP227 T02200125 52005 $
KLFK 251501Z AUTO 12007KT 10SM FEW009 26/23 A3003 RMK AO2 T02610233
KLFT 251453Z 00000KT 10SM CLR 29/23 A3005 RMK AO2 SLP174 T02940233 51007 $
KLGA 251451Z 02007KT 10SM CLR 17/04 A3020 RMK AO2 SLP226 T01720044 53002
KLGB 251453Z AUTO 00000KT 10SM CLR 19/08 A3001 RMK AO2 SLP160 T01890083 51014 TSNO
KLGC 251535Z AUTO 00000KT 10SM CLR 32/21 A3009 RMK AO2 T03180214
KLGD 251535Z AUTO 00000KT 10SM CLR 08/M02 A3048 RMK AO1
KLGU 251451Z AUTO 00000KT 10SM CLR 06/05 A3051 RMK AO2 SLP323 T00610050 51017
KLHB 251535Z AUTO 14009KT 10SM BKN011 27/24 A3002 RMK AO2 T02720244
KLHM 251535Z AUTO 00000KT 10SM CLR 18/03 A3006 RMK AO1
KLHQ 251453Z AUTO 12005KT 10SM CLR 21/13 A3017 RMK AO2 SLP212 T02060133 58001
KLHW 251458Z AUTO 00000KT 10SM SCT033 27/23 A3007 RMK AO2 SLP185 T02710227 50006 $
KLHX 251453Z AUTO 33011KT 10SM CLR 16/02 A3044 RMK AO2 SLP272 T01560017 51022
KLHZ 251525Z AUTO 08004KT 10SM SCT011 OVC028 21/19 A3020 RMK AO2
KLIC 251455Z AUTO 36015G22KT 10SM CLR 12/01 A3047 RMK AO2 SLP278 T01170011 51023
KLIT 251453Z AUTO 00000KT 10SM FEW120 BKN250 30/22 A3006 RMK AO2 SLP189 T03000217 51003 TSNO $
KLJF 251445Z AUTO 25008KT 10SM SCT023 16/12 A2990 RMK AO2
KLKR 251535Z AUTO 00000KT 10SM CLR 29/18 A3013 RMK AO2 PWINO
KLKU 251535Z AUTO 01004KT 10SM OVC013 18/16 A3021 RMK AO2
KLKV 251535Z 34009KT 10SM CLR 13/M04 A3049 RMK AO1
KLLJ 251455Z AUTO 00000KT 10SM BKN110 04/00 A3053 RMK AO2 SLP329 T00440000 53008
KLLQ 251453Z AUTO 30004KT 10SM CLR 27/22 A3006 RMK AO2 SLP177 T02720222 51007
KLMO 251533Z AUTO 16007KT 10SM CLR 15/02 A3049 RMK AO2 T01470016
KLMT 251453Z 00000KT 10SM CLR 06/03 A3045 RMK AO2 SLP302 T00560033 53006
KLNC 251535Z AUTO 15004KT 10SM BKN011 OVC050 27/23 A3004 RMK AO2 LTG DSNT SW T02650231
KLND 251453Z AUTO 32005KT 10SM CLR 06/02 A3047 RMK AO2 SLP313 T00610017 53016
KLNK 251454Z 31008KT 10SM CLR 16/09 A3018 RMK AO2 SLP214 T01610089 53015
KLNL 251535Z AUTO 19006KT 5SM RA OVC006 17/16 A3000 RMK AO2 T01650155
KLNN 251535Z AUTO 12005KT 10SM CLR 19/08 A3020 RMK AO1 T01850083
KLNP 251535Z AUTO 03005KT 10SM CLR 26/12 A3023 RMK AO2
KLNR 251537Z AUTO 22005KT 3SM -RA BKN049 BKN055 BKN120 24/21 A2996 RMK AO2 RAB27 P0003 T02390206
KLNS 251453Z 09005KT 10SM CLR 18/04 A3024 RMK AO2 SLP240 T01830044 53003 $
KLOL 251453Z AUTO 16005KT 10SM CLR 08/M04 A3045 RMK AO2 SLP298 T00831044 51013
KLOM 251535Z AUTO 00000KT 10SM CLR 18/06 A3021 RMK AO1
KLOR 251453Z AUTO 00000KT 10SM CLR 30/23 A3005 RMK AO2 SLP171 T03000228 53002
KLOT 251535Z AUTO 17007KT 150V210 10SM CLR 24/19 A3007 RMK AO2 T02380191
KLOU 251453Z 00000KT 10SM CLR 26/19 A3012 RMK AO2 SLP195 T02610189 50002
KLOZ 251453Z AUTO 00000KT 10SM SCT065 26/18 A3015 RMK AO2 SLP196 T02560178 53003
KLPC 251456Z AUTO 09007KT 10SM CLR 16/07 A3002 RMK AO2 SLP169 T01560067 53015
KLPR 251453Z AUTO 13004KT 10SM CLR 17/08 A3021 RMK AO2 SLP229 T01720083 58001
KLQK 251535Z AUTO 00000KT 10SM CLR 31/16 A3012 RMK AO2 T03050158
KLRD 251456Z 16014G18KT 10SM FEW022 SCT120 29/22 A2991 RMK AO2 SLP127 T02940222 50004 $
KLRF 251458Z AUTO 27005KT 10SM CLR 28/22 A3006 RMK AO2 SLP179 T02810223 52004
KLRJ 251535Z AUTO 28022G31KT 10SM OVC042 17/09 A3007 RMK AO2
KLRO 251535Z AUTO 00000KT 10SM FEW019 SCT025 28/24 A3010 RMK AO2
KLRU 251535Z AUTO 33016G19KT 10SM SCT080 18/00 A3018 RMK AO2 T01840002
KLSE 251453Z 17009KT 4SM BR BKN013 BKN040 21/19 A2993 RMK AO2 RAB1358E18 SLP130 P0000 60000 T02060194 58001 $
KLSF 251458Z AUTO 04001KT 10SM CLR 29/21 A3007 RMK AO2 SLP183 T02940213 50002
KLSK 251519Z AUTO 00000KT 10SM BKN080 10/03 A3044 RMK AO2
KLSV 251458Z AUTO 34004KT 10SM CLR 21/02 A3026 RMK AO2 SLP230 T02120020 52018 $
KLTS 251458Z AUTO VRB03KT 10SM CLR M M RMK AO2 SLPNO PNO VISNO RWY35L CHINO RWY35L $
KLUA 251535Z AUTO 05003KT 10SM OVC018 16/10 A3023 RMK AO2
KLUD 251535Z AUTO 36004KT 7SM -RA OVC004 21/21 A3007 RMK AO2 T02130212
KLUF 251458Z AUTO 02016G23KT 10SM CLR 26/03 A3001 RMK AO2 SLP151 T02600033 52016 $
KLUK 251453Z 00000KT 10SM CLR 22/17 A3016 RMK AO2 SLP209 T02220172 53001
KLUL 251635Z AUTO 35004KT 10SM CLR 31/21 A3006 RMK AO2 T03060213
KLUM 251535Z AUTO 21014G17KT 2SM RA SCT003 OVC008 19/19 A2990 RMK AO2 P0008 T01930191
KLUX 251535Z AUTO 00000KT 10SM CLR 30/19 A3013 RMK AO2
KLVJ 251453Z AUTO 06005KT 10SM CLR 26/23 A3003 RMK AO2 LTG DSNT ALQDS RAE1358 SLP167 P0000 60040 T02560233 52005
KLVK 251453Z 00000KT 10SM CLR 16/08 A3005 RMK AO2 SLP174 T01560083 53006
KLVL 251535Z AUTO 09004KT 10SM BKN015 OVC040 21/18 A3018 RMK AO1 T02110176
KLVM 251453Z AUTO 33009KT 10SM CLR 06/01 A3042 RMK AO2 SLP300 T00610006 58001
KLVN 251531Z AUTO 24007KT 203V273 10SM CLR 15/12 A2992 RMK AO2
KLVS 251453Z AUTO 01021G26KT 10SM CLR 12/M01 A3043 RMK AO2 PK WND 01026/1445 SLP239 T01221006 51021
KLWA 251535Z AUTO 13007KT 10SM BKN050 BKN065 20/13 A3012 RMK AO2 T02020132
KLWB 251535Z AUTO 27003KT 7SM OVC015 20/17 A3020 RMK AO2 T02020170
KLWC 251533Z AUTO 33012G23KT 10SM -RA SCT009 BKN015 OVC028 16/15 A3014 RMK AO2 P0002 T01610150 $
KLWD 251453Z AUTO 29012KT 10SM SCT009 BKN060 OVC075 18/16 A3008 RMK AO2 RAB40E52 SLP182 P0000 60000 T01780156 53023
KLWM 251454Z 32008KT 10SM CLR 15/03 A3013 RMK AO2 SLP204 T01500033 58009
KLWS 251456Z AUTO 09005KT 10SM CLR 12/04 A3043 RMK AO2 SLP306 60000 T01170044 51008
KLWT 251454Z AUTO 08004KT 10SM CLR 06/03 A3038 RMK AO2 SLP292 T00610033 53004 $
KLWV 251453Z AUTO 15005KT 7SM CLR 27/20 A3010 RMK AO2 SLP189 T02670200 51002
KLXL 251532Z AUTO 23007G14KT 10SM OVC016 13/09 A2986 RMK AO2
KLXN 251535Z AUTO 32018G25KT 10SM CLR 17/07 A3028 RMK AO2 T01690065
KLXT 251523Z AUTO 23005KT 4SM RA BR FEW007 BKN013 OVC070 20/19 A3013 RMK AO2 P0008 T02000194
KLXV 251453Z AUTO 00000KT 10SM CLR 02/M04 A3056 RMK AO2 SLP275 T00171044 51012 TSNO
KLXY 251535Z AUTO 16007KT 110V180 10SM BKN011 OVC016 26/23 A3003 RMK AO2 LTG DSNT SW THRU NW T02590233
KLYH 251454Z 07005KT 10SM SCT020 OVC025 19/15 A3021 RMK AO2 SLP224 T01940150 53003
KLYV 251536Z AUTO 28016G21KT 10SM OVC028 14/08 A3002 RMK AO2
KLZU 251445Z 06005KT 10SM CLR 28/20 A3013 RMK ATIS R, RWY 07, VISUAL APCH JW
KLZZ 251515Z AUTO 01006KT 10SM SCT006 SCT070 SCT090 22/21 A3004 RMK AO2 LTG DSNT NE AND E T02150207
KM08 251540Z AUTO 00000KT 10SM CLR 30/19 A3008 RMK A01
KM19 251456Z AUTO 27003KT 10SM CLR 28/21 A3007 RMK AO2 SLP183 6//// T02780211 53005
KM21 251535Z AUTO 00000KT 10SM CLR 28/20 A3009 RMK AO2 T02750199
KM25 251535Z AUTO 16004KT 10SM CLR 30/20 A3010 RMK AO2 PWINO
KM30 251535Z AUTO 00000KT 10SM CLR 29/22 A3009 RMK AO2 T02930216
KM33 251535Z AUTO 00000KT 10SM CLR 29/21 A3012 RMK A01
KM40 251535Z AUTO 00000KT 7SM CLR 33/23 A3006 RMK AO2
KM91 251535Z AUTO 00000KT 10SM CLR 29/21 A3009 RMK A01
KMAE 251453Z AUTO 10003KT 10SM CLR 17/05 A3008 RMK AO2 SLP185 T01720050 53015
KMAF 251533Z 03006KT 10SM BKN016 BKN022 22/17 A3011 RMK AO2 T02220172 $
KMAI 251453Z AUTO VRB04KT 10SM CLR 29/24 A3005 RMK AO2 SLP172 T02940239 53000
KMAN 251535Z AUTO 00000KT 10SM CLR 11/04 A3046 RMK A01
KMAO 251535Z AUTO 12004KT 7SM SCT016 BKN022 26/22 A3012 RMK AO2
KMAW 251535Z AUTO 16003KT 10SM CLR 30/20 A3008 RMK AO2
KMBG 251452Z AUTO 30022G31KT 10SM CLR 14/06 A3003 RMK AO2 PK WND 32035/1441 SLP171 T01390061 51031
KMBL 251456Z AUTO VRB05KT 10SM CLR 17/12 A3012 RMK AO2 SLP218 T01720117 56014
KMBO 251535Z AUTO 30003KT 10SM CLR 30/20 A3006 RMK AO2 PWINO
KMBS 251453Z 16007KT 10SM CLR 17/11 A3020 RMK AO2 SLP229 T01720106 58007
KMCB 251453Z AUTO 02004KT 10SM CLR 29/22 A3007 RMK AO2 SLP177 T02890217 50003 $
KMCC 251535Z AUTO 00000KT 10SM CLR 19/08 A3008 RMK AO2
KMCD 251534Z AUTO 15010G15KT 100V160 10SM SCT060 SCT100 16/10 A3016 RMK AO2 T01620096
KMCE 251453Z AUTO 13004KT 10SM CLR 16/06 A3006 RMK AO2 SLP179 T01610056 53015 TSNO
KMCF 251458Z AUTO 07005KT 10SM CLR 30/26 A3004 RMK AO2 SLP175 T03030256 50006
KMCI 251529Z 34012KT 7SM -DZ OVC010 18/17 A3013 RMK AO2 P0002 T01830167
KMCJ 251535Z AUTO 06003KT 10SM CLR 25/22 A2997 RMK AO1
KMCK 251453Z AUTO 33019G28KT 10SM CLR 16/06 A3030 RMK AO2 PK WND 33031/1432 SLP253 T01610056 51015
KMCN 251453Z 00000KT 10SM CLR 29/22 A3009 RMK AO2 SLP184 T02940217 53002
KMCO 251453Z 00000KT 10SM FEW025 FEW250 31/22 A3006 RMK AO2 SLP176 T03060217 53009
KMCW 251453Z AUTO 29013G19KT 10SM FEW010 SCT018 OVC120 16/12 A2999 RMK AO2 RAE1355 SLP147 P0000 60002 T01560122 53002 $
KMCX 251535Z AUTO 17004KT 10SM BKN075 22/14 A3011 RMK AO2 T02220141
KMDD 251535Z AUTO 03007KT 10SM SCT012 21/18 A3012 RMK AO2 T02120175
KMDH 251452Z 20004KT 10SM BKN075 26/22 A3008 RMK AO2 SLP183 T02610222 51004
KMDJ 251535Z AUTO 15003KT 10SM CLR 29/23 A3008 RMK A01
KMDQ 251535Z AUTO 15003KT 10SM CLR 29/13 A3009 RMK AO2
KMDS 251530Z AUTO 29015G27KT 10SM OVC020 13/12 A3002 RMK AO2
KMDT 251456Z 00000KT 10SM FEW250 18/07 A3023 RMK AO2 SLP238 T01830072 50002
KMDW 251453Z 17007KT 10SM SCT250 22/15 A3007 RMK AO2 SLP177 T02170150 58006
KMDZ 251535Z AUTO 16008KT 1 3/4SM RA OVC003 A2995 RMK AO2 P0011
KMEB 251452Z AUTO 08007KT 5SM BR OVC006 23/22 A3014 RMK AO2 SLP205 T02280217 52007 $
KMEH 251456Z AUTO 00000KT 10SM CLR 02/M01 A3045 RMK AO2 SLP328 T00171006 51004
KMEI 251458Z VRB03KT 10SM CLR 30/20 A3005 RMK AO2 SLP171 T03000200 53001
KMEM 251454Z 11005KT 10SM FEW120 30/19 A3006 RMK AO2 SLP173 T03000189 51003
KMER 251445Z 00000KT 8SM SKC 16/08 A3007
KMEV 251535Z AUTO 00000KT 10SM CLR 09/M03 A3049 RMK AO2
KMEZ 251535Z AUTO 00000KT 10SM CLR 25/23 A3011 RMK AO2
KMFD 251452Z 10005KT 10SM CLR 18/11 A3020 RMK AO2 SLP223 T01830106 50001
KMFE 251453Z 15018G24KT 10SM CLR 32/24 A2991 RMK AO2 SLP125 T03220239 50003
KMFI 251537Z AUTO 18009KT 3SM BR OVC004 19/17 A2995 RMK AO2 T01890172
KMFR 251453Z 00000KT 10SM CLR 10/05 A3036 RMK AO2 SLP279 T01000050 51008
KMFV 251535Z AUTO 02005KT 10SM CLR 22/10 A3019 RMK AO2 T02240103
KMGC 251535Z AUTO 10SM SCT085 21/14 A3010 RMK AO2
KMGE 251458Z 02003KT 10SM FEW150 FEW250 28/20 A3012 RMK AO2A SLP190 T02830201 51003 $
KMGG 251533Z AUTO 23011G16KT 170V250 10SM SCT022 16/12 A2990 RMK AO2 T01640120
KMGJ 251454Z AUTO 03005KT 10SM CLR 16/04 A3021 RMK AO2 SLP231 T01610044 50001 TSNO
KMGM 251453Z 00000KT 10SM CLR 30/20 A3006 RMK AO2 SLP175 T03000200 51001
KMGN 251534Z AUTO 10003KT 10SM SCT065 OVC075 17/10 A3015 RMK AO2 T01730105
KMGR 251511Z AUTO 04003KT 10SM CLR 29/23 A3007 RMK AO2
KMGW 251453Z VRB04KT 10SM CLR 20/12 A3020 RMK AO2 SLP220 T02000117 52001
KMGY 251453Z AUTO 14004KT 10SM CLR 22/14 A3016 RMK AO2 SLP206 T02170144 55001
KMHE 251453Z AUTO 30020G27KT 10SM BKN033 OVC041 15/08 A3006 RMK AO2 PK WND 28032/1428 SLP176 T01500083 53023 $
KMHK 251452Z 10SM CLR 17/11 A3020 RMK AO2 SLP221 T01720111 51038
KMHL 251535Z AUTO 27007KT 10SM SCT024 BKN050 OVC110 22/21 A3012 RMK AO2
KMHR 251445Z 08003KT 10SM SKC 13/08 A3006
KMHS 251456Z AUTO 00000KT 10SM CLR 08/03 A3039 RMK AO2 SLP301 T00830028 53006
KMHT 251453Z 32010G18KT 10SM FEW050 14/01 A3013 RMK AO2 SLP215 T01390006 55004
KMHV 251520Z AUTO 06006KT 10SM CLR 22/M04 A3024 RMK A01
KMIA 251453Z 09008KT 10SM FEW025 FEW060 SCT100 BKN250 30/23 A3004 RMK AO2 LTG DSNT NE TSE29 SLP172 CB DSNT NE T03000233 51013 $
KMIB 251458Z AUTO 31025G33KT 10SM FEW060 11/06 A2996 RMK AO2 PK WND 31037/10 SLP154 60001 T01060062 52022
KMIC 251453Z 24011KT 10SM FEW030 SCT046 16/11 A2988 RMK AO2 SLP117 60005 T01610106 50004
KMIE 251453Z 16005KT 10SM CLR 23/14 A3015 RMK AO2 SLP200 T02280144 55001
KMIS 251535Z AUTO 34005KT 10SM CLR 29/23 A3006 RMK A01
KMIV 251454Z AUTO 02008KT 10SM CLR 18/07 A3022 RMK AO2 SLP231 T01830067 53004
KMIW 251527Z AUTO 27012KT 10SM BKN012 BKN019 OVC033 19/18 A3001 RMK AO2 RAE1459 P0000 T01940183
KMJQ 251532Z AUTO 25011G21KT 10SM SCT027 16/09 A2999 RMK AO2
KMJX 251456Z AUTO 35010KT 310V030 10SM CLR 18/06 A3021 RMK AO2 SLP238 T01780061 51003
KMKC 251537Z 30006KT 9SM -RA OVC014 21/19 A3011 RMK AO2 P0002 T02110194
KMKE 251452Z 16013G18KT 10SM SCT080 BKN250 22/17 A3006 RMK AO2 SLP175 T02170167 58008
KMKG 251455Z 13011KT 10SM BKN048 OVC080 17/12 A3013 RMK AO2 SLP203 T01720122 58009
KMKJ 251535Z AUTO 05006KT 7SM OVC007 20/18 A3025 RMK AO2 T02040183
KMKL 251453Z 00000KT 10SM CLR A3008 RMK AO2 SLPNO 52003 $
KMKN 251535Z AUTO 11007KT 10SM -RA SCT033 SCT039 OVC085 21/21 A3007 RMK AO2 LTG DSNT SE P0001 T02050205
KMKO 251453Z AUTO 00000KT 10SM CLR 26/21 A3007 RMK AO2 SLP176 T02560211 50007
KMKS 251535Z AUTO 09005KT 10SM SCT021 BKN028 BKN037 26/21 A3011 RMK AO2 LTG DSNT SE
KMKT 251456Z AUTO 24011KT 10SM CLR 16/11 A2995 RMK AO2 SLP141 60004 T01560111 50009
KMLB 251453Z 05007KT 10SM SCT014 BKN017 BKN029 29/25 A3006 RMK AO2 SLP177 T02940250 53012
KMLC 251453Z AUTO 10005KT 10SM FEW090 SCT110 26/19 A3007 RMK AO2 SLP172 T02610194 50004
KMLE 251535Z AUTO 30007KT 10SM CLR 16/10 A3015 RMK AO2 T01610096
KMLF 251452Z AUTO 36012KT 10SM CLR 11/05 A3044 RMK AO2 SLP280 T01060050 53010
KMLI 251452Z 24009KT 10SM CLR 26/20 A3000 RMK AO2 PRESRR SLP153 T02560200 55001
KMLJ 251535Z AUTO 00000KT 10SM CLR 30/23 A3009 RMK AO2
KMLP 251453Z AUTO VRB05KT 10SM OVC070 05/01 A3046 RMK AO2 SLP274 T00500006 53003 $
KMLS 251453Z AUTO 30010KT 10SM CLR 10/04 A3033 RMK AO2 SLP276 T01000044 51016
KMLT 251453Z AUTO 30011G16KT 10SM BKN043 BKN050 11/02 A3001 RMK AO2 SLP171 T01110017 51002
KMLU 251453Z 00000KT 10SM CLR 29/23 A3007 RMK AO2 SLP180 T02890228 50008
KMMH 251535Z AUTO 29009KT 10SM CLR 14/M09 A3054 RMK AO2 T01421090
KMMI 251535Z AUTO 26003KT 10SM CLR 28/18 A3013 RMK
KMMK 251453Z AUTO 33008KT 10SM CLR 16/01 A3018 RMK AO2 SLP221 T01610006 58001 TSNO
KMML 251456Z AUTO 27024G29KT 10SM BKN023 16/11 A2992 RMK AO2 PK WND 28029/1452 SLP132 T01560106 53000
KMMT 251458Z 08004KT 10SM FEW040 28/21 A3012 RMK AO2A SLP200 T02820213 50004 $
KMMU 251445Z 01005KT 15SM SKC 17/06 A3021
KMMV 251453Z AUTO 00000KT 10SM CLR 09/08 A3038 RMK AO2 SLP288 T00890078 53004
KMNE 251535Z AUTO 11007KT 10SM CLR 30/21 A3005 RMK AO2 T02970209
KMNH 251540Z AUTO 06004KT 10SM CLR 08/M01 A3054 RMK AO2
KMNI 251535Z AUTO 03004KT 10SM SCT029 28/20 A3011 RMK AO2
KMNM 251456Z AUTO 19009KT 10SM -RA OVC011 18/16 A3005 RMK AO2 RAB42 SLP193 P0000 6//// T01830161 58016
KMNN 251453Z AUTO 11005KT 10SM CLR 20/11 A3019 RMK AO2 SLP221 T02000111 58001
KMNV 251535Z AUTO 00000KT 10SM CLR 30/18 A3012 RMK A01
KMNZ 251535Z AUTO 02008KT 10SM -RA BKN004 BKN017 OVC060 21/21 A3007 RMK AO2 LTG DSNT NE THRU SE P0005 T02070207
KMOB 251456Z 33007KT 290V360 10SM FEW070 FEW250 30/22 A3006 RMK AO2 SLP174 CB DSNT SW T03000222 50004
KMOD 251453Z 10003KT 10SM CLR 17/11 A3005 RMK AO2 SLP176 T01670106 53011
KMOP 251520Z AUTO 18006KT 10SM CLR 17/11 A3019 RMK AO2 T01730114
KMOR 251535Z AUTO 00000KT 10SM CLR 28/18 A3013 RMK A01
KMOT 251454Z 29023G35KT 10SM SCT055 11/06 A2998 RMK AO2 PK WND 29035/1423 SLP155 60000 T01110061 51023
KMOX 251534Z AUTO 26013KT 10SM SCT024 BKN030 17/13 A2985 RMK AO2
KMPO 251453Z AUTO 33008KT 10SM CLR 14/03 A3022 RMK AO2 SLP237 T01390033 51006 $
KMPV 251451Z AUTO 33010G17KT 10SM FEW027 SCT040 10/03 A3020 RMK AO2 SLP235 T01000028 51003
KMPZ 251515Z AUTO 24008G15KT 10SM SCT070 27/20 A3001 RMK AO2 T02710204
KMQB 251535Z AUTO 23010G16KT 10SM CLR 27/21 A3005 RMK AO2 T02670207
KMQI 251525Z AUTO 05012G16KT 10SM SCT050 OVC070 23/14 A3016 RMK AO2 T02290141
KMQJ 251536Z AUTO 18005KT 10SM CLR 25/17 A3013 RMK AO1
KMQS 251535Z AUTO 00000KT 10SM CLR 17/06 A3024 RMK AO2
KMQY 251456Z 00000KT 9SM CLR 26/21 A3011 RMK AO2 SLP091 T02610206 54000 $
KMRB 251453Z 00000KT 10SM OVC044 18/07 A3023 RMK AO2 SLP237 T01780072 53002
KMRC 251535Z AUTO 00000KT 10SM CLR 28/24 A3008 RMK
KMRF 251456Z AUTO 25003KT 10SM -RA FEW055 OVC080 A3018 RMK AO2 SLPNO P0003 60010 53009 FZRANO $
KMRH 251458Z AUTO 02012KT 10SM BKN018 OVC032 26/22 A3013 RMK AO2 SLP203 T02610217 51004 TSNO
KMRJ 251535Z AUTO 19009G14KT 10SM SCT015 BKN047 BKN060 23/21 A3000 RMK AO2 PWINO
KMRN 251525Z AUTO 00000KT 7SM SCT010 OVC019 22/20 A3022 RMK AO2 T02220197
KMRT 251533Z AUTO 00000KT 10SM CLR 21/14 A3017 RMK AO2 T02090139
KMRY 251454Z 09003KT 10SM CLR 18/08 A3002 RMK AO2 SLP176 T01780083 53003
KMSL 251453Z AUTO VRB03KT 10SM CLR 28/18 A3009 RMK AO2 SLP182 T02780183 50002
KMSN 251453Z 18009KT 8SM SCT011 BKN050 BKN250 22/19 A3000 RMK AO2 SLP156 T02170189 58010
KMSO 251453Z 00000KT 10SM OVC075 06/03 A3049 RMK AO2 SLP334 T00610033 53001
KMSP 251453Z 26010KT 10SM FEW025 BKN150 16/12 A2990 RMK AO2 RAE1355 SLP124 P0000 60018 T01610117 51011
KMSS 251453Z AUTO VRB04KT 10SM CLR 13/03 A3026 RMK AO2 SLP249 T01280028 50001
KMSV 251535Z AUTO 34006KT 10SM CLR 14/01 A3022 RMK AO1
KMSY 251453Z 09005KT 10SM SCT021 30/24 A3005 RMK AO2 SLP180 CB DSNT SW T03000244 53005
KMTC 251458Z 12009KT 10SM FEW028 SCT230 19/12 A3020 RMK AO2A SLP230 T01860122 58002 $
KMTH 251453Z AUTO 07005KT 10SM CLR 29/24 A3002 RMK AO2 RAE06 SLP166 P0000 60004 T02940239 51005
KMTJ 251453Z AUTO 14005KT 10SM CLR 08/03 A3050 RMK AO2 SLP292 T00780033 51014
KMTN 251450Z 04008KT 10SM SKC 19/09 A3025
KMTO 251453Z AUTO 17007KT 8SM CLR 25/20 A3008 RMK AO2 SLP182 T02500200 51001
KMTP 251454Z AUTO 35007KT 15/03 A3018 RMK AO1 SLP220 T01500033 50003
KMTV 251535Z AUTO 00000KT 7SM OVC007 20/18 A3021 RMK AO2 T02030179
KMTW 251456Z AUTO 10SM OVC015 19/16 A3006 RMK AO2 SLP198 T01940161 58010
KMUI 251458Z AUTO 05003KT 10SM CLR 17/05 A3024 RMK AO2 SLP243 T01720052 53002
KMUO 251458Z AUTO 10003KT 10SM CLR 07/03 A3046 RMK AO2 SLP315 T00670029 52018 $
KMUT 251535Z AUTO 24013KT 10SM FEW065 27/20 A2999 RMK AO2
KMVE 251532Z AUTO 29013G19KT 10SM BKN030 OVC034 17/12 A2992 RMK AO2
KMVH 251535Z AUTO 30016KT 10SM CLR 11/01 A3039 RMK AO2
KMVL 251454Z AUTO 03009G18KT 10SM FEW032 10/03 A3020 RMK AO2 SLP231 T01000028 53001 TSNO
KMVN 251535Z AUTO 23006KT 10SM CLR 28/21 A3009 RMK AO1
KMVY 251453Z 35014KT 10SM CLR 16/02 A3013 RMK AO2 SLP201 T01560017 58001
KMWA 251458Z 20005KT 10SM SKC 28/22 A3010
KMWC 251445Z 17011G15KT 10SM BKN085 21/15 A3007
KMWH 251452Z 11005KT 10SM CLR 12/04 A3037 RMK AO2 SLP286 T01220044 51006
KMWK 251525Z AUTO 06004KT 7SM OVC011 23/20 A3021 RMK AO2 T02250196
KMWL 251505Z AUTO 01004KT 10SM -RA FEW010 BKN075 OVC120 22/21 A3005 RMK AO2 RAB1459 P0000 T02220206
KMWM 251534Z AUTO 24018G25KT 10SM CLR 17/10 A2996 RMK AO2
KMWN 251449Z 32040G48KT 1/16SM FZFG VV000 M05/M05 RMK VRY LGT ICG
KMWO 251535Z AUTO 00000KT 7SM CLR 24/15 A3016 RMK AO2 T02360145
KMWT 251453Z AUTO 00000KT 10SM CLR 26/22 A3006 RMK AO2 SLP170 T02610222 51006
KMXF 251458Z AUTO 03004KT 10SM CLR 28/22 A3005 RMK AO2 SLP177 T02800215 50001
KMXO 251535Z AUTO 23010KT 10SM FEW019 SCT055 BKN090 25/20 A2998 RMK AO2
KMYF 251453Z 00000KT 10SM CLR 22/05 A3000 RMK AO2 SLP153 T02170050 53007
KMYJ 251535Z AUTO 25008KT 7SM CLR 27/18 A3008 RMK AO2 PWINO
KMYL 251451Z AUTO 00000KT 10SM CLR 03/00 A3049 RMK AO2 SLP328 T00330000 53005
KMYP 251528Z AUTO 00000KT 10SM CLR 00/M03 A3073 RMK AO2
KMYR 251450Z 02006KT 8SM SCT024 27/20 A3014
KMYV 251453Z AUTO 00000KT 10SM CLR 16/06 A3007 RMK AO2 SLP185 T01560056 53010
KMYZ 251515Z AUTO 33008KT 10SM CLR 15/10 A3021 RMK AO2
KMZG 251535Z AUTO 15007G14KT 140V200 9SM FEW024 31/25 A2997 RMK A01
KMZH 251533Z AUTO 20008KT 10SM SCT013 SCT018 SCT023 18/16 A2980 RMK AO2
KMZZ 251535Z AUTO 19004KT 7SM CLR 23/15 A3014 RMK AO2 T02320151
KN03 251535Z AUTO 07005KT 10SM CLR 13/02 A3026 RMK AO2
KN38 251535Z AUTO VRB05KT 10SM CLR 13/05 A3025 RMK AO2
KN60 251452Z AUTO 32025G36KT 10/07 A3001 RMK AO1 PK WND 31038/1440 SLP167 T01000067 51024
KNAK 251454Z AUTO 05007KT 10SM CLR 19/08 A3022 RMK AO2 SLP235 T01890083 53003
KNBC 251505Z AUTO 04007KT 10SM SCT010 BKN016 28/23 A3010 RMK AO2 T02780228
KNBG 251455Z 00000KT 10SM SCT018 SCT250 29/24 A3005 RMK AO2 SLP176 T2 SET 60000 T02940239 51004 $
KNBT 251456Z AUTO 04010KT 10SM OVC020 A3014 RMK AO2 SLP212 6//// 52010 PNO $
KNCA 251509Z AUTO 04008KT 10SM FEW018 BKN030 26/20 A3013 RMK AO2 T02610200
KNDZ 251456Z AUTO 00000KT 10SM CLR 30/23 A3004 RMK AO2 SLP157 T03000233 50002 $
KNEL 251500Z AUTO VRB05KT 10SM CLR 18/05 A3021 RMK AO2 SLP226 T01830050 50003
KNEW 251453Z AUTO 04006KT 10SM CLR 29/23 A3006 RMK AO2 SLP173 T02890233 51006
KNFE 251456Z AUTO 08007KT 10SM BKN036 OVC060 24/14 A3018 RMK AO2 SLP220 T02440139 53006
KNFG 251455Z AUTO 18003KT 7SM CLR 17/06 A2999 RMK AO2 SLP155 T01670061 51006 $
KNFL 251456Z AUTO 15003KT 10SM CLR 10/01 A3044 RMK AO2 SLP263 T01000006 53012
KNFW 251531Z 04005KT 2SM +RA BR SCT005 BKN018 OVC050 22/21 A3006 RMK AO2 P0017 T02220206 $
KNGP 251527Z AUTO 14016G27KT 10SM TS FEW021 SCT030 29/27 A2995 RMK AO2 PK WND 14027/1527 TSB21 T02890267 $
KNGU 251459Z COR 05008KT 10SM SCT027 BKN060 OVC150 22/14 A3019 RMK SLP224 T02220144 53006
KNHK 251452Z 06005KT 10SM FEW200 19/09 A3021 RMK AO2 SLP230 T01940089 51004 $
KNID 251456Z AUTO 00000KT 10SM CLR 22/M06 A3020 RMK AO2 SLP213 T02171056 53015 $
KNIP 251453Z 01006KT 10SM FEW030 SCT250 30/22 A3007 RMK AO2 SLP177 T03000217 50002
KNJK 251456Z AUTO 36004KT 10SM CLR 25/06 A3002 RMK AO2 SLP180 T02500061 $
KNJM 251529Z AUTO 04011G17KT 10SM SCT023 BKN041 BKN110 27/20 A3014 RMK AO2 T02670200
KNKT 251454Z 03009KT 10SM SCT018 OVC030 24/20 A3015 RMK AO2 SLP206 T02390200 $
KNKX 251455Z 31004KT 10SM CLR 24/03 A2999 RMK AO2 SLP149 T02390028 53006
KNLC 251456Z AUTO A3009 RMK AO2 SLPNO 53017 PWINO RVRNO $
KNMM 251456Z AUTO 00000KT 10SM CLR 31/18 A3005 RMK AO2 SLP183 T03060178 51002 $
KNOG 251456Z AUTO 15010KT 10SM CLR 29/25 A2994 RMK AO2 SLP117 T02940250 51003 $
KNOW 251535Z AUTO 00000KT 10SM OVC042 12/11 A3041 RMK AO2 T01210110
KNPA 251456Z AUTO 35006KT 10SM CLR 30/22 A3003 RMK AO2 SLP170 T03000222 50002 $
KNQA 251450Z 14004KT 10SM FEW120 29/21 A3006
KNQI 251456Z AUTO 15012KT 10SM CLR 30/26 A2992 RMK AO2 SLP129 T03000256 50002 $
KNQX 251453Z 09009KT 10SM SCT024 SCT150 BKN250 31/24 A3002 RMK AO2 SLP164 CB DSNT N TCU DSNT W T2 SET T03060244 51013 $
KNRB 251452Z AUTO 03008KT 10SM FEW026 29/23 A3007 RMK AO2 SLP181 6//// T02890228 51007 PNO $
KNRS 251456Z AUTO 36007KT 10SM CLR 20/08 A2999 RMK AO2 SLP156 T02000083 53008 $
KNSE 251456Z AUTO 00000KT 10SM CLR 29/23 A3004 RMK AO2 SLP158 T02940228 50002 $
KNSI 251457Z AUTO 30003KT 10SM CLR 31/M01 A3001 RMK AO2 SLP155 T03061006 52014 PWINO $
KNTD 251456Z 00000KT 10SM CLR 19/06 A3001 RMK AO2 SLP162 T01890061 53010 PNO VISNO N $
KNTU 251456Z 06006KT 10SM FEW020 FEW035 BKN060 21/13 A3017 RMK AO2 SLP219 T02110128 51006
KNUI 251453Z AUTO 03007KT 10SM CLR 20/09 A3020 RMK AO2 SLP226 T02000094 51003
KNUQ 251456Z AUTO 00000KT 10SM CLR 17/13 A3005 RMK AO2 SLP177 T01720133 52006
KNUW 251456Z 24003KT 10SM SCT040 BKN048 OVC060 13/11 A3043 RMK AO2 SLP304 T01330106 53007 $
KNXF 251456Z AUTO 00000KT 9SM CLR 22/08 A3000 RMK AO2 SLP241 T02170078 53011
KNXP 251456Z AUTO 33003KT 10SM CLR 20/M01 A3025 RMK AO2 SLP215 T02001006 53018
KNYC 251451Z AUTO VRB03KT 10SM CLR 16/06 A3023 RMK AO2 SLP229 T01610056 53002
KNYG 251456Z AUTO 05006KT 10SM 19/11 A3023 RMK AO2 SLP237 T01890111 51003 $
KNYL 251457Z AUTO 03008KT 10SM CLR 26/02 A2998 RMK AO2 SLP149 T02610017 53013
KNZY 251452Z 34003KT 10SM CLR 19/10 A2998 RMK AO2 SLP151 T01890100 53007 $
KO22 251515Z AUTO 00000KT 10SM CLR 17/05 A3016 RMK AO1
KO69 251535Z AUTO 00000KT 10SM CLR 15/ A3007 RMK AO1
KO86 251530Z AUTO 00000KT 10SM CLR 12/00 A3034 RMK AO1
KOAJ 251456Z AUTO 06009KT 10SM SCT017 OVC026 24/20 A3015 RMK AO2 SLP212 T02390200
KOAK 251527Z COR 34008KT 10SM CLR 25/03 A3004 RMK AO2 T02500033
KOBE 251535Z AUTO 05004KT 10SM CLR 30/22 A3006 RMK AO2 LTG DSNT SE
KOCF 251450Z 00000KT 10SM CLR 29/22 A3006
KOCH 251535Z 17006KT 10SM FEW010 26/23 A3003 RMK AO1
KOCQ 251535Z AUTO 15010G15KT 10SM OVC012 20/17 A3001 RMK AO1 T01950168
KOCW 251525Z AUTO 07007KT 10SM SCT017 BKN024 BKN042 22/19 A3016 RMK AO2 T02210190
KODO 251453Z AUTO 36007KT 10SM CLR 21/16 A3010 RMK AO2 SLP150 T02060161 53007
KODX 251453Z AUTO 32022G37KT 10SM CLR 16/06 A3019 RMK AO2 PK WND 32037/1450 SLP224 T01560056 51012
KOEB 251534Z AUTO 10009KT 10SM SCT070 19/05 A3017 RMK AO2 T01920047
KOEO 251535Z AUTO 21008KT 10SM CLR 18/15 A2991 RMK AO2 T01810150
KOFF 251458Z AUTO 30007KT 10SM CLR 16/10 A3013 RMK AO2 SLP203 T01560102 52021
KOFK 251456Z AUTO 30017G27KT 10SM CLR 17/07 A3012 RMK AO2 PK WND 30028/1445 SLP193 T01670072 51006
KOFP 251454Z AUTO 00000KT 10SM SCT018 OVC048 19/14 A3021 RMK AO2 SLP230 T01940144 50002
KOGA 251535Z AUTO 33019G29KT 10SM CLR 16/05 A3036 RMK AO2 T01550049
KOGB 251453Z AUTO 04005KT 10SM CLR 28/22 A3012 RMK AO2 SLP195 T02830217 50006 $
KOGD 251453Z 04006KT 10SM CLR 11/04 A3047 RMK AO2 SLP299 T01060039 53013
KOGS 251535Z AUTO 00000KT 10SM CLR 15/05 A3026 RMK AO2 T01510048
KOJA 251535Z AUTO 35012KT 4SM +RA BKN004 OVC013 18/18 A3014 RMK AO2 P0016
KOJC 251517Z 25005KT 10SM -RA BKN009 BKN026 OVC100 20/19 A3013 RMK AO2 CIG 004V015 P0003 T02000189
KOKB 251452Z AUTO 00000KT 10SM CLR 18/07 A2999 RMK AO2 SLP154 T01780067 53008
KOKC 251452Z 33005KT 10SM FEW015 SCT060 SCT150 BKN180 OVC250 22/19 A3010 RMK AO2 SLP180 T02220194 53007
KOKM 251535Z AUTO 28009KT 10SM BKN033 25/21 A3009 RMK AO2 T02470205 PNO
KOKV 251535Z AUTO 12005KT 7SM OVC033 18/07 A3023 RMK AO2
KOKZ 251535Z AUTO 11003KT 10SM CLR 29/22 A3010 RMK AO2 T02850224
KOLE 251535Z AUTO 31003KT 10SM CLR 12/05 A3025 RMK AO2
KOLF 251453Z AUTO 26010KT 10SM CLR 09/03 A3027 RMK AO2 SLP258 T00890033 51012
KOLG 251535Z AUTO 19005KT 5SM OVC005 17/17 A2983 RMK AO1
KOLM 251454Z 00000KT 10SM OVC036 14/11 A3038 RMK AO2 SLP288 T01390111 50005 $
KOLS 251454Z AUTO 19003KT 10SM CLR 16/01 A3010 RMK AO2 SLP147 T01610006 51006 $
KOLU 251535Z AUTO 30015G21KT 260V320 10SM CLR A3017 RMK AO2 PWINO FZRANO RVRNO
KOLV 251450Z 12004KT 10SM SKC A3006
KOLY 251535Z AUTO 16003KT 10SM SCT060 SCT075 28/20 A3009 RMK AO2
KOLZ 251535Z AUTO 22007KT 8SM SCT010 OVC016 21/20 A2998 RMK AO2
KOMA 251452Z 29009KT 10SM SCT160 BKN250 16/09 A3013 RMK AO2 SLP197 T01560089 51017 $
KOMH 251535Z AUTO 00000KT 10SM 16/12 A3025 RMK AO2
KOMK 251453Z AUTO 32003KT 10SM CLR 12/03 A3037 RMK AO2 SLP287 T01170028 53010 $
KOMN 251450Z 05003KT 7SM SCT017 28/24 A3007
KONA 251533Z AUTO 20004KT 7SM SCT012 BKN020 BKN024 21/19 A2991 RMK AO2
KONL 251535Z AUTO 29023G32KT 10SM BKN040 BKN047 17/06 A3018 RMK AO2 T01680057
KONM 251535Z AUTO 36009KT 10SM CLR 16/00 A3032 RMK AO2 T01550000
KONO 251453Z AUTO 00000KT 10SM CLR 08/02 A3047 RMK AO2 SLP323 T00780022 53009
KONP 251535Z AUTO 05009KT 10SM CLR 15/08 A3035 RMK AO2
KONT 251453Z 07017G31KT 10SM CLR 29/M05 A3001 RMK AO2 SLP144 PK WND 07031/48 T02941050 50002
KONX 251525Z AUTO 06008KT 10SM OVC050 23/13 A3018 RMK AO2 T02260129
KONZ 251533Z AUTO 13007KT 10SM CLR 20/10 A3019 RMK AO2 T01980101
KOOA 251535Z AUTO 26012G16KT 10SM OVC016 22/19 A3003 RMK AO2 T02210187
KOPF 251453Z 09009KT 10SM FEW020 BKN033 BKN065 29/23 A3004 RMK AO2 LTG DSNT NE SLP175 T02890233 51012
KOPL 251535Z AUTO 10005KT 10SM SCT020 29/23 A3006 RMK AO2 LTG DSNT SW T02910230 PWINO
KOPN 251535Z AUTO 11005KT 10SM CLR 31/16 A3011 RMK AO2
KOQT 251453Z AUTO 09003KT 10SM CLR 27/18 A3013 RMK AO2 SLP188 T02670178 58000
KOQU 251450Z 36020KT 15SM SKC 15/M01 A3014
KORB 251535Z AUTO 16007KT 10SM SCT024 16/14 A2973 RMK AO2 P0001
KORC 251535Z AUTO 29017G24KT 10SM OVC039 16/10 A3005 RMK AO2
KORD 251451Z 17007KT 10SM FEW070 BKN250 21/16 A3007 RMK AO2 SLP180 T02110161 57005
KORE 251452Z AUTO 33011G19KT 10SM CLR 13/04 A3017 RMK AO2 SLP219 T01330044 58003
KORF 251451Z 04008KT 10SM FEW026 OVC060 22/16 A3018 RMK AO2 SLP218 T02170156 53006
KORG 251535Z AUTO 16009KT 130V190 10SM VCTS SCT037 BKN045 OVC070 28/23 A3005 RMK AO2 LTG DSNT NE THRU S T02750225
KORH 251454Z 32011G22KT 10SM CLR 12/00 A3014 RMK AO2 SLP211 T01170000 58004
KORL 251453Z 10003KT 10SM CLR 30/24 A3006 RMK AO2 SLP181 T03000239 53010
KORS 251535Z AUTO 06004KT 10SM OVC045 13/11 A3039 RMK AO2
KOSA 251535Z AUTO 14003KT 10SM SCT016 28/22 A3007 RMK AO1 T02770216
KOSC 251534Z AUTO 20011G15KT 10SM CLR 18/08 A3020 RMK AO2 T01820075
KOSH 251453Z 16016G22KT 10SM CLR 22/18 A3000 RMK AO2 SLP150 T02170178 58013
KOSU 251453Z 00000KT 10SM CLR 20/14 A3017 RMK AO2 SLP214 T02000139 50000
KOTG 251519Z AUTO 27021G29KT 10SM BKN026 15/10 A2999 RMK AO2 PK WND 28029/1517
KOTH 251535Z 00000KT 10SM CLR 14/13 A3028 RMK AO1
KOTM 251504Z AUTO 24013KT 10SM BKN019 BKN120 24/18 A3001 RMK AO2 T02440183 $
KOUN 251535Z AUTO 02006KT 10SM OVC055 22/20 A3011 RMK AO2
KOVE 251453Z AUTO 01009KT 10SM CLR 26/00 A3007 RMK AO2 SLP183 T02610000 53007
KOVL 251533Z AUTO 27016G23KT 10SM OVC023 15/11 A2991 RMK AO2
KOVS 251453Z AUTO VRB05KT 9SM BKN046 BKN055 23/19 A2996 RMK AO2 SLP145 T02330194 55007
KOWA 251536Z AUTO 24010G14KT 10SM CLR 16/12 A2995 RMK AO2
KOWB 251456Z 15008KT 5SM HZ SKC A3010
KOWD 251453Z 34008G15KT 10SM CLR 16/02 A3013 RMK AO2 SLP202 T01560022 58006
KOWP 251535Z AUTO 00000KT 10SM SCT010 BKN015 OVC037 24/21 A3011 RMK AO2 T02350207
KOXB 251453Z AUTO 36007KT 10SM FEW029 22/13 A3019 RMK AO2 SLP222 T02170133 53002 TSNO $
KOXC 251450Z 36008KT 10SM SKC 14/00 A3022
KOXI 251535Z AUTO 15006KT 4SM CLR 22/01 A3012 RMK AO1
KOXR 251451Z 06004KT 10SM CLR 22/05 A3000 RMK AO2 SLP157 T02170050 51012
KOXV 251535Z AUTO 31015G21KT 10SM OVC017 17/13 A3005 RMK AO2
KOZA 251515Z AUTO 09009G16KT 10SM RA SCT009 SCT044 19/17 A3008 RMK AO2 LTG DSNT SE
KOZR 251456Z AUTO 11003KT 10SM CLR 29/23 A3006 RMK AO2 SLP179 T02850231 52004
KOZS 251535Z AUTO 20007KT 10SM CLR 27/20 A3010 RMK AO2
KOZW 251534Z AUTO 15007KT 10SM CLR 19/13 A3020 RMK AO2 T01850126
KP08 251535Z AUTO 25004KT 10SM CLR 22/00 A3004 RMK AO2
KP28 251456Z AUTO 36015G24KT 15/09 RMK AO1 SLPNO T01500089 $
KP53 251456Z AUTO 17014G22KT 18/13 A3005 RMK AO1 SLP178 T01780133 56019
KP58 251451Z AUTO 16007KT 18/09 A3020 RMK AO1 SLP224 T01780094 58003
KP59 251451Z AUTO 21014G27KT 18/14 A2994 RMK AO1 PK WND 21027/1437 SLP135 T01780144 56026
KP60 251456Z AUTO 00000KT 02/00 A3055 RMK AO1 SLP339 T00170000 51012 $
KP68 251453Z AUTO 00000KT 07/01 A3051 RMK AO1 SLP302 T00670011 53009
KP69 251452Z AUTO VRB03KT 08/06 A3052 RMK AO1 SLP341 T00830061 53008
KP92 251453Z AUTO VRB03KT 27/24 A3004 RMK AO1 SLP172 T02670244 51010
KPAE 251453Z 16004KT 10SM BKN060 OVC075 15/09 A3040 RMK AO2 SLP292 T01500089 53003
KPAH 251453Z 00000KT 9SM CLR 28/21 A3007 RMK AO2 SLP179 T02830206 50003
KPAM 251456Z AUTO 10003KT 10SM CLR 29/25 A3004 RMK AO2 LTG DSNT SW SLP175 60000 T02930254 50001 $
KPAN 251535Z AUTO 05013G20KT 10SM CLR 17/01 A3028 RMK AO2
KPAO 251447Z 00000KT 10SM SKC 15/12 A3004
KPBF 251453Z AUTO 26005KT 10SM CLR 27/22 A3006 RMK AO2 SLP177 T02720217 51009
KPBG 251453Z AUTO 34013G20KT 10SM CLR 14/01 A3021 RMK AO2 SLP229 T01390011 51003
KPBH 251535Z AUTO 17010G15KT 5SM BR OVC006 16/16 A2992 RMK AO2 T01610161
KPBI 251526Z 11009KT 10SM FEW035CB BKN060 BKN250 28/23 A3006 RMK AO2 LTG DSNT S CB SE-SW MOV NW CB DSNT S T02780233
KPBX 251535Z AUTO 00000KT 10SM CLR 25/20 A3016 RMK AO2 T02470201
KPCM 251535Z AUTO 00000KT 10SM CLR 31/24 A3007 RMK AO2
KPCW 251533Z AUTO 11008KT 10SM CLR 20/10 A3018 RMK AO2 $
KPCZ 251535Z AUTO 15009KT 10SM SCT012 BKN120 23/19 A2998 RMK AO2 P0001 T02270194
KPDC 251535Z AUTO 19006KT 10SM SCT017 SCT065 23/19 A2995 RMK AO2 T02280191
KPDK 251453Z 00000KT 10SM CLR 29/19 A3012 RMK AO2 SLP182 T02890194 51003
KPDT 251453Z 14008KT 10SM CLR 11/03 A3039 RMK AO2 SLP285 T01110028 51004
KPDX 251453Z 00000KT 10SM FEW010 FEW070 12/09 A3039 RMK AO2 SLP288 T01170094 51006 $
KPEA 251535Z AUTO 30013G19KT 3SM -DZ BKN009 OVC014 18/16 A3005 RMK AO2 T01810162
KPEO 251453Z AUTO VRB04KT 10SM CLR 14/04 A3028 RMK AO2 SLP255 T01390039 51008
KPEQ 251535Z AUTO 05006KT 10SM BKN013 BKN022 OVC026 21/17 A3009 RMK AO2 T02100171
KPEX 251533Z AUTO 24007KT 10SM OVC018 14/13 A2989 RMK AO2 T01420125
KPEZ 251535Z AUTO 14006KT 10SM SCT016 28/23 A2996 RMK AO2 LTG DSNT W T02780233
KPGA 251453Z AUTO 34008KT 10SM CLR 16/01 A3036 RMK AO2 SLP237 T01610011 51011 TSNO
KPGD 251453Z 00000KT 10SM CLR 30/22 A3006 RMK AO2 SLP179 T03000222 53008
KPGV 251525Z AUTO 11005KT 7SM SCT014 BKN019 OVC037 22/20 A3017 RMK AO2
KPHD 251453Z AUTO VRB03KT 10SM CLR 19/11 A3020 RMK AO2 SLP225 T01890106 58001
KPHF 251454Z 09009KT 10SM FEW037 OVC047 22/14 A3018 RMK AO2 SLP220 T02170139 51005
KPHL 251454Z 34008G16KT 10SM CLR 19/04 A3023 RMK AO2 SLP235 T01890044 50003
KPHN 251535Z AUTO 16006KT 10SM CLR 18/12 A3022 RMK AO2
KPHP 251455Z AUTO 30024G34KT 10SM CLR 13/04 A3022 RMK AO2 PK WND 30034/1435 SLP232 T01330044 51023 $
KPHT 251535Z AUTO 13003KT 10SM CLR 28/19 A3010 RMK
KPHX 251451Z 21003KT 10SM CLR 22/05 A3000 RMK AO2 SLP144 T02220050 53017
KPIA 251454Z 19010KT 9SM CLR 26/21 A3003 RMK AO2 SLP163 T02560206 58007
KPIB 251535Z AUTO 35005KT 10SM CLR 31/22 A3007 RMK AO1
KPIE 251453Z 04006KT 10SM CLR 29/24 A3004 RMK AO2 SLP172 T02940244 53005
KPIH 251453Z 33003KT 10SM CLR 06/02 A3051 RMK AO2 SLP324 T00560022 52014
KPIL 251535Z AUTO 15014KT 10SM SCT029 32/24 A2993 RMK AO2 LTG DSNT N T03170244
KPIM 251535Z AUTO 06004KT 10SM CLR 33/20 A3010 RMK AO2 T03250200
KPIR 251453Z AUTO 31028G36KT 10SM CLR 14/06 A3010 RMK AO2 PK WND 29038/1414 SLP192 T01440056 53023
KPIT 251451Z 03004KT 10SM FEW250 17/10 A3020 RMK AO2 SLP232 T01720100 53003
KPKB 251453Z 00000KT 10SM CLR 21/13 A3020 RMK AO2 SLP220 T02110128 53002
KPKD 251453Z AUTO 22011KT 10SM OVC014 13/09 A2978 RMK AO2 SLP084 T01330094 56001 TSNO
KPKV 251539Z AUTO 15004KT 5SM BR CLR 27/25 A2997 RMK AO2
KPLN 251454Z AUTO 15006KT 10SM OVC065 15/09 A3017 RMK AO2 SLP221 T01500094 56012
KPLU 251535Z AUTO 00000KT SCT038 15/11 A3040 RMK AO2
KPMD 251453Z AUTO 30003KT 10SM CLR 16/M01 A3020 RMK AO2 SLP208 T01561006 51015
KPMP 251538Z 13009KT 2SM TSRA BR OVC010 23/22 A3006 RMK AO2 WSHFT 1511 TSE1454B04 P0017 T02330222
KPMU 251535Z AUTO 22003KT 10SM CLR 31/18 A3006 RMK AO2 T03100177
KPMV 251535Z AUTO 29009KT 10SM CLR 15/09 A3016 RMK AO2 T01540088
KPNA 251535Z AUTO 33005KT 10SM CLR 05/01 A3053 RMK AO2
KPNC 251535Z AUTO 32013G16KT 3/4SM +RA BR OVC005 21/19 A3013 RMK AO2 RAB23 T02060189 PNO $
KPNE 251454Z AUTO 34009KT 10SM CLR 19/06 A3023 RMK AO2 SLP237 T01890061 50001 TSNO
KPNM 251534Z AUTO 23009G15KT 10SM SCT019 17/12 A2987 RMK AO2
KPNS 251453Z 01004KT 10SM CLR 31/22 A3004 RMK AO2 SLP172 T03060217 50002
KPNT 251535Z AUTO 18007KT 10SM SCT085 28/22 A3006 RMK AO2 T02750215
KPOB 251530Z AUTO 06006KT 10SM BKN008 OVC014 23/21 A3014 RMK AO2 BKN V OVC
KPOC 251447Z 00000KT 10SM CLR 21/01 A3006
KPOE 251458Z AUTO 10007KT 10SM CLR 27/24 A3004 RMK AO2 SLP171 T02740235 50006
KPOU 251453Z 35005KT 10SM CLR 15/03 A3021 RMK AO2 SLP227 T01500028 58000
KPOV 251529Z AUTO 08007KT 10SM CLR 18/08 A3022 RMK AO2 T01760079
KPOY 251535Z AUTO 31005KT 10SM CLR 09/00 A3043 RMK AO2
KPPA 251515Z AUTO 03024G34KT 10SM CLR 17/06 A3027 RMK AO2 T01680064
KPPF 251452Z AUTO 34006KT 3SM +RA BR SCT031 BKN055 OVC080 21/20 A3012 RMK AO2 RAB42 SLP191 P0005 60005 T02110200 51012
KPPO 251535Z AUTO 14008KT 10SM CLR 23/14 A3012 RMK AO2 T02260141
KPPQ 251535Z AUTO 23006KT 10SM CLR 27/22 A3006 RMK AO2 T02670215
KPQI 251456Z AUTO 31013KT 10SM BKN032 OVC039 09/03 A2999 RMK AO2 SLP201 T00890033 53004
KPQL 251453Z AUTO 33004KT 10SM CLR 29/24 A3005 RMK AO2 SLP177 T02940239 50005 TSNO
KPQN 251534Z AUTO 29014G22KT 10SM OVC022 14/10 A2999 RMK AO2
KPRB 251453Z AUTO 00000KT 10SM CLR 14/05 A3009 RMK AO2 SLP185 T01390050 53014 TSNO
KPRC 251453Z 03007G14KT 10SM CLR 15/03 A3028 RMK AO2 SLP198 T01500033 53010 $
KPRG 251535Z AUTO 16003KT 10SM CLR 28/21 A3010 RMK AO2 T02770209
KPRO 251535Z AUTO 30011G15KT 10SM OVC120 17/13 A3008 RMK AO2 T01700128
KPRS 251535Z AUTO 06003KT 10SM -RA SCT065 SCT085 OVC110 18/15 A3009 RMK AO2 P0001 T01800153
KPRX 251535Z 15005KT 10SM SCT015 27/22 A3006 RMK AO1
KPSC 251453Z 00000KT 10SM CLR 12/07 A3040 RMK AO2 SLP292 T01170067 53009
KPSF 251454Z AUTO 29011KT 10SM CLR 12/03 A3019 RMK AO2 SLP217 T01170033 53003
KPSK 251535Z AUTO 00000KT 10SM OVC013 22/19 A3022 RMK AO2 T02240185
KPSM 251458Z 31015G20KT 10SM FEW040 15/02 A3009 RMK AO2A SLP192 T01520015 57007
KPSN 251535Z AUTO 12003KT 10SM OVC012 27/23 A3004 RMK AO2 T02690241
KPSO 251535Z AUTO 00000KT 10SM CLR 12/M01 A3046 RMK AO2 T01171014
KPSP 251453Z 33007KT 10SM CLR 27/03 A3008 RMK AO2 SLP184 T02720028 53017
KPSX 251453Z AUTO 18009KT 10SM FEW045 SCT075 SCT090 28/23 A2998 RMK AO2 LTG DSNT SE AND S RAB11E20 TSE1356 SLP150 P0000 60000 T02830228 51008
KPTB 251535Z AUTO 07006KT 10SM OVC042 23/16 A3020 RMK AO2 T02250156
KPTK 251453Z 14011KT 10SM FEW024 SCT200 18/11 A3020 RMK AO2 SLP225 T01780111 58003
KPTN 251517Z AUTO 15010KT 10SM SCT022 BKN028 BKN038 29/24 A3006 RMK AO2
KPTS 251535Z AUTO 02008KT 10SM OVC031 25/22 A3010 RMK AO2 T02450218
KPTT 251535Z AUTO 36020KT 10SM CLR 14/08 A3026 RMK AO2 T01420075
KPTV 251456Z AUTO 10003KT 10SM CLR 17/07 A3011 RMK AO2 SLP204 T01720067 53018
KPTW 251454Z AUTO VRB04KT 10SM CLR 17/07 A3024 RMK AO2 SLP238 T01720067 58000
KPUB 251453Z 03011KT 10SM CLR 14/00 A3047 RMK AO2 SLP279 T01440000 51024
KPUC 251453Z AUTO 00000KT 10SM CLR 08/03 A3048 RMK AO2 SLP313 T00830028 53015
KPUJ 251535Z AUTO 00000KT 10SM CLR 31/22 A3013 RMK AO2
KPUW 251453Z AUTO 10009KT 10SM OVC110 11/04 A3043 RMK AO2 SLP312 T01110044 53001
KPVB 251535Z AUTO 18009G15KT 10SM SCT038 BKN048 BKN075 23/21 A3000 RMK AO1 T02300210
KPVC 251456Z AUTO 34012G18KT 10SM CLR 14/04 A3012 RMK AO2 SLP200 T01440044 53002
KPVD 251451Z 33013G18KT 10SM CLR 16/01 A3015 RMK AO2 SLP210 T01560006 58003
KPVE 251535Z AUTO 00000KT 10SM CLR 29/21 A3009 RMK
KPVF 251515Z AUTO 00000KT 10SM CLR 24/03 A3018 RMK AO1
KPVG 251535Z 07005KT 10SM SCT060 OVC070 23/14 A3020 RMK AO1
KPVJ 251535Z AUTO 35006KT 10SM SCT008 OVC020 21/21 A3009 RMK AO2 T02140209
KPVU 251456Z 22005KT 10SM CLR 08/04 A3049 RMK AO2 SLP316 T00830044 53013
KPVW 251535Z AUTO 01023G29KT 7SM BKN007 OVC013 15/13 A3020 RMK AO2 T01500132
KPWA 251503Z 36004KT 10SM FEW009 23/19 A3010 RMK AO2 T02280194
KPWC 251533Z AUTO 22009G17KT 194V264 10SM OVC019 14/11 A2984 RMK AO2
KPWG 251515Z AUTO 12006KT 10SM OVC011 26/23 A3002 RMK AO2
KPWK 251452Z 17010KT 10SM CLR 21/16 A3008 RMK AO2 SLP184 T02110156 58004
KPWM 251451Z COR 32012G25KT 10SM FEW049 14/01 A3009 RMK AO2 PK WND 35026/1428 SLP188 T01440006 56005
KPWT 251535Z AUTO 00000KT 10SM OVC034 14/10 A3042 RMK AO1
KPXE 251535Z AUTO 05004KT 10SM CLR 33/19 A3009 RMK AO2 T03330187
KPYM 251452Z AUTO 36013G22KT 10SM CLR 16/00 A3013 RMK AO2 SLP202 T01560000 56004
KPYX 251535Z AUTO 02020G26KT 10SM BKN120 18/06 A3029 RMK AO2 T01800063
KPZQ 251534Z AUTO 16008KT 10SM SCT110 18/10 A3020 RMK AO2 T01780101
KRAC 251453Z AUTO 17012KT 10SM BKN090 21/16 A3008 RMK AO2 SLP184 T02060156 58006
KRAL 251453Z 00000KT 10SM CLR 21/05 A3005 RMK AO2 SLP160 T02060050 51014
KRAP 251452Z 31025G33KT 10SM CLR 12/M01 A3031 RMK AO2 PK WND 32034/1403 SLP267 T01221006 51025
KRAS 251535Z AUTO 13010KT 10SM TS CLR 28/25 A2995 RMK AO2 LTG DSNT E THRU S T02830254
KRBD 251503Z 00000KT 10SM BKN010 OVC049 26/24 A3002 RMK AO2 LTG DSNT N AND NE T02560239
KRBG 251453Z AUTO 00000KT 10SM CLR 11/08 A3035 RMK AO2 SLP277 T01060078 53003
KRBL 251454Z AUTO 34008KT 10SM CLR 26/M01 A3013 RMK AO2 SLP198 T02561011 53008
KRBO 251535Z AUTO 14011KT 10SM VCTS CLR 30/24 A2994 RMK AO2 LTG DSNT NE THRU SE T02990241
KRBW 251535Z AUTO 06006KT 10SM SCT016 BKN021 28/22 A3012 RMK AO2
KRCA 251458Z AUTO 33021G28KT 10SM CLR 12/00 A3030 RMK AO2 PK WND 34036/37 SLP264 T01170004 52024 $
KRCE 251455Z AUTO 33006KT 10SM CLR 23/21 A3014 RMK AO2
KRCM 251435Z AUTO 29003KT 10SM -RA SCT012 BKN034 OVC050 19/18 A3012 RMK AO2 P0004
KRCR 251515Z AUTO 14004KT 10SM CLR 22/16 A3014 RMK AO2
KRCV 251530Z AUTO 00000KT 10SM CLR 09/M03 A3052 RMK AO2 T00871028
KRCX 251535Z AUTO 15008KT 5SM BR OVC005 18/17 A2991 RMK AO2 T01790170
KRCZ 251520Z AUTO 10004KT 5SM BR OVC007 23/21 A3014 RMK AO2 T02290214
KRDD 251453Z 00000KT 10SM CLR 24/00 A3014 RMK AO2 SLP200 T02440000 53010
KRDG 251454Z VRB03KT 10SM CLR 17/05 A3023 RMK AO2 SLP241 T01670050 50001
KRDK 251535Z AUTO 31011G18KT 10SM CLR 17/11 A3013 RMK AO2
KRDM 251456Z 14006KT 10SM CLR 09/M06 A3045 RMK AO2 SLP309 T00891061 53007
KRDR 251537Z AUTO 31017G27KT 10SM SCT012 OVC018 14/12 A2972 RMK AO2 RAE07DZB07E11DZB16E32 CIG 011V018
KRDU 251451Z 10007KT 10SM OVC016 22/19 A3017 RMK AO2 SLP213 T02220189 53005
KREO 251452Z AUTO 00000KT 09/M05 A3048 RMK AO1 SLP317 T00891050 53014 $
KRFD 251454Z 16011KT 10SM FEW100 BKN250 22/18 A3004 RMK AO2 SLP169 T02220183 58007
KRFI 251535Z AUTO 15004KT 10SM BKN013 27/23 A3006 RMK AO2 T02730226
KRGK 251535Z AUTO 27006KT 10SM SCT012 BKN021 19/17 A2990 RMK AO2
KRHI 251529Z AUTO 14007KT 3SM -RA BR OVC005 16/16 A2998 RMK AO2 RAB1455 P0009 T01610161 TSNO
KRHP 251525Z AUTO 00000KT 10SM CLR 27/17 A3016 RMK AO2 T02710170
KRIC 251454Z 05006KT 10SM FEW017 BKN046 OVC065 21/14 A3019 RMK AO2 SLP226 T02110144 50001
KRIL 251453Z AUTO 01004KT 10SM CLR 08/05 A3049 RMK AO2 SLP306 T00780050 51011
KRIV 251458Z AUTO 32004KT 10SM CLR 22/03 A3008 RMK AO2 SLP174 T02210031 52012
KRIW 251531Z AUTO 00000KT 10SM SCT009 07/05 A3048 RMK AO2 T00720050
KRKD 251456Z AUTO VRB05KT 10SM BKN045 13/03 A3005 RMK AO2 SLP176 T01330028 50001
KRKP 251453Z AUTO 13011KT 10SM CLR 27/23 A2995 RMK AO2 SLP143 T02720228 53006
KRKR 251535Z AUTO 19003KT 10SM CLR 26/21 A3008 RMK AO2 T02600210
KRKS 251454Z AUTO 25005KT 10SM CLR 05/02 A3052 RMK AO2 SLP319 T00500017 53014
KRLD 251535Z AUTO 00000KT 10SM CLR 15/08 A3038 RMK AO2 T01510083
KRME 251453Z 27003KT 10SM CLR 12/05 A3028 RMK AO2 SLP253 T01170050 50005 $
KRMG 251453Z AUTO 00000KT 10SM CLR 28/18 A3010 RMK AO2 SLP183 T02830178 50002
KRMN 251535Z AUTO 03003KT 10SM SCT028 OVC037 18/11 A3027 RMK AO2 T01750108
KRMY 251534Z AUTO 12007KT 10SM OVC070 19/09 A3017 RMK AO2 T01940088
KRNC 251535Z AUTO 13005G81KT 10SM CLR 30/21 A3011 RMK
KRND 251528Z AUTO 12008KT 10SM SCT010 SCT014 27/25 A2998 RMK AO2 $
KRNH 251515Z AUTO 23008KT 10SM -RA SCT010 SCT028 BKN050 17/16 A2990 RMK AO2 T01650161
KRNM 251453Z 00000KT 10SM CLR 17/09 A3005 RMK AO2 SLP165 T01670089 53007
KRNO 251455Z 00000KT 10SM FEW220 10/M01 A3046 RMK AO2 SLP286 T01001006 53012 $
KRNP 251535Z AUTO 16008KT 10SM CLR 19/13 A3019 RMK AO2 T01900130
KRNT 251453Z 00000KT 10SM OVC049 16/13 A3038 RMK AO2 SLP293 T01560128 51007
KRNV 251535Z AUTO 28003KT 10SM CLR 32/20 A3004 RMK AO2 T03220201
KROA 251454Z 14006KT 10SM OVC013 21/18 A3021 RMK AO2 SLP219 T02060178 50000
KROC 251454Z 00000KT 10SM FEW045 14/06 A3027 RMK AO2 SLP256 T01440056 50004
KROG 251458Z 19006KT 10SM CLR 26/21 A3012 RMK AO2 SLP186 T02610211 51008 $
KROS 251459Z AUTO 22007KT 10SM SCT006 SCT010 OVC023 17/15 A2986 RMK AO2
KROW 251451Z 02018G24KT 10SM BKN110 17/06 A3021 RMK AO2 SLP181 T01670056 53024
KROX 251535Z AUTO 20014G17KT 10SM CLR 16/12 A2967 RMK AO2
KRPD 251510Z AUTO 15008KT 2SM RA OVC005 18/17 A2988 RMK AO2 P0001 T01830172
KRPH 251515Z AUTO 06008KT 10SM -DZ SCT005 SCT050 22/22 A3004 RMK AO2 T02160216
KRPJ 251535Z AUTO 17010KT 10SM CLR 24/19 A3004 RMK AO2 T02390192 PWINO
KRPX 251535Z AUTO 20007KT 10SM 10/03 A3025
KRQB 251535Z AUTO 15006KT 10SM SCT050 SCT060 OVC095 18/13 A3016 RMK AO2 T01820128
KRQE 251453Z AUTO 00000KT 10SM CLR 07/00 A3039 RMK AO2 SLP229 T00720000 52016 TSNO
KRRL 251535Z AUTO 14006KT 4SM -RA OVC004 17/17 A2997 RMK AO2 T01650165
KRRT 251455Z AUTO 21010G18KT 10SM SCT013 BKN019 16/13 A2968 RMK AO2
KRSL 251453Z AUTO 35013KT 10SM CLR 14/08 A3025 RMK AO2 SLP235 T01390083 51022
KRSN 251535Z AUTO 06004KT 10SM CLR 31/23 A3010 RMK AO2 T03050230
KRST 251514Z 26009G16KT 10SM BKN011 OVC019 18/17 A2995 RMK AO2 RAB1456E05 CIG 008V013 P0000 T01830172
KRSV 251535Z AUTO 17003KT 10SM CLR 26/21 A3011 RMK AO2 T02620212
KRSW 251507Z 07007KT 10SM SCT023 30/23 A3004 RMK AO2 T03000228
KRTN 251453Z AUTO 36017G22KT 10SM CLR 11/M01 A3043 RMK AO2 SLP256 T01111006 51019
KRTS 251535Z AUTO 00000KT 10SM CLR 09/M05 A3048 RMK AO2
KRUE 251453Z AUTO 00000KT 10SM CLR 27/22 A3007 RMK AO2 SLP175 T02670217 51005
KRUG 251535Z AUTO 30022G29KT 10SM CLR 09/09 A2990 RMK AO2
KRUQ 251525Z AUTO 00000KT 10SM OVC017 24/21 A3015 RMK AO2 T02390208
KRUT 251456Z AUTO 34009G15KT 10SM CLR 12/03 A3019 RMK AO2 SLP247 T01170028 58003 $
KRVS 251453Z 00000KT 10SM BKN037 24/19 A3007 RMK AO2 SLP186 60000 T02390194 51007 $
KRWF 251523Z AUTO 28021G25KT 10SM BKN024 16/10 A2992 RMK AO2 PK WND 28027/1501 T01610100
KRWI 251537Z AUTO VRB05KT 10SM BKN015 BKN020 OVC034 22/19 A3017 RMK AO2 T02220194
KRWL 251506Z AUTO 23011KT 10SM BKN004 BKN012 03/02 A3053 RMK AO2 CIG 002V006 T00330022
KRXE 251453Z AUTO 00000KT 10SM CLR 03/02 A3051 RMK AO2 SLP333 T00330017 51014
KRYN 251445Z 10004KT 10SM CLR 17/01 A3006
KRYT 251453Z AUTO VRB04KT 10SM CLR 18/05 A3022 RMK AO2 SLP232 T01780050 55000 TSNO $
KRYV 251535Z AUTO 15006KT 10SM SCT080 22/20 A3002 RMK AO2 T02230197
KRYW 251535Z AUTO 01008KT 10SM BKN003 OVC025 22/21 A3003 RMK AO2 LTG DSNT NE T02200212
KRYY 251347Z 09003KT 10SM SKC 24/19 A3010
KRZL 251535Z AUTO 14007KT 10SM BKN065 23/17 A3010 RMK AO2
KRZN 251535Z AUTO 20006KT 10SM SCT030 BKN075 BKN085 17/16 A2987 RMK AO2 P0004 T01660156
KRZR 251535Z AUTO 00000KT 10SM CLR 30/18 A3010 RMK A01
KRZT 251534Z AUTO 00000KT 10SM CLR 22/12 A3016 RMK AO2
KS25 251515Z AUTO 31012G22KT 10SM CLR 10/04 A3017 RMK AO2
KS32 251535Z AUTO 30024G33KT 2 1/2SM BR 12/11 A2982 RMK AO2
KS39 251535Z AUTO 00000KT 10SM CLR 12/M02 A3046 RMK AO2
KSAA 251535Z AUTO 15008KT 10SM CLR 07/02 A3054 RMK AO2
KSAC 251453Z 34003KT 10SM CLR 15/10 A3006 RMK AO2 SLP179 T01500100 53010
KSAD 251451Z AUTO 00000KT 10SM CLR 19/01 A3011 RMK AO2 SLP159 T01940011 53015 $
KSAF 251453Z 35019G26KT 10SM CLR 11/M01 A3037 RMK AO2 PK WND 35029/1440 SLP222 T01111011 51017
KSAN 251451Z 10003KT 10SM CLR 22/09 A2999 RMK AO2 SLP157 T02220089 53006 $
KSAR 251535Z AUTO 22006KT 10SM SCT065 SCT075 28/21 A3009 RMK AO2 T02760212
KSAT 251451Z 09006KT 10SM BKN012 BKN020 OVC250 26/23 A2997 RMK AO2 SLP131 T02610233 50003
KSAV 251453Z 04009KT 10SM SCT023 SCT110 BKN250 29/22 A3009 RMK AO2 SLP189 T02940217 51005
KSAW 251445Z 18012G18KT 10SM SCT022 OVC032 16/13 A3005
KSAZ 251534Z AUTO 23007G16KT 10SM BKN019 OVC024 13/11 A2982 RMK AO2
KSBA 251453Z 00000KT 10SM CLR 17/08 A3000 RMK AO2 SLP159 T01670078 51016
KSBD 251449Z 05003KT 10SM SKC 20/00 A3007
KSBM 251453Z AUTO 17014G21KT 10SM OVC012 20/17 A3006 RMK AO2 SLP179 T02000167 58007
KSBN 251454Z 13009KT 10SM SCT055 SCT075 19/12 A3014 RMK AO2 SLP204 T01890117 58008
KSBO 251535Z AUTO 15003KT 10SM SCT038 29/22 A3010 RMK AO2 LTG DSNT E
KSBP 251456Z 33003KT 10SM CLR 17/06 A3003 RMK AO2 SLP165 T01720061 53017
KSBS 251535Z AUTO 00000KT 10SM OVC005 05/04 A3054 RMK AO1 T00460036
KSBY 251454Z 02006KT 10SM CLR 20/11 A3019 RMK AO2 SLP226 T02000106 52000
KSCD 251535Z AUTO 00000KT 10SM CLR 32/21 A3008 RMK AO2 T03230211
KSCF 251535Z AUTO 00000KT 10SM CLR 29/23 A3007 RMK A01
KSCH 251459Z 29003KT 10SM CLR 14/04 A3020
KSCK 251455Z 10004KT 10SM CLR 16/10 A3005 RMK AO2 SLP176 T01560100 53010
KSCR 251525Z AUTO 09004KT 10SM OVC013 22/20 A3017 RMK AO2 T02240202
KSDA 251535Z AUTO 31012KT 10SM CLR 17/11 A3016 RMK AO2
KSDB 251448Z AUTO 07016G23KT 10SM CLR 20/M05 A3028 RMK AO2 SLP204 T02001050 53013
KSDF 251456Z 00000KT 7SM FEW120 27/19 A3011 RMK AO2 SLP191 T02670189 50001
KSDL 251453Z 01007KT 10SM CLR 26/02 A3004 RMK AO2 SLP149 T02610017 53017
KSDM 251453Z 12005KT 10SM CLR 21/08 A3000 RMK AO2 SLP153 T02060078 53008
KSDY 251456Z AUTO 30013KT 10SM CLR 10/04 A3021 RMK AO2 SLP243 T01000039 53014
KSEA 251453Z 00000KT 10SM OVC041 16/11 A3039 RMK AO2 SLP298 T01610111 51006
KSEE 251447Z 00000KT 10SM SKC 15/06 A3000
KSEG 251453Z AUTO 00000KT 10SM CLR 17/07 A3026 RMK AO2 SLP247 T01670067 50000
KSEM 251535Z AUTO 00000KT 10SM CLR 31/20 A3005 RMK AO2
KSEP 251535Z AUTO 06003KT 10SM BKN006 BKN016 BKN022 21/20 A3010 RMK AO2 T02140200
KSET 251454Z AUTO 24006KT 10SM CLR 27/21 A3005 RMK AO2 SLP170 T02720206 51002
KSEZ 251535Z AUTO 05007KT 350V100 10SM CLR 18/02 A3027 RMK AO2
KSFB 251453Z 02005KT 10SM FEW016 31/24 A3006 RMK AO2 SLP176 T03060239 53009
KSFF 251453Z 05003KT 10SM OVC080 13/06 A3042 RMK AO2 SLP298 T01280061 53003
KSFM 251456Z AUTO 33009KT 290V350 10SM CLR 14/02 A3010 RMK AO2 SLP204 T01390017 58005 $
KSFO 251456Z 00000KT 10SM CLR 17/13 A3004 RMK AO2 SLP173 T01720128 53006
KSFQ 251535Z AUTO 05007KT 10SM OVC050 22/14 A3019 RMK AO2 T02160142
KSFY 251535Z AUTO 19010KT 10SM BKN060 BKN070 26/21 A2999 RMK AO2 T02550205
KSFZ 251456Z AUTO 36012G16KT 320V020 10SM CLR 15/02 A3015 RMK AO2 SLP231 T01500022 58003
KSGF 251452Z 19007KT 10SM CLR 26/19 A3010 RMK AO2 SLP178 T02610194 51008
KSGH 251456Z AUTO 00000KT 10SM CLR 21/14 A3017 RMK AO2 SLP215 T02110144 53000
KSGJ 251458Z 04010KT 10SM FEW026 29/23 A3007 RMK AO2 SLP183 T02940228 52006
KSGR 251501Z 10007KT 8SM -RA FEW019 SCT038 BKN060 26/23 A2999 RMK AO2 LTG DSNT NE AND E P0000 T02610233
KSGS 251530Z AUTO 24007G16KT 10SM CLR 16/12 A2990 RMK AO2 T01600123
KSGT 251535Z AUTO 27004KT 10SM CLR 30/20 A3007 RMK AO1
KSGU 251535Z 05015G21KT 10SM CLR 20/02 A3034 RMK AO1
KSHD 251535Z AUTO 35004KT 3SM BR BKN008 OVC019 15/14 A3024 RMK AO2 T01460141
KSHL 251535Z AUTO 28018G24KT 10SM OVC036 16/10 A3001 RMK AO2
KSHN 251453Z AUTO 00000KT 10SM OVC034 14/11 A3037 RMK AO2 SLP283 T01440111 52005
KSHR 251453Z AUTO 26004KT 10SM CLR 12/05 A3041 RMK AO2 SLP295 T01170050 50014
KSHV 251456Z 15004KT 10SM FEW018 BKN240 BKN300 27/23 A3004 RMK AO2 SLP170 T02720233 53004
KSIF 251525Z AUTO 05003KT 4SM BR OVC008 21/19 A3018 RMK AO2 T02070192
KSIK 251535Z AUTO 00000KT 10SM CLR 30/19 A3008 RMK AO2 PWINO
KSIY 251453Z AUTO 22004KT 10SM CLR 07/04 A3040 RMK AO2 SLP301 T00670039 51007
KSJC 251453Z 14003KT 10SM CLR 17/11 A3004 RMK AO2 SLP173 T01720111 53007
KSJN 251454Z AUTO 00000KT 10SM CLR 10/M01 A3032 RMK AO2 SLP220 T01001011 51009 TSNO $
KSJS 251535Z AUTO 00000KT 10SM CLR 27/20 A3015 RMK AO2 T02650197
KSJT 251516Z 09008KT 10SM BKN008 20/18 A3005 RMK AO2 CIG 006V011 T02000183
KSJX 251535Z AUTO 15007KT 10SM OVC050 17/11 A3013 RMK AO2 T01660114
KSKA 251458Z AUTO 17007KT 10SM OVC070 12/03 A3040 RMK AO2 SLP300 T01170025 52004
KSKF 251513Z AUTO 12010KT 10SM BKN015 BKN021 27/23 A2995 RMK AO2 CIG 015V021 BKN015 V SCT $
KSKX 251535Z AUTO 36006KT 10SM CLR 11/M02 A3046 RMK AO1
KSLB 251535Z AUTO 29017G23KT 10SM CLR 16/09 A3006 RMK AO2
KSLC 251454Z 15006KT 10SM CLR 11/06 A3047 RMK AO2 SLP296 T01060056 53014
KSLE 251456Z 00000KT 10SM CLR 11/08 A3036 RMK AO2 SLP282 T01110078 53005
KSLG 251535Z AUTO 22006KT 10SM CLR 26/17 RMK AO1
KSLH 251534Z AUTO 15009KT 10SM BKN110 17/08 A3015 RMK AO2 T01750090
KSLI 251458Z 01002KT 10SM CLR 18/09 A3000 RMK AO2A SLP162 T01800090 52013
KSLK 251451Z AUTO 35009KT 10SM CLR 10/00 A3021 RMK AO2 SLP241 T01000000 51003 $
KSLN 251453Z 33010KT 10SM CLR 16/11 A3024 RMK AO2 SLP232 T01610106 51036
KSLO 251535Z AUTO 20006KT 10SM CLR 29/20 A3008 RMK AO2 T02920203
KSLR 251535Z AUTO 13008KT 10SM SCT020 29/22 A3006 RMK AO2 T02910216
KSME 251535Z AUTO 00000KT 10SM BKN065 26/18 A3014 RMK AO2
KSMF 251453Z 33004KT 10SM CLR 13/09 A3006 RMK AO2 SLP177 T01330089 53011
KSMN 251535Z AUTO 00000KT 10SM CLR 07/01 A3053 RMK AO1
KSMO 251451Z VRB03KT 10SM CLR 20/07 A3002 RMK AO2 SLP162 T02000067 53016
KSMP 251532Z AUTO 22003KT OVC014 11/00 A3045 RMK AO2 T01110000 $
KSMQ 251453Z AUTO VRB03KT 10SM CLR 18/05 A3020 RMK AO2 SLP227 T01780050 57002
KSMS 251535Z AUTO 10003KT CLR 29/21 A3012 RMK AO2
KSMX 251451Z 00000KT 10SM CLR 17/06 A3002 RMK AO2 SLP168 T01720061 53016
KSNA 251453Z 00000KT 10SM CLR 19/08 A3001 RMK AO2 SLP161 T01940083 53015
KSNC 251535Z AUTO 34010G16KT 310V010 10SM CLR 15/01 A3017 RMK AO2
KSNH 251535Z AUTO 00000KT 10SM CLR 30/20 A3007 RMK A01
KSNK 251535Z AUTO 00000KT 20/18 A3012 RMK AO2 T01970177 PWINO
KSNL 251535Z AUTO 01006KT 10SM SCT008 BKN021 OVC029 22/20 A3011 RMK AO2 T02160200
KSNS 251453Z 11014KT 10SM CLR 16/09 A3002 RMK AO2 SLP176 T01610089 53003
KSNT 251451Z AUTO 00000KT 01/M01 A3058 RMK AO1 SLP325 T00061011 53008
KSNY 251453Z AUTO 34018G26KT 10SM -RA CLR 12/04 A3042 RMK AO2 PK WND 34026/1429 RAB31 SLP287 P0000 60000 T01220044 51016
KSOA 251535Z AUTO 08003G10KT 2SM -RA FEW001 BKN010 OVC031 19/19 A3012 RMK AO2 LTG DSNT S
KSOP 251521Z AUTO 06008KT 9SM BKN012 OVC021 24/22 A3015 RMK AO2
KSOW 251535Z AUTO 36013KT 10SM CLR 10/M02 A3035 RMK AO2
KSPA 251535Z AUTO 02003KT 10SM CLR 27/17 A3013 RMK AO2
KSPB 251453Z AUTO 00000KT 10SM CLR 11/09 A3038 RMK AO2 SLP286 T01060094 51003
KSPF 251515Z AUTO 29017G27KT 10SM CLR 10/00 A3035 RMK AO2
KSPG 251453Z 10006KT 10SM CLR 28/24 A3003 RMK AO2 SLP168 T02830239 53007
KSPI 251452Z 18007KT 10SM FEW060 28/20 A3005 RMK AO2 SLP171 T02780200 58003
KSPL 251535Z AUTO 16012KT 30/25 A2994 RMK AO1 LTG DSNT N-SE
KSPR 251535Z AUTO 17022KT 10SM BKN026 BKN033 OVC070 27/21 A3006 RMK A01
KSPS 251500Z AUTO 10008KT 10SM BKN006 OVC120 21/20 A3007 RMK AO2 T02110200
KSPW 251453Z AUTO 26013G19KT 10SM CLR 15/10 A3001 RMK AO2 SLP159 T01500100 50003
KSQE 251535Z AUTO 25013KT 6SM HZ FEW042 BKN060 BKN075 26/21 A3009 RMK A01
KSQI 251456Z AUTO 14005KT 10SM SCT055 24/21 A3002 RMK AO2 SLP178 6//// T02440206 56006 PNO $
KSQL 251447Z 00000KT 10SM SKC 17/12 A3005
KSRB 251535Z AUTO 15003KT 10SM CLR 30/21 A3010 RMK
KSRC 251456Z AUTO 00000KT 10SM CLR 28/23 A3008 RMK AO2 SLP186 T02830228 50007
KSRQ 251453Z 05003KT 10SM CLR 32/23 A3002 RMK AO2 SLP165 T03170228 51006
KSRR 251535Z AUTO 15006KT 10SM CLR 12/00 A3038 RMK AO2
KSSC 251458Z AUTO 04005KT 10SM CLR 28/20 A3010 RMK AO2 SLP192 T02830204 51003 $
KSSF 251537Z 11009KT 10SM BKN015 BKN023 BKN029 29/23 A2996 RMK AO2 T02890233 $
KSSI 251515Z AUTO 03006KT 10SM FEW018 SCT025 BKN041 28/23 A3007 RMK AO2 T02830228
KSTC 251524Z 24013G21KT 10SM BKN020 15/12 A2987 RMK AO2 T01500117
KSTE 251535Z AUTO 12004KT 2SM +RA OVC007 18/17 A2996 RMK AO2 VIS 1 1/4V4 P0010 T01750173
KSTF 251535Z AUTO 00000KT 10SM CLR 29/17 A3007 RMK AO2
KSTJ 251453Z 33011KT 10SM -RA FEW016 SCT029 OVC060 16/13 A3014 RMK AO2 SLP203 P0003 60005 T01610128 53035
KSTK 251530Z AUTO 35016G24KT 10SM BKN100 14/03 A3042 RMK AO2
KSTL 251451Z 24006KT 10SM BKN200 29/19 A3006 RMK AO2 SLP166 T02890194 51003 $
KSTP 251453Z 25009KT 10SM FEW022 17/13 A2990 RMK AO2 RAE10 SLP121 P0000 60020 T01720133 51007
KSTS 251453Z 00000KT 10SM CLR 11/09 A3003 RMK AO2 SLP164 T01110094 53009
KSUA 251447Z 10009KT 7SM SCT020 30/24 A3007
KSUE 251456Z AUTO 16014G19KT 10SM OVC011 18/16 A3006 RMK AO2 SLP199 T01830161 58014
KSUN 251448Z 31006KT 10SM SKC 06/M01 A3051
KSUS 251454Z 26005KT 10SM CLR 26/22 A3006 RMK AO2 SLP170 T02610217 53006
KSUT 251525Z AUTO 06006G14KT 030V090 10SM SCT018 27/22 A3012 RMK AO2 T02660222
KSUU 251458Z AUTO 09002KT 10SM CLR 14/05 A3004 RMK AO2 SLP179 T01410051 52011 PWINO PNO $
KSUW 251510Z AUTO 00000KT 2SM -RA BKN004 OVC011 17/17 A2980 RMK AO2 P0002 T01710171
KSUX 251452Z 30013G20KT 10SM CLR 17/10 A3007 RMK AO2 SLP177 T01720100 50006
KSVC 251535Z AUTO 06010G16KT 10SM BKN120 20/M01 A3022 RMK AO2 T02001010
KSVH 251525Z AUTO 03004KT 7SM OVC013 24/22 A3016 RMK AO2 T02370221
KSVN 251458Z AUTO 02007KT 340V050 10SM SCT021 28/26 A3007 RMK AO2 SLP185 T02800258 50007
KSWF 251445Z 36006KT 20SM SKC 15/03 A3023
KSWO 251453Z 03004KT 10SM BKN007 OVC120 22/21 A3010 RMK AO2 CIG 005V010 SLP183 60000 T02220206 53012
KSXT 251456Z AUTO 11008KT 10SM CLR 17/03 A3038 RMK AO2 SLP251 T01670028 53002
KSYF 251535Z AUTO 34014G20KT 10SM CLR 16/02 A3039 RMK AO2 T01600015
KSYI 251535Z AUTO 20004KT 10SM CLR 31/21 A3010 RMK
KSYM 251530Z AUTO VRB03KT 10SM CLR 25/17 A3017 RMK AO2
KSYN 251533Z AUTO 25008KT 10SM SCT030 17/12 A2992 RMK AO2 T01660123
KSYR 251454Z 10006KT 10SM FEW250 12/03 A3027 RMK AO2 SLP248 T01220028 50006
KSZL 251527Z 31009KT 10SM BKN013 OVC041 21/21 A3011 RMK A02A RAE27
KSZT 251535Z AUTO 00000KT 10SM SCT080 SCT090 09/07 A3043 RMK AO2
KT20 251535Z AUTO 15008KT 10SM SCT018 30/25 A2998 RMK AO2 LTG DSNT E AND S T02980249
KT35 251535Z AUTO 15003KT 10SM SCT016 BKN044 OVC060 28/24 A3001 RMK AO2 LTG DSNT N AND NW T02760241
KT65 251535Z AUTO 17014G19KT 7SM BKN030 BKN036 31/23 A2991 RMK AO2 LTG DSNT NE AND E T03120229
KT70 251535Z AUTO 33009KT 7/8SM -RA BR VCTS SCT002 OVC034 21/20 A2991 RMK AO2 LTG DSNT NW-SW RVRNO $
KT82 251515Z AUTO 06007KT 5SM RA SCT009 BKN026 OVC040 20/19 A3005 RMK AO2 LTG DSNT SW AND W P0004 T02020188
KTAD 251454Z AUTO 30006KT 10SM CLR 11/02 A3048 RMK AO2 SLP277 T01060017 51015
KTAN 251452Z AUTO VRB06KT 10SM CLR 16/02 A3013 RMK AO2 SLP203 T01560017 58005
KTAZ 251535Z AUTO 20008KT 10SM CLR 29/20 A3005 RMK AO2 T02910195
KTBN 251458Z AUTO 17004KT 10SM CLR 26/20 A3010 RMK AO2 SLP186 T02610202 52010
KTBR 251535Z AUTO 09003KT 10SM SCT024 SCT030 SCT038 30/24 A3009 RMK AO2 T02960236
KTBX 251535Z AUTO 34009KT 10SM CLR 03/01 A3057 RMK AO2 PWINO
KTCC 251453Z AUTO 04021G29KT 10SM BKN040 OVC050 16/03 A3032 RMK AO2 PK WND 05032/1436 SLP229 T01560028 51027
KTCL 251453Z 00000KT 10SM CLR 29/21 A3006 RMK AO2 SLP175 T02940206 51003
KTCM 251458Z AUTO 15001KT 10SM OVC040 14/13 A3039 RMK AO2 SLP295 T01440125 51006 $
KTCS 251453Z AUTO 03016G27KT 10SM CLR 18/M01 A3022 RMK AO2 PK WND 03027/1449 SLP167 T01781006 51015
KTDF 251525Z AUTO 06005KT 10SM OVC012 20/18 A3019 RMK AO2
KTDR 251456Z AUTO 05004KT 10SM CLR 29/26 A3004 RMK AO2 LTG DSNT SW SLP176 60001 T02910263 51001 $
KTDZ 251453Z AUTO 12007KT 10SM CLR 18/11 A3020 RMK AO2 SLP225 T01830106 58003
KTEB 251451Z 03006KT 10SM CLR 17/05 A3020 RMK AO2 SLP226 T01670050 53001
KTEW 251533Z AUTO 15007G16KT 10SM CLR 19/11 A3020 RMK AO2 T01880111
KTEX 251535Z AUTO 00000KT 10SM CLR 05/M01 A3053 RMK AO2 T00541007
KTFP 251535Z AUTO 12007KT 10SM VCTS SCT013 SCT021 SCT032 27/25 A2995 RMK AO2 LTG DSNT NE THRU S P0012 T02720254
KTHA 251535Z AUTO VRB03KT 10SM CLR 29/18 A3012 RMK
KTHV 251453Z AUTO 03005KT 10SM CLR 17/08 A3024 RMK AO2 SLP243 T01720078 51003
KTIF 251535Z AUTO 30022G30KT 10SM CLR 16/03 A3030 RMK AO2 T01550026
KTIK 251511Z AUTO 01006KT 10SM SCT008 OVC048 21/19 A3010 RMK AO2
KTIP 251535Z AUTO 19007KT 10SM BKN055 28/21 A3008 RMK AO2 T02760208
KTIW 251453Z 00000KT 10SM BKN040 14/11 A3040 RMK AO2 SLP293 T01390106 51007
KTIX 251450Z VRB03KT 7SM SCT020 29/24 A3007
KTKC 251533Z AUTO 28012G20KT 10SM OVC022 16/12 A2996 RMK AO2 T01600115
KTKI 251517Z 00000KT 10SM VCTS BKN010 OVC080 25/23 A3004 RMK AO2 LTG DSNT SW AND W TSB1456E11 CIG 007V015 T02500233
KTKV 251535Z AUTO 14003KT 3SM BR OVC004 16/15 A2996 RMK AO2 T01610154
KTKX 251535Z AUTO 21004KT 9SM CLR 31/20 A3005 RMK AO2
KTLH 251453Z 06006KT 10SM FEW040 FEW250 31/23 A3005 RMK AO2 SLP173 T03060233 55001
KTMA 251535Z AUTO 03005KT 10SM CLR 29/21 A3007 RMK AO2 T02900212
KTMB 251453Z 03006KT 10SM CLR 29/24 A3003 RMK AO2 SLP169 T02890239 51011
KTME 251535Z AUTO 15008KT 10SM BKN018 BKN026 BKN032 29/25 A3001 RMK AO2
KTMK 251535Z AUTO 00000KT 10SM CLR 10/10 A3038 RMK AO2
KTNB 251535Z AUTO 10003KT 7SM BKN011 21/17 A3026 RMK AO2 T02060174
KTNU 251535Z AUTO 29010G17KT 10SM OVC021 18/16 A3004 RMK AO2 PWINO
KTOA 251450Z VRB04KT 10SM SKC 21/09 A3002
KTOB 251534Z AUTO 27010KT 10SM SCT018 16/12 A2995 RMK AO2
KTOC 251535Z AUTO 00000KT 10SM CLR 32/19 A3013 RMK AO2 T03160187
KTOI 251453Z AUTO 10003KT 10SM CLR 29/22 A3007 RMK AO2 SLP177 T02890217 51001
KTOL 251452Z AUTO VRB06KT 10SM CLR 18/10 A3019 RMK AO2 SLP221 T01780100 57003
KTOP 251453Z 34012G21KT 7SM -RA FEW018 SCT090 OVC110 15/13 A3014 RMK AO2 SLP202 P0012 60020 T01500128 51030
KTOR 251453Z AUTO 28006KT 10SM FEW085 11/04 A3042 RMK AO2 SLP290 T01060039 51019
KTPA 251453Z 00000KT 10SM FEW030 FEW300 31/23 A3005 RMK AO2 SLP175 T03060228 53006
KTPF 251535Z AUTO 00000KT 10SM CLR 32/24 A3004 RMK AO2
KTPH 251456Z AUTO 03011KT 10SM CLR 13/M02 A3045 RMK AO2 SLP262 T01331022 53009
KTPL 251526Z AUTO 26010KT 2 1/2SM +TSRA BR SCT009 BKN013 OVC025 23/22 A3003 RMK AO2 WSHFT 1505 VIS 1 1/2V5 LTG DSNT W-N TSB17RAB17 P0027
KTQE 251454Z AUTO 29012KT 10SM CLR 17/09 A3011 RMK AO2 SLP186 T01670089 51008
KTQH 251535Z AUTO 17003KT 10SM CLR 26/20 A3009 RMK AO2
KTRI 251453Z 00000KT 10SM CLR 24/17 A3015 RMK AO2 SLP186 T02440172 58003 $
KTRK 251445Z 00000KT 10SM SKC 01/M06 A3048 RMK NOSPECI
KTRL 251453Z AUTO 13006KT 10SM OVC008 26/23 A3003 RMK AO2 LTG DSNT NW SLP163 T02560228 53006
KTRM 251452Z AUTO VRB06KT 10SM CLR 26/03 A3001 RMK AO2 SLP165 T02610033 53016 TSNO
KTSP 251535Z AUTO 12014G21KT 10SM CLR 22/M05 A3028 RMK AO2
KTTA 251525Z AUTO 06003KT 10SM OVC014 23/20 A3015 RMK AO2 T02260198
KTTD 251453Z 00000KT 10SM CLR 10/09 A3038 RMK AO2 SLP287 T01000089 50003
KTTF 251532Z AUTO 15009G18KT 110V170 10SM CLR 20/12 A3019 RMK AO2 T02020120
KTTN 251453Z 01006KT 10SM CLR 18/04 A3021 RMK AO2 SLP224 T01780044 50000
KTTS 251458Z AUTO 03005KT 4SM HZ FEW019 SCT028 30/25 A3005 RMK AO2 SLP180 T03030246 52013
KTUL 251453Z 01008KT 10SM FEW050 BKN120 OVC250 23/20 A3006 RMK AO2 SLP169 60000 T02330200 50005 $
KTUP 251453Z 00000KT 10SM CLR 29/18 A3006 RMK AO2 SLP174 T02940178 55000
KTUS 251453Z 16008KT 10SM CLR 18/M01 A3006 RMK AO2 SLP144 T01831006 51007
KTVC 251453Z VRB06KT 10SM FEW060 BKN110 17/10 A3013 RMK AO2 SLP201 T01720100 58010
KTVF 251514Z AUTO 20013KT 10SM FEW015 13/10 A2970 RMK AO2
KTVI 251535Z AUTO 06005KT 10SM CLR 30/25 A3007 RMK AO2
KTVK 251355Z AUTO 22007KT 10SM BKN011 22/19 A3004 RMK AO2
KTVL 251453Z AUTO 17004KT 10SM CLR 04/M04 A3047 RMK AO2 SLP295 T00391044 53009
KTVR 251453Z AUTO VRB04KT 10SM CLR 29/22 A3006 RMK AO2 SLP184 T02940217 50003
KTVY 251535Z AUTO 20003KT 10SM CLR 12/06 A3048 RMK AO2
KTWF 251453Z 21008KT 10SM CLR 11/00 A3048 RMK AO2 SLP300 T01110000 51015
KTWM 251534Z AUTO 00000KT 4SM -RA OVC001 18/15 A2980 RMK AO2 P0011
KTXK 251453Z VRB03KT 10SM CLR 26/22 A3006 RMK AO2 SLP173 T02610222 53003 $
KTYQ 251535Z AUTO 15004KT 10SM CLR 24/18 A3013 RMK AO2 T02350175
KTYR 251521Z AUTO 12008KT 10SM OVC014 28/23 A3004 RMK AO2 T02780233
KTYS 251453Z 00000KT 10SM CLR 26/18 A3012 RMK AO2 SLP187 T02610178 50000
KTZR 251455Z 00000KT 10SM SKC 21/14 A3017
KU16 251058Z AUTO 00000KT 10SM CLR 06/04 A3040 RMK AO2 SLP904 T00560039 $
KU42 251535Z AUTO 00000KT 10SM CLR 11/06 A3049 RMK AO1 T01130063
KU68 251535Z AUTO 10004KT 10SM CLR 08/06 A3044 RMK AO2
KUAO 251453Z 35003KT 10SM FEW070 11/09 A3038 RMK AO2 SLP287 T01060089 53004
KUBE 251535Z AUTO 26011KT 7SM -RA SCT003 BKN020 OVC029 17/16 A2989 RMK AO2 P0014
KUCP 251456Z AUTO 07004KT 10SM CLR 17/09 A3023 RMK AO2 SLP250 T01670089 51003 $
KUCY 251535Z AUTO 16006KT 7SM CLR 31/21 A3007 RMK
KUDG 251456Z AUTO 10004KT 10SM FEW060 27/22 A3013 RMK AO2 SLP205 T02720222 51004
KUES 251445Z 15006KT 10SM BKN080 18/16 A3006
KUGN 251455Z 16010KT 10SM CLR 21/16 A3006 RMK AO2 SLP173 T02060156 58005
KUIL 251453Z AUTO 00000KT 10SM OVC022 13/11 A3036 RMK AO2 SLP282 T01330106 53003
KUIN 251454Z AUTO 22010KT 1 1/2SM HZ CLR 24/21 A3004 RMK AO2 SLP166 T02440206 53005 $
KUKF 251525Z AUTO 10004KT 10SM OVC014 21/18 A3024 RMK AO2
KUKI 251456Z AUTO 00000KT 10SM CLR 12/08 A3010 RMK AO2 SLP188 T01170083 53006
KUKT 251535Z AUTO 33006KT 10SM CLR 18/05 A3023 RMK AO1
KULM 251455Z AUTO 25011G17KT 10SM CLR 16/11 A2993 RMK AO2
KUNI 251510Z AUTO 00000KT 10SM CLR 22/13 A3016 RMK AO2 T02190133
KUNO 251453Z AUTO 25005KT 10SM CLR 27/20 A3013 RMK AO2 SLP190 T02720200 51009
KUNU 251535Z AUTO 14010KT 10SM CLR 22/18 A3003 RMK AO2 T02190183
KUNV 251453Z 00000KT 10SM SKC 15/07 A3026
KUOX 251535Z AUTO 17004KT 10SM CLR 32/15 A3008 RMK AO2
KUSE 251535Z AUTO VRB05G10KT 10SM CLR 21/10 A3018 RMK AO2
KUTA 251535Z AUTO 17005KT 10SM CLR 31/18 A3006 RMK AO2 TSNO
KUTS 251453Z AUTO 11004KT 10SM BKN060 OVC090 27/24 A3002 RMK AO2 SLP158 T02670239 53006
KUUU 251453Z AUTO 33013G20KT 10SM CLR 15/03 A3014 RMK AO2 SLP205 T01500028 58002
KUVA 251535Z AUTO 15013G17KT 10SM SCT014 BKN021 OVC028 26/23 A2996 RMK AO2 LTG DSNT W THRU N T02610229
KUXL 251535Z AUTO 13007KT 10SM TS BKN015 BKN027 OVC050 28/23 A3005 RMK AO2 LTG DSNT SW AND W T02800226
KUYF 251535Z AUTO 16004KT 10SM CLR 23/16 A3017 RMK AO2
KUZA 251454Z AUTO VRB03KT 10SM CLR 28/19 A3014 RMK AO2 SLP193 T02830194 51003
KVAD 251458Z AUTO 15004KT 10SM CLR 29/21 A3006 RMK AO2 SLP179 T02920205 56002 $
KVAF 251535Z AUTO 14012KT 9SM CLR 29/24 A3001 RMK A01
KVAY 251454Z AUTO VRB04KT 10SM CLR 18/05 A3022 RMK AO2 SLP232 T01780050 50002
KVBG 251458Z AUTO 12010KT 8SM CLR 20/04 A3002 RMK AO2 SLP167 T01970041 52016 TSNO
KVBS 251535Z AUTO 18007KT 140V230 10SM FEW045 FEW055 29/25 A3001 RMK A01
KVBT 251535Z AUTO 25006KT 10SM CLR 27/19 A3012 RMK AO1
KVBW 251535Z AUTO 33005KT 10SM OVC013 16/12 A3022 RMK AO2 T01570122
KVCB 251453Z AUTO 36007KT 10SM CLR 21/02 A3007 RMK AO2 SLP179 T02110017 51012
KVCT 251451Z 15004KT 10SM FEW070 26/23 A2997 RMK AO2 SLP147 T02560228 50008
KVCV 251535Z AUTO 04006KT 10SM CLR 21/M06 A3024 RMK AO2
KVDF 251535Z AUTO 00000KT CLR 32/23 A3005 RMK AO2 PWINO
KVDI 251535Z AUTO 04005KT 10SM SCT032 30/25 A3009 RMK AO2
KVEL 251453Z AUTO 00000KT 10SM CLR 09/03 A3049 RMK AO2 SLP303 T00890028 53015
KVER 251535Z AUTO 27012G17KT 10SM BKN049 OVC065 26/18 A3009 RMK AO2 T02560180
KVES 251535Z AUTO 13003KT 10SM CLR 23/14 A3016 RMK AO2
KVGT 251453Z 07003KT 10SM CLR 22/01 A3027 RMK AO2 SLP247 T02170006 51018
KVIH 251453Z AUTO 21007KT 10SM CLR 24/20 A3009 RMK AO2 SLP178 T02440200 51007
KVIS 251456Z AUTO 13005KT 10SM CLR 16/08 A3010 RMK AO2 SLP198 T01610078 53018
KVJI 251535Z AUTO 12003KT 10SM CLR 27/18 A3018 RMK AO2 T02710183
KVKS 251535Z AUTO 00000KT 10SM CLR 30/22 A3005 RMK A01
KVLD 251453Z 09004KT 10SM CLR 29/24 A3006 RMK AO2 SLP186 T02940239 56003
KVLL 251534Z AUTO 15005KT 10SM CLR 21/09 A3022 RMK AO2 T02050089
KVNC 251535Z AUTO 00000KT 10SM FEW029 31/25 A3004 RMK AO2 TSNO
KVNY 251451Z 00000KT 10SM CLR 21/04 A3003 RMK AO2 SLP162 T02060044 53012
KVOA 251535Z AUTO 02005KT 9SM FEW070 29/24 A3005 RMK A01
KVOK 251458Z AUTO 15008KT 10SM CLR 21/19 A2995 RMK AO2 SLP143 T02080186 57015
KVPC 251453Z AUTO 07004KT 10SM CLR 28/20 A3012 RMK AO2 SLP188 T02780200 51006
KVPS 251455Z 09003KT 10SM FEW090 FEW250 29/20 A3004 RMK AO2A SLP178 T02910199 52004 $
KVPZ 251456Z AUTO VRB06KT 10SM CLR 21/13 A3011 RMK AO2 SLP192 T02110133 58008
KVQQ 251450Z 36006KT 10SM CLR 29/24 A3006
KVQT 251535Z AUTO 16011KT 10SM FEW034 26/23 A3006 RMK A01
KVRB 251453Z 10008KT 10SM SCT020 29/24 A3007 RMK AO2 SLP182 T02940239 53017
KVSF 251454Z AUTO 27011KT 10SM SCT055 13/02 A3017 RMK AO2 SLP219 T01330017 58005 TSNO
KVTA 251454Z AUTO 08004KT 10SM CLR 19/11 A3018 RMK AO2 SLP216 T01890111 50000
KVTI 251535Z AUTO 24006KT 10SM BKN015 OVC095 22/20 A2999 RMK AO2
KVTN 251452Z AUTO 31023G34KT 10SM CLR 14/02 A3024 RMK AO2 PK WND 32034/1451 SLP238 T01390022 52021
KVTP 251526Z AUTO 10SM SCT012 04/M01 A3059 RMK AO2
KVUJ 251525Z AUTO 09003KT 10SM OVC016 24/21 A3019 RMK AO2 T02420209
KVUO 251453Z AUTO 00000KT 10SM OVC007 11/09 A3038 RMK AO2 SLP287 T01060089 51005
KVVG 251535Z AUTO 10SM 31/27 A2995 RMK A01
KVWU 251534Z AUTO 23010KT 10SM SCT025 SCT075 14/13 A2972 RMK AO2
KVYS 251535Z AUTO 16006KT 10SM SCT050 26/21 A3004 RMK AO2 T02560207
KW13 251535Z AUTO 10006KT 070V140 10SM OVC014 17/14 A3022 RMK AO1 T01680141
KW22 251535Z AUTO 31003KT 10SM 23/13 A3017 RMK AO2 PWINO
KW29 251525Z AUTO 10SM CLR 19/09 A3022 RMK AO2
KW43 251535Z AUTO 29009G16KT 10SM CLR 10/02 A3040 RMK AO2
KW63 251535Z AUTO 10005KT 10SM BKN021 OVC034 21/17 A3018 RMK AO1
KW75 251535Z AUTO 06006KT 10SM SCT029 SCT034 SCT050 21/15 A3019 RMK AO1 T02130152
KW78 251535Z AUTO 00000KT 10SM OVC033 22/15 A3018 RMK AO1 T02230151
KW81 251535Z AUTO 07003KT 10SM BKN018 OVC038 21/17 A3020 RMK AO1 T02060168
KW96 251535Z AUTO 06003KT 10SM SCT023 OVC047 20/15 A3019 RMK AO1 T02010151
KW99 251515Z AUTO 03003KT 10SM OVC025 19/11 A3021 RMK AO2 T01870110
KWAL 251454Z AUTO 36008KT 10SM CLR 21/12 A3019 RMK AO2 SLP220 T02110122 51002
KWDG 251521Z 34012G23KT 7SM BKN007 BKN014 OVC021 19/19 A3014
KWDR 251535Z AUTO 00000KT 10SM CLR 29/19 A3015 RMK AO1 LTG DSNT SE
KWHP 251453Z 00000KT 10SM SKC 23/00 A3007
KWJF 251456Z 25005KT 10SM CLR 14/M02 A3021 RMK AO2 SLP219 T01441017 51016
KWLD 251520Z AUTO 36016G22KT 5SM -RA BR SCT034 SCT042 OVC060 15/15 A3018 RMK AO2 PK WND 35029/1457 P0004 T01500150 $
KWMC 251456Z AUTO 13003KT 10SM CLR 05/M06 A3048 RMK AO2 SLP311 T00501056 53009
KWRB 251458Z AUTO VRB02KT 10SM CLR 29/23 A3008 RMK AO2 SLP186 T02860226 53001
KWRI 251458Z AUTO 33007KT 290V360 10SM CLR 18/06 A3019 RMK AO2 SLP223 T01810056 52002
KWRL 251453Z AUTO 00000KT 10SM CLR 08/06 A3044 RMK AO2 SLP310 T00780056 51017
KWST 251453Z AUTO 33010G16KT 10SM CLR 16/02 A3017 RMK AO2 SLP215 T01560017 58002
KWVI 251453Z AUTO 00000KT 10SM CLR 17/11 A3004 RMK AO2 SLP171 T01670111 $
KWVL 251456Z AUTO 32014G22KT 10SM CLR 13/02 A3003 RMK AO2 SLP207 T01280017 58001
KWWD 251456Z AUTO 04009KT 10SM 19/09 A3021 RMK AO2 SLP231 T01890089 53005 $
KWWR 251221Z AUTO 35018G27KT 10SM BKN008 17/14 A3017 RMK AO2
KWYS 251535Z AUTO 00000KT 10SM CLR 02/M01 A3053 RMK AO2
KX60 251535Z AUTO 12003KT 10SM CLR 32/24 A3005 RMK A01 TSNO
KXBP 251535Z AUTO 02004KT 10SM OVC006 22/22 A3008 RMK AO2 T02150215
KXIH 251535Z AUTO VRB04KT 10SM CLR 32/24 A2999 RMK A01
KXLL 251535Z AUTO 00000KT 10SM CLR 17/05 A3024 RMK AO2
KXMR 251458Z AUTO 36003KT 10SM CLR 30/24 A3005 RMK AO2 SLP179 T02990239 52013 $
KXNA 251453Z 18007KT 10SM CLR 26/22 A3011 RMK AO2 SLP179 T02560217 51009
KXPY 251535Z AUTO 13006KT 10SM CLR 30/22 A3006 RMK A01
KXSA 251535Z AUTO 01003KT 10SM BKN050 BKN055 21/12 A3021 RMK AO2 T02090120
KXVG 251455Z AUTO 21010G18KT 190V250 10SM CLR 16/12 A2977 RMK AO2
KY19 251515Z AUTO 31025G35KT 10SM CLR 12/06 A3006 RMK AO2
KY23 251535Z AUTO 15010G15KT 3SM RA OVC005 18/18 A2988 RMK AO2 P0001 T01820180
KY49 251535Z AUTO 22015G22KT 10SM OVC020 14/10 A2976 RMK AO2 T01380103
KY50 251512Z AUTO 15007KT 10SM BKN011 OVC041 21/18 A2999 RMK AO2 LTG DSNT NW
KY51 251535Z AUTO 20006KT 4SM OVC006 20/20 A2997 RMK AO1 T02020197
KY63 251539Z AUTO 31016G22KT 250V330 10SM OVC025 15/11 A2984 RMK AO2 T01520109
KY70 251533Z AUTO 15008KT 10SM BKN080 19/11 A3016 RMK AO2 T01900112
KYIP 251453Z AUTO 13006KT 10SM CLR 21/12 A3021 RMK AO2 SLP226 T02110122 56004 TSNO
KYKM 251453Z 28003KT 10SM CLR 10/04 A3040 RMK AO2 SLP295 T01000044 53006
KYKN 251535Z AUTO 27022G27KT 10SM OVC039 16/08 A3008 RMK AO1
KYNG 251451Z 09005KT 10SM SCT250 16/09 A3022 RMK AO2 SLP232 T01610089 50003
KZPH 251535Z AUTO 00000KT 10SM CLR A3006 RMK AO2 LTG DSNT SE
KZZV 251453Z AUTO 02004KT 10SM CLR 20/11 A3019 RMK AO2 SLP218 T02000111 53003